AF228 / F-GSPS 7700 Squawk Report (13th of June, 2018)

Aircraft B772 Reg No. F-GSPS Age 16 years old
Model 777 Jet engines 2 First flight 23-10-01
Registered 06-11-01 Rollout 07-10-01 Delivered 02-11-01
Construction No. 32306 Line No. 0370 Series 228(ER)
ADSHEX 3949F2 Airline name Air France Owner N/A
Airfield based Paris-Charles de Gaulle~Val-d'Oise~F First tracked 2011-04-01 19:41:01

Flight history for F-GSPS

Route Flight No Date Playback
Pudong (PVG) - Charles De Gaulle (CDG) AF117 2018-09-20 10:56:00
Charles De Gaulle (CDG) - Pudong (PVG) AF112 2018-09-20 02:33:00
Taoyuan Intl (TPE) - Charles De Gaulle (CDG) AF557 2018-09-18 15:49:00
Charles De Gaulle (CDG) - Taoyuan Intl (TPE) AF552 2018-09-18 00:07:00
Washington Dulles Intl (IAD) - Charles De Gaulle (CDG) AF27 2018-09-17 12:21:00
Charles De Gaulle (CDG) - Washington Dulles Intl (IAD) AF26 2018-09-17 01:14:00
???? N/A 2018-09-15 21:29:00
John F Kennedy Intl (JFK) - Charles De Gaulle (CDG) AF9 2018-09-15 21:17:00
Charles De Gaulle (CDG) - John F Kennedy Intl (JFK) AF8 2018-09-15 03:47:00
Pudong (PVG) - Charles De Gaulle (CDG) AF117 2018-09-14 17:09:00
Charles De Gaulle (CDG) - Pudong (PVG) AF112 2018-09-14 02:26:00
Ministro Pistarini (EZE) - Charles De Gaulle (CDG) AF229 2018-09-13 05:56:00
Charles De Gaulle (CDG) - Ministro Pistarini (EZE) AF228 2018-09-12 16:52:00
San Francisco Intl (SFO) - Charles De Gaulle (CDG) AF85 2018-09-11 13:44:00
???? N/A 2018-09-11 01:25:00
???? N/A 2018-09-10 11:51:00
Tianhe (WUH) - Charles De Gaulle (CDG) AF139 2018-09-10 00:16:00
Charles De Gaulle (CDG) - Tianhe (WUH) AF138 2018-09-08 23:30:00
Tocumen Intl (PTY) - Charles De Gaulle (CDG) AF475 2018-09-08 14:00:00
Charles De Gaulle (CDG) - Tocumen Intl (PTY) AF474 2018-09-07 22:09:00
Time Lat Lon Altitude Heading Speed Vertical Rate
2018-06-14 06:16:37 GMT 49.008808 2.576118 0 87 15
2018-06-14 06:15:56 GMT 49.008591 2.572301 0 84 13
2018-06-14 06:15:39 GMT 49.008522 2.570906 0 84 12
2018-06-14 06:15:28 GMT 49.008488 2.570114 0 87 11
2018-06-14 06:14:57 GMT 49.008312 2.566952 0 84 14
2018-06-14 06:14:42 GMT 49.008228 2.565561 0 84 14
2018-06-14 06:14:36 GMT 49.008202 2.565061 0 84 15
2018-06-14 06:14:21 GMT 49.008057 2.563446 0 81 16
2018-06-14 06:14:14 GMT 49.007996 2.562843 0 81 16
2018-06-14 06:14:06 GMT 49.007915 2.562037 0 81 16
2018-06-14 06:13:56 GMT 49.007820 2.561007 0 81 15
2018-06-14 06:13:45 GMT 49.007710 2.559885 0 81 15
2018-06-14 06:11:18 GMT 49.003132 2.553881 0 343 18
2018-06-14 06:10:11 GMT 48.998486 2.556769 0 295 14
2018-06-14 06:09:50 GMT 48.998108 2.558652 0 286 14
2018-06-14 06:09:43 GMT 48.998005 2.559304 0 278 13
2018-06-14 06:09:31 GMT 48.997993 2.560325 0 264 14
2018-06-14 06:09:22 GMT 48.998028 2.561100 0 264 13
2018-06-14 06:09:14 GMT 48.998070 2.561784 0 264 14
2018-06-14 06:09:02 GMT 48.998131 2.562896 0 267 13
2018-06-14 06:08:47 GMT 48.998184 2.563989 0 264 12
2018-06-14 06:08:40 GMT 48.998219 2.564585 0 264 10
2018-06-14 06:08:30 GMT 48.998245 2.565109 0 267 8
2018-06-14 06:08:21 GMT 48.998268 2.565488 0 56 6
2018-06-14 06:08:08 GMT 48.998268 2.565765 0 56 0
2018-06-14 06:06:44 GMT 48.998280 2.565783 0 56 0
2018-06-14 06:06:04 GMT 48.998280 2.565777 0 56 0
2018-06-14 06:03:48 GMT 48.998280 2.565777 0 56 0
2018-06-14 06:03:18 GMT 48.998280 2.565765 0 56 0
2018-06-14 05:59:41 GMT 48.998280 2.565777 0 56 0
2018-06-14 05:59:16 GMT 48.998280 2.565765 0 56 0
2018-06-14 05:59:01 GMT 48.998280 2.565777 0 56 0
2018-06-14 05:57:07 GMT 48.998280 2.565777 0 56 0
2018-06-14 05:56:27 GMT 48.998280 2.565765 0 56 0
2018-06-14 05:55:48 GMT 48.998280 2.565783 0 56 0
2018-06-14 05:55:38 GMT 48.998280 2.565777 0 56 0
2018-06-14 05:55:33 GMT 48.998280 2.565783 0 56 0
2018-06-14 05:54:54 GMT 48.998280 2.565777 0 56 0
2018-06-14 05:54:36 GMT 48.998280 2.565783 0 56 0
2018-06-14 05:54:31 GMT 48.998280 2.565795 0 56 3
2018-06-14 05:54:22 GMT 48.998291 2.566085 0 56 7
2018-06-14 05:54:12 GMT 48.998314 2.566482 0 56 7
2018-06-14 05:54:01 GMT 48.998280 2.566980 0 284 8
2018-06-14 05:53:51 GMT 48.998188 2.567491 0 286 9
2018-06-14 05:53:38 GMT 48.998051 2.568230 0 286 10
We lost coverage of the aircraft here for a total of 15 minutes
2018-06-14 05:38:16 GMT 48.996975 2.576800 0 267 29 0
2018-06-14 05:38:05 GMT 48.997128 2.579727 0 264 54 0
2018-06-14 05:37:57 GMT 48.997353 2.584111 0 264 90 0
2018-06-14 05:37:38 GMT 48.998199 2.599605 200 266 144 -576
2018-06-14 05:37:32 GMT 48.998520 2.605873 300 266 144 -576
2018-06-14 05:37:26 GMT 48.998840 2.611859 375 266 139 -768
2018-06-14 05:37:23 GMT 48.998978 2.614887 425 266 140 -832
2018-06-14 05:37:18 GMT 48.999256 2.619661 475 265 137 -640
2018-06-14 05:37:11 GMT 48.999580 2.625877 575 265 137 -640
2018-06-14 05:37:08 GMT 48.999817 2.630286 625 266 136 -768
2018-06-14 05:37:02 GMT 49.000076 2.634958 675 266 136 -704
2018-06-14 05:36:57 GMT 49.000374 2.640983 750 266 137 -768
2018-06-14 05:36:51 GMT 49.000626 2.645311 800 266 137 -640
2018-06-14 05:36:45 GMT 49.000900 2.650663 875 266 137 -704
2018-06-14 05:36:42 GMT 49.001118 2.654644 925 266 137 -704
2018-06-14 05:36:35 GMT 49.001446 2.661149 1,000 266 136 -704
2018-06-14 05:36:28 GMT 49.001770 2.667213 1,075 266 137 -704
2018-06-14 05:36:24 GMT 49.001957 2.671123 1,125 266 137 -704
2018-06-14 05:36:20 GMT 49.002182 2.675100 1,175 266 137 -704
2018-06-14 05:36:13 GMT 49.002548 2.681791 1,275 266 137 -704
2018-06-14 05:36:10 GMT 49.002701 2.685218 1,300 265 137 -704
2018-06-14 05:36:04 GMT 49.003052 2.691298 1,375 265 137 -704
2018-06-14 05:36:00 GMT 49.003262 2.694469 1,425 266 137 -704
2018-06-14 05:35:53 GMT 49.003586 2.701553 1,525 266 137 -704
2018-06-14 05:35:49 GMT 49.003784 2.705524 1,575 266 137 -704
2018-06-14 05:35:42 GMT 49.004105 2.711862 1,650 266 137 -704
2018-06-14 05:35:39 GMT 49.004238 2.714490 1,675 266 137 -640
2018-06-14 05:35:31 GMT 49.004654 2.722849 1,775 265 137 -704
2018-06-14 05:35:28 GMT 49.004795 2.725260 1,825 266 137 -768
2018-06-14 05:35:20 GMT 49.005215 2.732777 1,925 266 138 -704
2018-06-14 05:35:16 GMT 49.005432 2.736793 1,975 266 139 -704
2018-06-14 05:35:10 GMT 49.005726 2.742462 2,025 266 144 -704
2018-06-14 05:35:05 GMT 49.005981 2.747427 2,100 266 146 -832
2018-06-14 05:34:58 GMT 49.006474 2.756918 2,250 266 155 -768
2018-06-14 05:34:53 GMT 49.006611 2.760170 2,250 266 155 -768
2018-06-14 05:34:50 GMT 49.006897 2.765104 2,325 266 157 -768
2018-06-14 05:34:47 GMT 49.007030 2.767615 2,350 266 158 -832
2018-06-14 05:34:39 GMT 49.007496 2.776650 2,475 266 163 -896
2018-06-14 05:34:36 GMT 49.007675 2.780245 2,500 266 165 -896
2018-06-14 05:34:28 GMT 49.008133 2.789189 2,625 266 171 -896
2018-06-14 05:34:25 GMT 49.008286 2.792407 2,675 266 173 -960
2018-06-14 05:34:16 GMT 49.008957 2.804612 2,825 266 180 -832
2018-06-14 05:34:05 GMT 49.009644 2.818275 2,975 266 187 -960
2018-06-14 05:33:55 GMT 49.010376 2.833064 3,175 266 189 -1024
2018-06-14 05:33:44 GMT 49.011032 2.845748 3,350 266 190 -1088
2018-06-14 05:33:34 GMT 49.011749 2.859755 3,550 266 190 -1088
2018-06-14 05:33:23 GMT 49.012428 2.874298 3,825 266 190 -960
2018-06-14 05:33:19 GMT 49.012756 2.880601 3,825 266 190 -960
2018-06-14 05:33:15 GMT 49.012985 2.885883 3,875 266 188 -384
2018-06-14 05:33:12 GMT 49.013123 2.888489 3,875 266 187 -128
2018-06-14 05:33:02 GMT 49.013763 2.901658 3,900 267 187 0
2018-06-14 05:32:53 GMT 49.014404 2.914546 3,900 266 186 0
2018-06-14 05:32:43 GMT 49.015137 2.926800 3,900 264 186 0
2018-06-14 05:32:39 GMT 49.015457 2.931448 3,900 264 186 0
2018-06-14 05:32:33 GMT 49.016052 2.940885 3,900 267 188 64
2018-06-14 05:32:30 GMT 49.016144 2.944054 3,875 268 189 64
2018-06-14 05:32:21 GMT 49.016014 2.956117 3,875 277 197 0
2018-06-14 05:32:16 GMT 49.015316 2.962478 3,875 277 197 0
2018-06-14 05:32:10 GMT 49.013874 2.970501 3,875 286 205 0
2018-06-14 05:31:59 GMT 49.011063 2.985676 3,900 287 206 0
2018-06-14 05:31:49 GMT 49.008427 2.999484 3,900 288 206 0
2018-06-14 05:31:41 GMT 49.005478 3.013353 3,900 291 206 0
2018-06-14 05:31:37 GMT 49.004837 3.016099 3,900 291 206 0
2018-06-14 05:31:29 GMT 49.001118 3.028685 3,875 300 207 0
2018-06-14 05:31:18 GMT 48.995911 3.041734 3,900 303 207 0
2018-06-14 05:31:08 GMT 48.991249 3.052970 3,900 303 207 0
2018-06-14 05:30:56 GMT 48.985058 3.068077 3,875 303 207 0
2018-06-14 05:30:47 GMT 48.980438 3.079341 3,900 303 207 0
2018-06-14 05:30:37 GMT 48.975189 3.092145 3,900 302 208 0
2018-06-14 05:30:27 GMT 48.970161 3.104216 3,900 309 208 0
2018-06-14 05:30:16 GMT 48.963177 3.117009 3,900 322 210 0
2018-06-14 05:30:07 GMT 48.955948 3.123498 3,900 351 212 0
2018-06-14 05:29:59 GMT 48.948002 3.125683 3,900 351 212 0
2018-06-14 05:29:56 GMT 48.945442 3.125538 3,900 11 213 0
2018-06-14 05:29:50 GMT 48.939949 3.123803 3,900 11 213 0
2018-06-14 05:29:46 GMT 48.935486 3.120751 3,875 63 214 0
2018-06-14 05:29:35 GMT 48.927704 3.110187 3,875 63 214 0
2018-06-14 05:29:32 GMT 48.926102 3.106384 3,875 63 214 0
2018-06-14 05:29:23 GMT 48.923218 3.094060 3,875 82 213 -192
2018-06-14 05:29:14 GMT 48.922630 3.080581 4,025 89 224 -256
2018-06-14 05:29:02 GMT 48.922539 3.062294 4,025 89 224 -192
2018-06-14 05:28:53 GMT 48.922443 3.045598 4,050 89 233 -448
2018-06-14 05:28:41 GMT 48.922306 3.027745 4,150 89 238 -448
2018-06-14 05:28:33 GMT 48.922165 3.014229 4,200 89 247 -384
2018-06-14 05:28:30 GMT 48.922119 3.008916 4,200 89 247 -384
2018-06-14 05:28:21 GMT 48.921978 2.993268 4,300 89 252 -1024
2018-06-14 05:28:10 GMT 48.921844 2.974407 4,450 89 264 -896
2018-06-14 05:28:00 GMT 48.921616 2.954336 4,700 88 275 -2176
2018-06-14 05:27:49 GMT 48.921421 2.934000 5,150 89 278 -2624
2018-06-14 05:27:39 GMT 48.921234 2.913979 5,600 88 280 -2752
2018-06-14 05:27:29 GMT 48.920956 2.892295 6,075 89 283 -2496
2018-06-14 05:27:20 GMT 48.920815 2.875816 6,425 89 286 -2752
2018-06-14 05:27:16 GMT 48.920769 2.868299 6,600 89 286 -2752
2018-06-14 05:27:10 GMT 48.920677 2.855795 6,900 89 288 -2752
2018-06-14 05:27:07 GMT 48.920628 2.850157 7,000 89 289 -2624
2018-06-14 05:27:00 GMT 48.920471 2.834895 7,325 89 292 -2560
2018-06-14 05:26:57 GMT 48.920425 2.827501 7,475 89 293 -2624
2018-06-14 05:26:50 GMT 48.920258 2.813295 7,800 88 294 -3008
2018-06-14 05:26:46 GMT 48.920162 2.806284 7,975 88 294 -3136
2018-06-14 05:26:39 GMT 48.919968 2.792077 8,325 88 294 -3008
2018-06-14 05:26:35 GMT 48.919838 2.784022 8,500 89 295 -2752
2018-06-14 05:26:29 GMT 48.919697 2.771157 8,775 89 296 -2432
2018-06-14 05:26:25 GMT 48.919605 2.762411 8,925 89 296 -2304
2018-06-14 05:26:19 GMT 48.919464 2.749399 9,175 88 297 -2048
2018-06-14 05:26:14 GMT 48.919373 2.740800 9,300 88 299 -2048
2018-06-14 05:26:08 GMT 48.919144 2.727145 9,525 88 301 -2112
2018-06-14 05:26:03 GMT 48.919048 2.718104 9,675 89 302 -2176
2018-06-14 05:25:57 GMT 48.918907 2.705383 9,875 89 303 -2240
2018-06-14 05:25:53 GMT 48.918861 2.696059 10,050 89 303 -2304
2018-06-14 05:25:47 GMT 48.918732 2.683481 10,275 89 303 -2176
2018-06-14 05:25:42 GMT 48.918629 2.671774 10,450 89 303 -2112
2018-06-14 05:25:36 GMT 48.918503 2.659607 10,650 89 305 -1856
2018-06-14 05:25:32 GMT 48.918396 2.650885 10,750 89 306 -1536
2018-06-14 05:25:25 GMT 48.918255 2.636141 10,900 88 309 -1152
2018-06-14 05:25:21 GMT 48.918118 2.627395 10,975 88 310 -1216
2018-06-14 05:25:15 GMT 48.917976 2.614457 11,125 89 310 -1344
2018-06-14 05:25:10 GMT 48.917835 2.604049 11,225 89 310 -1408
2018-06-14 05:25:04 GMT 48.917725 2.591647 11,350 89 311 -1408
2018-06-14 05:24:59 GMT 48.917603 2.580486 11,475 89 311 -1408
2018-06-14 05:24:54 GMT 48.917465 2.569138 11,600 88 311 -1344
2018-06-14 05:24:49 GMT 48.917370 2.559019 11,700 88 311 -1344
2018-06-14 05:24:44 GMT 48.917221 2.546715 11,825 88 312 -1280
2018-06-14 05:24:40 GMT 48.917091 2.536830 11,925 88 312 -1216
2018-06-14 05:24:37 GMT 48.917000 2.530253 12,000 89 313 -1152
2018-06-14 05:24:33 GMT 48.916950 2.523242 12,050 89 314 -1088
2018-06-14 05:24:29 GMT 48.916859 2.513556 12,125 89 315 -1088
2018-06-14 05:24:26 GMT 48.916767 2.506473 12,200 89 316 -1152
2018-06-14 05:24:23 GMT 48.916718 2.500763 12,225 88 316 -1152
2018-06-14 05:24:17 GMT 48.916485 2.484717 12,425 88 318 -1216
2018-06-14 05:24:13 GMT 48.916348 2.478067 12,525 87 318 -1216
2018-06-14 05:24:07 GMT 48.915985 2.464388 12,650 87 319 -1280
2018-06-14 05:24:03 GMT 48.915649 2.453926 12,650 86 319 -1472
2018-06-14 05:23:56 GMT 48.915043 2.440049 12,800 85 318 -1536
2018-06-14 05:23:52 GMT 48.914623 2.431592 12,900 85 318 -1152
2018-06-14 05:23:47 GMT 48.914021 2.419956 12,975 85 321 0
2018-06-14 05:23:44 GMT 48.913601 2.412800 13,000 85 321 0
2018-06-14 05:23:39 GMT 48.912853 2.399356 13,000 85 321 0
2018-06-14 05:23:36 GMT 48.912621 2.394803 13,000 85 321 0
2018-06-14 05:23:33 GMT 48.912251 2.388081 12,975 85 321 0
2018-06-14 05:23:29 GMT 48.911739 2.379118 12,975 84 321 0
2018-06-14 05:23:24 GMT 48.911087 2.367695 12,975 85 322 0
2018-06-14 05:23:19 GMT 48.910446 2.356427 12,975 85 322 0
2018-06-14 05:23:14 GMT 48.909805 2.345581 13,000 85 322 0
2018-06-14 05:23:10 GMT 48.909210 2.334806 13,000 85 322 0
2018-06-14 05:23:04 GMT 48.908478 2.321777 13,000 85 322 0
2018-06-14 05:22:58 GMT 48.907734 2.309442 13,000 85 322 0
2018-06-14 05:22:53 GMT 48.907150 2.298467 13,000 85 322 0
2018-06-14 05:22:50 GMT 48.906738 2.291495 13,000 85 322 0
2018-06-14 05:22:45 GMT 48.906143 2.280367 13,000 85 322 0
2018-06-14 05:22:42 GMT 48.905777 2.273607 12,975 85 322 0
2018-06-14 05:22:38 GMT 48.905182 2.262831 12,975 85 323 0
2018-06-14 05:22:32 GMT 48.904541 2.251563 12,975 85 323 0
2018-06-14 05:22:29 GMT 48.904148 2.244536 13,000 85 322 0
2018-06-14 05:22:25 GMT 48.903637 2.235501 13,000 85 322 0
2018-06-14 05:22:22 GMT 48.903214 2.227548 13,000 85 322 0
2018-06-14 05:22:18 GMT 48.902756 2.219520 13,000 85 322 0
2018-06-14 05:22:14 GMT 48.902344 2.212337 13,000 85 322 0
2018-06-14 05:22:11 GMT 48.901917 2.204060 13,000 85 321 0
2018-06-14 05:22:08 GMT 48.901451 2.195459 13,000 85 321 0
2018-06-14 05:22:04 GMT 48.901123 2.189676 13,000 85 321 0
2018-06-14 05:22:01 GMT 48.900658 2.180642 13,000 85 321 0
2018-06-14 05:21:56 GMT 48.900055 2.170082 13,000 85 321 0
2018-06-14 05:21:53 GMT 48.899727 2.164090 13,000 85 321 0
2018-06-14 05:21:50 GMT 48.899368 2.156982 13,000 85 321 0
2018-06-14 05:21:46 GMT 48.898891 2.148333 13,000 85 321 0
2018-06-14 05:21:39 GMT 48.897995 2.130643 13,000 85 320 0
2018-06-14 05:21:36 GMT 48.897720 2.125714 13,000 85 320 0
2018-06-14 05:21:32 GMT 48.897079 2.113178 13,000 85 321 0
2018-06-14 05:21:28 GMT 48.896667 2.105995 13,000 85 321 0
2018-06-14 05:21:24 GMT 48.896301 2.098811 13,000 85 321 0
2018-06-14 05:21:19 GMT 48.895584 2.085523 13,000 85 321 0
2018-06-14 05:21:14 GMT 48.895065 2.075853 13,000 85 321 0
2018-06-14 05:21:09 GMT 48.894424 2.064655 12,975 84 321 0
2018-06-14 05:21:06 GMT 48.894096 2.059503 12,975 84 320 0
2018-06-14 05:21:02 GMT 48.893490 2.050107 12,975 84 320 0
2018-06-14 05:20:57 GMT 48.892776 2.039161 12,975 84 320 0
2018-06-14 05:20:52 GMT 48.892044 2.028386 12,975 84 320 0
2018-06-14 05:20:46 GMT 48.891037 2.013245 12,975 77 319 0
2018-06-14 05:20:39 GMT 48.889904 1.998283 12,975 81 320 0
2018-06-14 05:20:36 GMT 48.888973 1.990838 12,975 73 318 0
2018-06-14 05:20:33 GMT 48.888088 1.985634 12,975 65 315 0
2018-06-14 05:20:27 GMT 48.885063 1.972190 12,975 67 315 0
2018-06-14 05:20:23 GMT 48.882706 1.964370 12,975 60 313 -64
2018-06-14 05:20:16 GMT 48.877853 1.951904 13,000 47 309 -576
2018-06-14 05:20:13 GMT 48.875053 1.946098 13,000 48 310 -512
2018-06-14 05:20:06 GMT 48.868118 1.934533 13,075 44 308 -832
2018-06-14 05:20:03 GMT 48.864861 1.929691 13,100 44 309 -1408
2018-06-14 05:19:56 GMT 48.856899 1.917909 13,250 44 309 -1472
2018-06-14 05:19:53 GMT 48.854431 1.914295 13,375 44 309 -1472
2018-06-14 05:19:50 GMT 48.852264 1.911128 13,350 44 309 -1472
2018-06-14 05:19:45 GMT 48.846771 1.902959 13,525 44 309 -1408
2018-06-14 05:19:42 GMT 48.843399 1.897960 13,575 44 309 -1408
2018-06-14 05:19:34 GMT 48.835510 1.886338 13,775 44 310 -1536
2018-06-14 05:19:31 GMT 48.832397 1.881761 13,825 44 310 -1536
2018-06-14 05:19:23 GMT 48.824081 1.869555 14,050 44 310 -1472
2018-06-14 05:19:19 GMT 48.820679 1.864577 14,100 43 311 -1408
2018-06-14 05:19:13 GMT 48.813793 1.854377 14,350 43 311 -1408
2018-06-14 05:19:10 GMT 48.810905 1.850184 14,325 43 311 -1408
2018-06-14 05:19:00 GMT 48.800217 1.834646 14,725 43 310 -1664
2018-06-14 05:18:55 GMT 48.794403 1.826195 14,725 43 310 -1664
2018-06-14 05:18:51 GMT 48.791214 1.821562 14,825 43 310 -1664
2018-06-14 05:18:42 GMT 48.781067 1.806817 14,975 44 311 -64
2018-06-14 05:18:39 GMT 48.777878 1.802110 14,975 43 312 -64
2018-06-14 05:18:30 GMT 48.769547 1.789997 15,000 44 313 -128
2018-06-14 05:18:27 GMT 48.766434 1.785419 15,000 43 314 -128
2018-06-14 05:18:20 GMT 48.758999 1.774581 15,000 43 315 -64
2018-06-14 05:18:17 GMT 48.755836 1.769955 15,000 43 316 0
2018-06-14 05:18:12 GMT 48.750275 1.761756 15,000 43 322 0
2018-06-14 05:18:09 GMT 48.747070 1.757108 15,000 43 322 0
2018-06-14 05:18:06 GMT 48.743820 1.752390 15,000 44 325 0
2018-06-14 05:18:03 GMT 48.740570 1.747601 15,000 44 330 64
2018-06-14 05:18:00 GMT 48.737633 1.743285 15,000 44 331 128
2018-06-14 05:17:56 GMT 48.732880 1.736333 14,975 44 342 64
2018-06-14 05:17:51 GMT 48.727856 1.728901 14,975 44 341 128
2018-06-14 05:17:48 GMT 48.724777 1.724431 14,975 44 341 128
2018-06-14 05:17:45 GMT 48.721478 1.719577 14,975 44 346 0
2018-06-14 05:17:40 GMT 48.714077 1.708808 14,975 43 350 0
2018-06-14 05:17:34 GMT 48.707794 1.699628 15,000 43 350 0
2018-06-14 05:17:31 GMT 48.704178 1.694359 15,000 43 350 0
2018-06-14 05:17:28 GMT 48.701385 1.690275 15,000 43 350 0
2018-06-14 05:17:25 GMT 48.697449 1.684500 15,000 43 348 0
2018-06-14 05:17:21 GMT 48.692551 1.677387 15,000 43 348 0
2018-06-14 05:17:18 GMT 48.690033 1.673654 15,000 43 348 0
2018-06-14 05:17:15 GMT 48.685135 1.666612 15,000 43 348 0
2018-06-14 05:17:09 GMT 48.678047 1.656261 15,000 43 347 0
2018-06-14 05:17:04 GMT 48.672821 1.648653 15,000 43 348 0
2018-06-14 05:16:58 GMT 48.665756 1.638336 15,000 43 348 0
2018-06-14 05:16:53 GMT 48.660095 1.630132 15,000 43 347 0
2018-06-14 05:16:49 GMT 48.654396 1.621857 15,000 43 347 0
2018-06-14 05:16:46 GMT 48.652451 1.619004 14,975 43 347 0
2018-06-14 05:16:42 GMT 48.648159 1.612822 15,000 43 345 0
2018-06-14 05:16:39 GMT 48.642853 1.605088 14,975 43 346 0
2018-06-14 05:16:36 GMT 48.640411 1.601609 15,000 43 345 0
2018-06-14 05:16:31 GMT 48.635605 1.594567 14,975 43 345 0
2018-06-14 05:16:27 GMT 48.630192 1.586729 14,975 44 345 0
2018-06-14 05:16:22 GMT 48.623070 1.576321 14,975 44 344 0
2018-06-14 05:16:18 GMT 48.618851 1.570129 14,975 44 345 0
2018-06-14 05:16:14 GMT 48.615646 1.565481 14,975 44 344 0
2018-06-14 05:16:10 GMT 48.610497 1.557963 14,975 44 344 0
2018-06-14 05:16:06 GMT 48.606033 1.551396 14,975 44 345 0
2018-06-14 05:16:01 GMT 48.599167 1.541396 14,975 43 345 0
2018-06-14 05:15:57 GMT 48.595600 1.536207 14,975 45 345 0
2018-06-14 05:15:54 GMT 48.593216 1.532663 14,975 44 345 0
2018-06-14 05:15:49 GMT 48.586571 1.522546 14,975 46 347 0
2018-06-14 05:15:44 GMT 48.581451 1.514212 14,975 47 348 -64
2018-06-14 05:15:38 GMT 48.575226 1.503578 15,000 49 351 -384
2018-06-14 05:15:34 GMT 48.570557 1.495153 15,025 50 352 -832
2018-06-14 05:15:29 GMT 48.566162 1.486887 15,100 53 355 -832
2018-06-14 05:15:26 GMT 48.563293 1.481203 15,150 53 354 -896
2018-06-14 05:15:23 GMT 48.560303 1.475055 15,200 54 354 -896
2018-06-14 05:15:19 GMT 48.556030 1.465952 15,250 55 355 -896
2018-06-14 05:15:16 GMT 48.553345 1.460055 15,300 55 356 -896
2018-06-14 05:15:13 GMT 48.550735 1.454350 15,350 55 356 -896
2018-06-14 05:15:09 GMT 48.546799 1.445759 15,400 55 356 -896
2018-06-14 05:15:03 GMT 48.540985 1.433152 15,500 55 356 -896
2018-06-14 05:14:54 GMT 48.533112 1.415969 15,625 55 356 -896
2018-06-14 05:14:51 GMT 48.530197 1.409647 15,675 55 356 -896
2018-06-14 05:14:48 GMT 48.526798 1.402347 15,800 55 357 -896
2018-06-14 05:14:45 GMT 48.523632 1.395336 15,800 55 357 -896
2018-06-14 05:14:42 GMT 48.521210 1.390060 15,800 55 357 -896
2018-06-14 05:14:38 GMT 48.517548 1.382094 16,050 55 357 -896
2018-06-14 05:14:34 GMT 48.513855 1.374086 16,000 55 357 -896
2018-06-14 05:14:31 GMT 48.511250 1.368376 15,975 55 358 -896
2018-06-14 05:14:28 GMT 48.508224 1.361799 16,025 55 358 -896
2018-06-14 05:14:23 GMT 48.503895 1.352330 16,075 55 358 -896
2018-06-14 05:14:18 GMT 48.498184 1.339839 16,175 55 358 -896
2018-06-14 05:14:12 GMT 48.493240 1.329205 16,250 55 358 -896
2018-06-14 05:14:07 GMT 48.488438 1.318721 16,325 55 358 -896
2018-06-14 05:14:03 GMT 48.484482 1.310120 16,425 55 358 -896
2018-06-14 05:14:00 GMT 48.481750 1.304204 16,425 55 357 -896
2018-06-14 05:13:56 GMT 48.478363 1.296809 16,550 55 358 -896
2018-06-14 05:13:53 GMT 48.474197 1.287795 16,550 55 358 -896
2018-06-14 05:13:49 GMT 48.471359 1.281668 16,600 55 358 -896
2018-06-14 05:13:43 GMT 48.465630 1.269138 16,725 55 357 -896
2018-06-14 05:13:39 GMT 48.461857 1.260970 16,750 55 357 -896
2018-06-14 05:13:35 GMT 48.457626 1.251808 16,825 55 357 -896
2018-06-14 05:13:32 GMT 48.454788 1.245681 16,850 55 357 -896
2018-06-14 05:13:28 GMT 48.451477 1.238492 16,925 55 357 -896
2018-06-14 05:13:24 GMT 48.448380 1.231736 16,975 55 358 -896
2018-06-14 05:13:21 GMT 48.445129 1.224835 17,025 55 358 -896
2018-06-14 05:13:17 GMT 48.441925 1.217863 17,075 55 358 -896
2018-06-14 05:13:14 GMT 48.439087 1.211736 17,100 55 358 -896
2018-06-14 05:13:10 GMT 48.435184 1.203364 17,175 55 359 -896
2018-06-14 05:13:07 GMT 48.431854 1.196172 17,275 54 362 -960
2018-06-14 05:13:03 GMT 48.428650 1.189200 17,275 55 359 -896
2018-06-14 05:13:00 GMT 48.425217 1.181875 17,325 55 359 -896
2018-06-14 05:12:57 GMT 48.422287 1.175537 17,375 55 359 -896
2018-06-14 05:12:54 GMT 48.419216 1.168960 17,425 55 359 -896
2018-06-14 05:12:50 GMT 48.415512 1.160959 17,625 54 360 -960
2018-06-14 05:12:46 GMT 48.411953 1.153420 17,550 55 359 -960
2018-06-14 05:12:41 GMT 48.406414 1.141494 17,625 55 361 -960
2018-06-14 05:12:36 GMT 48.401550 1.131028 17,700 55 361 -960
2018-06-14 05:12:33 GMT 48.400040 1.127718 17,725 55 362 -960
2018-06-14 05:12:30 GMT 48.396870 1.120967 17,825 54 362 -896
2018-06-14 05:12:26 GMT 48.392349 1.111239 17,875 54 363 -832
2018-06-14 05:12:23 GMT 48.390491 1.107306 17,875 54 363 -832
2018-06-14 05:12:18 GMT 48.385094 1.095669 17,950 55 366 -768
2018-06-14 05:12:14 GMT 48.381683 1.088421 18,000 54 367 -832
2018-06-14 05:12:10 GMT 48.376785 1.077928 18,075 54 370 -1024
2018-06-14 05:12:04 GMT 48.371780 1.067192 18,250 54 371 -1536
2018-06-14 05:12:01 GMT 48.368008 1.059169 18,250 54 371 -1536
2018-06-14 05:11:58 GMT 48.364098 1.050712 18,450 54 383 -832
2018-06-14 05:11:55 GMT 48.362595 1.047575 18,375 55 368 -704
2018-06-14 05:11:52 GMT 48.359665 1.041236 18,375 54 371 -768
2018-06-14 05:11:46 GMT 48.353943 1.028912 18,450 55 378 -832
2018-06-14 05:11:42 GMT 48.350098 1.020672 18,500 55 382 -896
2018-06-14 05:11:38 GMT 48.344730 1.009080 18,575 55 389 -960
2018-06-14 05:11:35 GMT 48.342957 1.005390 18,625 55 388 -960
2018-06-14 05:11:32 GMT 48.339249 0.997432 18,675 55 391 -960
2018-06-14 05:11:25 GMT 48.331882 0.981542 18,775 55 395 -1024
2018-06-14 05:11:21 GMT 48.327805 0.972783 18,900 55 398 -1024
2018-06-14 05:11:18 GMT 48.325180 0.967158 18,900 55 398 -1024
2018-06-14 05:11:14 GMT 48.320759 0.957545 19,150 54 416 -1024
2018-06-14 05:11:11 GMT 48.317310 0.950245 19,025 55 403 -960
2018-06-14 05:11:07 GMT 48.312744 0.940387 19,100 55 408 -896
2018-06-14 05:11:04 GMT 48.310051 0.934561 19,125 55 408 -896
2018-06-14 05:10:59 GMT 48.303951 0.921551 19,200 54 412 -1024
2018-06-14 05:10:54 GMT 48.299011 0.910950 19,300 55 415 -1280
2018-06-14 05:10:51 GMT 48.295715 0.903907 19,350 54 416 -1536
2018-06-14 05:10:44 GMT 48.287979 0.887357 19,650 54 416 -1024
2018-06-14 05:10:41 GMT 48.283997 0.878836 19,575 54 416 -1088
2018-06-14 05:10:36 GMT 48.279652 0.869655 19,650 54 416 -1088
2018-06-14 05:10:33 GMT 48.274658 0.858976 19,725 54 417 -1088
2018-06-14 05:10:29 GMT 48.271225 0.851657 19,775 54 417 -1088
2018-06-14 05:10:23 GMT 48.263496 0.835105 19,900 54 417 -1088
2018-06-14 05:10:20 GMT 48.261730 0.831347 20,000 54 417 -1088
2018-06-14 05:10:17 GMT 48.256943 0.821158 20,000 54 417 -1088
2018-06-14 05:10:11 GMT 48.250076 0.806509 20,100 54 417 -1088
2018-06-14 05:10:08 GMT 48.248291 0.802706 20,150 54 418 -1088
2018-06-14 05:10:00 GMT 48.238594 0.782053 20,300 54 419 -1088
2018-06-14 05:09:57 GMT 48.236023 0.776578 20,325 54 421 -1088
2018-06-14 05:09:53 GMT 48.230850 0.765663 20,450 54 421 -1088
2018-06-14 05:09:50 GMT 48.227737 0.758972 20,450 54 421 -1088
2018-06-14 05:09:45 GMT 48.222107 0.747070 20,550 54 422 -1088
2018-06-14 05:09:42 GMT 48.219040 0.740638 20,775 54 423 -1088
2018-06-14 05:09:38 GMT 48.213409 0.728712 20,700 54 423 -1088
2018-06-14 05:09:33 GMT 48.208328 0.717985 20,775 54 423 -1088
2018-06-14 05:09:30 GMT 48.205307 0.711509 20,825 54 423 -1088
2018-06-14 05:09:27 GMT 48.200638 0.701716 20,825 54 423 -1088
2018-06-14 05:09:24 GMT 48.198978 0.698138 20,925 54 424 -1088
2018-06-14 05:09:20 GMT 48.193863 0.687350 21,025 54 424 -1088
2018-06-14 05:09:17 GMT 48.189434 0.677972 21,075 54 425 -1088
2018-06-14 05:09:13 GMT 48.185337 0.669371 21,125 54 425 -1088
2018-06-14 05:09:09 GMT 48.181705 0.661709 21,225 54 425 -1088
2018-06-14 05:09:05 GMT 48.177063 0.651855 21,250 54 426 -1088
2018-06-14 05:09:01 GMT 48.172302 0.641785 21,325 54 426 -1088
2018-06-14 05:08:58 GMT 48.169556 0.636010 21,375 54 428 -1088
2018-06-14 05:08:55 GMT 48.165436 0.627348 21,450 54 426 -1088
2018-06-14 05:08:52 GMT 48.162048 0.620164 21,525 54 427 -1088
2018-06-14 05:08:48 GMT 48.157593 0.610727 21,600 54 427 -1088
2018-06-14 05:08:45 GMT 48.153122 0.601295 21,625 54 428 -1088
2018-06-14 05:08:42 GMT 48.150604 0.596008 21,675 54 428 -1088
2018-06-14 05:08:37 GMT 48.144791 0.583684 21,750 54 428 -1088
2018-06-14 05:08:34 GMT 48.141811 0.577416 21,800 54 430 -1088
2018-06-14 05:08:31 GMT 48.138702 0.570877 21,850 54 430 -1088
2018-06-14 05:08:27 GMT 48.134079 0.561127 21,925 54 431 -1088
2018-06-14 05:08:21 GMT 48.126354 0.544880 22,150 54 431 -1088
2018-06-14 05:08:18 GMT 48.123329 0.538541 22,200 54 433 -1088
2018-06-14 05:08:15 GMT 48.118607 0.528580 22,175 54 433 -1088
2018-06-14 05:08:11 GMT 48.115231 0.521498 22,225 54 433 -1152
2018-06-14 05:08:07 GMT 48.109875 0.510301 22,300 54 434 -1088
2018-06-14 05:08:02 GMT 48.104801 0.499526 22,425 54 434 -1088
2018-06-14 05:07:57 GMT 48.098701 0.486849 22,550 54 434 -1152
2018-06-14 05:07:54 GMT 48.095123 0.479279 22,575 54 435 -1088
2018-06-14 05:07:50 GMT 48.090790 0.470229 22,600 54 435 -1152
2018-06-14 05:07:47 GMT 48.086929 0.462112 22,700 54 435 -1152
2018-06-14 05:07:44 GMT 48.082489 0.452843 22,725 54 435 -1152
2018-06-14 05:07:41 GMT 48.080612 0.448929 22,800 54 435 -1088
2018-06-14 05:07:37 GMT 48.075256 0.437668 22,875 54 435 -1152
2018-06-14 05:07:34 GMT 48.071888 0.430580 22,925 54 435 -1152
2018-06-14 05:07:31 GMT 48.066956 0.420297 22,975 54 435 -1088
2018-06-14 05:07:26 GMT 48.062164 0.410202 23,100 54 436 -1152
2018-06-14 05:07:23 GMT 48.057724 0.400932 23,125 54 436 -1088
2018-06-14 05:07:20 GMT 48.055641 0.396494 23,150 54 437 -1152
2018-06-14 05:07:16 GMT 48.050491 0.385689 23,225 54 437 -1152
2018-06-14 05:07:13 GMT 48.047928 0.380264 23,275 54 437 -1152
2018-06-14 05:07:10 GMT 48.043945 0.371956 23,350 54 437 -1152
2018-06-14 05:07:05 GMT 48.038086 0.359596 23,425 54 438 -1152
2018-06-14 05:07:02 GMT 48.033646 0.350258 23,500 54 438 -1152
2018-06-14 05:06:59 GMT 48.031311 0.345314 23,525 54 438 -1152
2018-06-14 05:06:55 GMT 48.024765 0.331512 23,650 54 439 -1152
2018-06-14 05:06:52 GMT 48.022545 0.326843 23,700 54 443 -1152
2018-06-14 05:06:49 GMT 48.019753 0.320857 23,725 54 441 -1152
2018-06-14 05:06:46 GMT 48.014584 0.310012 23,800 54 439 -1152
2018-06-14 05:06:42 GMT 48.009567 0.299377 23,875 54 440 -1088
2018-06-14 05:06:39 GMT 48.007233 0.294365 23,900 54 440 -1088
2018-06-14 05:06:34 GMT 48.002388 0.284236 23,975 54 441 -1152
2018-06-14 05:06:31 GMT 47.998535 0.276031 24,125 54 443 -1152
2018-06-14 05:06:28 GMT 47.995010 0.268547 24,100 54 442 -1152
2018-06-14 05:06:23 GMT 47.988560 0.254939 24,250 54 443 -1152
2018-06-14 05:06:19 GMT 47.983246 0.243622 24,300 54 443 -1152
2018-06-14 05:06:16 GMT 47.980972 0.238882 24,375 54 445 -1152
2018-06-14 05:06:13 GMT 47.976151 0.228584 24,400 54 445 -1152
2018-06-14 05:06:10 GMT 47.973770 0.223572 24,450 54 445 -1152
2018-06-14 05:06:07 GMT 47.969513 0.214577 24,500 54 446 -1152
2018-06-14 05:06:04 GMT 47.966030 0.207332 24,550 54 446 -1152
2018-06-14 05:06:01 GMT 47.961594 0.198029 24,625 54 448 -1152
2018-06-14 05:05:57 GMT 47.957649 0.189796 25,825 52 452 -1152
2018-06-14 05:05:53 GMT 47.953087 0.180288 24,775 53 448 -1152
2018-06-14 05:05:50 GMT 47.948959 0.171867 24,850 53 448 -1152
2018-06-14 05:05:47 GMT 47.945618 0.165001 24,900 53 448 -1152
2018-06-14 05:05:44 GMT 47.941635 0.157104 24,975 53 449 -1152
2018-06-14 05:05:40 GMT 47.936005 0.145991 25,025 52 449 -1152
2018-06-14 05:05:36 GMT 47.931488 0.137118 25,100 52 449 -1152
2018-06-14 05:05:33 GMT 47.928360 0.131012 25,125 52 450 -1152
2018-06-14 05:05:28 GMT 47.922318 0.119133 25,275 52 451 -1152
2018-06-14 05:05:24 GMT 47.916405 0.107539 25,350 52 451 -1152
2018-06-14 05:05:21 GMT 47.913334 0.101553 25,350 52 451 -1152
2018-06-14 05:05:18 GMT 47.908863 0.092750 25,425 52 451 -1152
2018-06-14 05:05:13 GMT 47.902679 0.080681 25,550 52 451 -1152
2018-06-14 05:05:09 GMT 47.898376 0.072235 25,625 52 451 -1152
2018-06-14 05:05:06 GMT 47.893845 0.063377 26,500 52 458 -1152
2018-06-14 05:05:03 GMT 47.889313 0.054451 25,725 52 452 -1152
2018-06-14 05:05:00 GMT 47.886292 0.048477 25,775 52 452 -1152
2018-06-14 05:04:57 GMT 47.882374 0.040847 25,825 52 452 -1152
2018-06-14 05:04:54 GMT 47.879070 0.034367 25,875 52 453 -1216
2018-06-14 05:04:51 GMT 47.874802 0.026024 25,975 52 454 -1152
2018-06-14 05:04:48 GMT 47.871250 0.019015 26,025 52 454 -1152
2018-06-14 05:04:45 GMT 47.867569 0.011742 26,075 52 454 -1152
2018-06-14 05:04:42 GMT 47.863846 0.004578 26,100 52 456 -1152
2018-06-14 05:04:38 GMT 47.858494 -0.005916 26,250 52 456 -1152
2018-06-14 05:04:33 GMT 47.852005 -0.018608 26,300 52 457 -1152
2018-06-14 05:04:30 GMT 47.848019 -0.026339 26,350 52 457 -1152
2018-06-14 05:04:27 GMT 47.845367 -0.031586 26,375 52 457 -1152
2018-06-14 05:04:24 GMT 47.840851 -0.040354 26,450 52 457 -1152
2018-06-14 05:04:20 GMT 47.835297 -0.051224 26,525 52 458 -1152
2018-06-14 05:04:17 GMT 47.832424 -0.056833 26,575 52 458 -1152
2018-06-14 05:04:13 GMT 47.827023 -0.067397 27,950 52 475 -1088
2018-06-14 05:04:10 GMT 47.821114 -0.078876 26,750 52 459 -1152
2018-06-14 05:04:07 GMT 47.819016 -0.082890 26,775 52 459 -1152
2018-06-14 05:04:01 GMT 47.811291 -0.097961 26,900 52 460 -1152
2018-06-14 05:03:58 GMT 47.807426 -0.105426 26,950 52 460 -1152
2018-06-14 05:03:55 GMT 47.804073 -0.111976 27,075 52 461 -1216
2018-06-14 05:03:51 GMT 47.798347 -0.123174 27,100 52 461 -1152
2018-06-14 05:03:48 GMT 47.794018 -0.131554 27,150 52 461 -1152
2018-06-14 05:03:45 GMT 47.791180 -0.137118 27,600 52 461 -1216
2018-06-14 05:03:42 GMT 47.786804 -0.145639 27,250 52 461 -1216
2018-06-14 05:03:39 GMT 47.782661 -0.153738 27,350 52 462 -1216
2018-06-14 05:03:35 GMT 47.777214 -0.164302 27,450 52 464 -1216
2018-06-14 05:03:32 GMT 47.772171 -0.174133 27,475 52 463 -1216
2018-06-14 05:03:29 GMT 47.769440 -0.179443 27,525 52 463 -1152
2018-06-14 05:03:24 GMT 47.761780 -0.194252 27,750 52 464 -1216
2018-06-14 05:03:20 GMT 47.758125 -0.201346 27,725 52 465 -1152
2018-06-14 05:03:17 GMT 47.754959 -0.207504 27,725 52 465 -1152
2018-06-14 05:03:14 GMT 47.750290 -0.216637 28,800 56 482 -1472
2018-06-14 05:03:09 GMT 47.743370 -0.230079 27,900 52 466 -1216
2018-06-14 05:03:06 GMT 47.739693 -0.237262 27,975 52 467 -1152
2018-06-14 05:03:03 GMT 47.736420 -0.243622 28,100 52 468 -1152
2018-06-14 05:02:59 GMT 47.731079 -0.254094 28,175 52 468 -1152
2018-06-14 05:02:53 GMT 47.723259 -0.269376 28,200 52 469 -1152
2018-06-14 05:02:48 GMT 47.715115 -0.285292 28,375 52 470 -1152
2018-06-14 05:02:43 GMT 47.709293 -0.296631 28,400 52 471 -1216
2018-06-14 05:02:40 GMT 47.705750 -0.303566 28,475 52 471 -1344
2018-06-14 05:02:37 GMT 47.701813 -0.311256 28,800 53 477 -1152
2018-06-14 05:02:33 GMT 47.695450 -0.323616 28,625 52 472 -1344
2018-06-14 05:02:28 GMT 47.690094 -0.333847 28,725 53 477 -1152
2018-06-14 05:02:24 GMT 47.684738 -0.344147 28,800 53 477 -1152
2018-06-14 05:02:21 GMT 47.680710 -0.352112 28,850 53 476 -1152
2018-06-14 05:02:18 GMT 47.676361 -0.360970 28,900 54 478 -1216
2018-06-14 05:02:10 GMT 47.666931 -0.381282 29,125 56 483 -1728
2018-06-14 05:02:07 GMT 47.663254 -0.389522 29,175 57 483 -1856
2018-06-14 05:02:02 GMT 47.657295 -0.403536 29,350 58 485 -1600
2018-06-14 05:01:59 GMT 47.653519 -0.412949 29,425 60 486 -1088
2018-06-14 05:01:56 GMT 47.650684 -0.420086 29,550 61 488 -768
2018-06-14 05:01:51 GMT 47.645145 -0.434664 29,550 62 490 -704
2018-06-14 05:01:48 GMT 47.642029 -0.443161 29,625 62 491 -832
2018-06-14 05:01:45 GMT 47.638641 -0.452637 29,725 63 492 -1152
2018-06-14 05:01:41 GMT 47.634796 -0.464104 29,775 64 492 -1472
2018-06-14 05:01:38 GMT 47.631454 -0.474403 29,925 66 490 -1152
2018-06-14 05:01:35 GMT 47.628479 -0.483821 29,950 66 490 -1152
2018-06-14 05:01:31 GMT 47.624989 -0.495512 29,975 67 490 -704
2018-06-14 05:01:28 GMT 47.622009 -0.506005 29,975 67 490 -512
2018-06-14 05:01:25 GMT 47.619324 -0.515671 30,000 68 489 -128
2018-06-14 05:01:20 GMT 47.614559 -0.534034 30,000 69 490 0
2018-06-14 05:01:17 GMT 47.612503 -0.542587 30,000 70 491 0
2018-06-14 05:01:13 GMT 47.610184 -0.552415 30,000 70 491 0
2018-06-14 05:01:10 GMT 47.607811 -0.562556 30,000 70 491 0
2018-06-14 05:01:07 GMT 47.605911 -0.570465 30,000 70 491 0
2018-06-14 05:01:04 GMT 47.603394 -0.581245 30,000 70 491 0
2018-06-14 05:01:00 GMT 47.600418 -0.593948 30,000 70 491 0
2018-06-14 05:00:57 GMT 47.598495 -0.602188 30,000 70 490 0
2018-06-14 05:00:53 GMT 47.595566 -0.614822 30,000 70 490 0
2018-06-14 05:00:50 GMT 47.592133 -0.629448 30,000 70 490 0
2018-06-14 05:00:47 GMT 47.590668 -0.635765 30,000 70 491 0
2018-06-14 05:00:43 GMT 47.587746 -0.648123 30,000 70 491 0
2018-06-14 05:00:40 GMT 47.585838 -0.656363 30,000 70 491 0
2018-06-14 05:00:36 GMT 47.582718 -0.669673 30,000 70 490 0
2018-06-14 05:00:32 GMT 47.579739 -0.682350 30,000 70 490 0
2018-06-14 05:00:28 GMT 47.576797 -0.694611 29,975 70 489 0
2018-06-14 05:00:25 GMT 47.574619 -0.703759 29,975 70 490 0
2018-06-14 05:00:22 GMT 47.571590 -0.716365 29,975 70 488 64
2018-06-14 05:00:17 GMT 47.567917 -0.731436 29,975 69 488 64
2018-06-14 05:00:14 GMT 47.566006 -0.738971 29,950 69 490 -64
2018-06-14 05:00:11 GMT 47.564026 -0.746796 29,950 69 489 64
2018-06-14 05:00:06 GMT 47.559910 -0.762775 29,975 69 491 -64
2018-06-14 05:00:03 GMT 47.557205 -0.773232 29,975 68 493 -448
2018-06-14 05:00:00 GMT 47.554550 -0.783051 30,000 67 493 -448
2018-06-14 04:59:55 GMT 47.550037 -0.798974 30,050 66 494 -832
2018-06-14 04:59:50 GMT 47.545120 -0.814705 30,175 60 492 -1856
2018-06-14 04:59:47 GMT 47.542263 -0.823341 30,200 62 495 -1536
2018-06-14 04:59:43 GMT 47.537933 -0.835648 30,300 61 493 -1664
2018-06-14 04:59:39 GMT 47.534271 -0.845673 31,350 60 492 -1856
2018-06-14 04:59:36 GMT 47.530300 -0.855877 30,575 58 489 -2304
2018-06-14 04:59:32 GMT 47.526260 -0.865929 30,625 58 489 -2304
2018-06-14 04:59:29 GMT 47.522060 -0.875808 30,775 57 487 -2432
2018-06-14 04:59:26 GMT 47.518337 -0.884188 30,900 55 485 -2752
2018-06-14 04:59:22 GMT 47.513672 -0.894218 31,125 53 483 -3136
2018-06-14 04:59:18 GMT 47.509071 -0.903625 31,200 53 483 -3136
2018-06-14 04:59:14 GMT 47.502602 -0.916232 31,475 51 482 -3456
2018-06-14 04:59:11 GMT 47.497513 -0.925804 31,700 51 481 -3392
2018-06-14 04:59:06 GMT 47.491615 -0.936937 31,900 51 482 -3008
2018-06-14 04:59:03 GMT 47.486916 -0.945669 32,075 51 482 -2880
2018-06-14 04:58:59 GMT 47.482635 -0.953751 32,200 51 483 -2368
2018-06-14 04:58:56 GMT 47.477558 -0.963276 32,450 51 491 -960
2018-06-14 04:58:53 GMT 47.474529 -0.968980 32,450 51 484 -2048
2018-06-14 04:58:50 GMT 47.468262 -0.980667 32,600 51 486 -1664
2018-06-14 04:58:47 GMT 47.465359 -0.986164 32,650 51 486 -1792
2018-06-14 04:58:43 GMT 47.459774 -0.996587 32,825 51 489 -1216
2018-06-14 04:58:40 GMT 47.455585 -1.004404 32,825 51 489 -1216
2018-06-14 04:58:36 GMT 47.449860 -1.015137 32,900 51 491 -960
2018-06-14 04:58:33 GMT 47.445648 -1.023033 32,950 51 492 -576
2018-06-14 04:58:29 GMT 47.440613 -1.032509 32,975 51 492 -320
2018-06-14 04:58:26 GMT 47.434544 -1.043842 33,000 51 492 0
2018-06-14 04:58:22 GMT 47.430176 -1.052010 32,975 51 492 0
2018-06-14 04:58:17 GMT 47.423126 -1.065125 33,000 51 492 0
2018-06-14 04:58:14 GMT 47.419464 -1.071991 33,000 51 492 0
2018-06-14 04:58:11 GMT 47.415802 -1.078789 32,975 51 492 0
2018-06-14 04:58:07 GMT 47.409027 -1.091423 32,975 51 493 0
2018-06-14 04:58:04 GMT 47.403946 -1.100899 32,975 51 493 0
2018-06-14 04:58:01 GMT 47.401257 -1.105887 32,975 51 493 0
2018-06-14 04:57:58 GMT 47.396896 -1.114082 32,975 51 493 0
2018-06-14 04:57:54 GMT 47.390553 -1.125887 32,975 51 493 0
2018-06-14 04:57:51 GMT 47.387558 -1.131454 32,975 51 492 0
2018-06-14 04:57:48 GMT 47.382359 -1.141170 32,975 51 493 0
2018-06-14 04:57:45 GMT 47.378960 -1.147508 33,000 51 493 0
2018-06-14 04:57:41 GMT 47.372208 -1.160114 33,000 51 493 0
2018-06-14 04:57:36 GMT 47.365540 -1.172447 33,000 51 493 0
2018-06-14 04:57:33 GMT 47.361454 -1.180115 33,000 51 493 0
2018-06-14 04:57:30 GMT 47.357346 -1.187691 33,000 51 493 0
2018-06-14 04:57:27 GMT 47.353542 -1.194834 32,975 51 493 0
2018-06-14 04:57:24 GMT 47.348747 -1.203778 33,000 51 493 0
2018-06-14 04:57:21 GMT 47.344070 -1.212410 32,975 51 493 0
2018-06-14 04:57:17 GMT 47.338943 -1.221886 32,975 51 493 0
2018-06-14 04:57:14 GMT 47.334137 -1.230812 33,000 51 493 0
2018-06-14 04:57:10 GMT 47.329193 -1.240047 33,000 51 493 0
2018-06-14 04:57:07 GMT 47.324524 -1.248665 32,975 51 493 0
2018-06-14 04:57:03 GMT 47.317604 -1.261526 32,975 51 493 0
2018-06-14 04:57:00 GMT 47.314590 -1.267067 33,000 51 493 0
2018-06-14 04:56:56 GMT 47.309235 -1.277023 33,000 51 493 0
2018-06-14 04:56:52 GMT 47.303558 -1.287529 33,000 51 493 0
2018-06-14 04:56:49 GMT 47.299168 -1.295682 33,000 51 493 0
2018-06-14 04:56:46 GMT 47.294495 -1.304283 33,000 51 493 0
2018-06-14 04:56:42 GMT 47.287949 -1.316368 32,975 51 493 0
2018-06-14 04:56:39 GMT 47.284561 -1.322685 32,975 51 493 0
2018-06-14 04:56:32 GMT 47.274776 -1.340755 32,975 51 493 0
2018-06-14 04:56:28 GMT 47.268768 -1.351741 32,975 51 493 0
2018-06-14 04:56:24 GMT 47.263973 -1.360685 33,000 51 493 0
2018-06-14 04:56:21 GMT 47.258575 -1.370615 33,000 51 493 0
2018-06-14 04:56:18 GMT 47.255177 -1.376883 32,975 51 493 0
2018-06-14 04:56:15 GMT 47.250458 -1.385513 33,000 51 493 0
2018-06-14 04:56:11 GMT 47.244781 -1.396019 33,000 51 493 0
2018-06-14 04:56:07 GMT 47.239700 -1.405426 32,975 51 493 0
2018-06-14 04:56:04 GMT 47.235298 -1.413574 33,000 51 493 0
2018-06-14 04:56:00 GMT 47.229767 -1.423759 33,000 51 493 0
2018-06-14 04:55:57 GMT 47.225784 -1.431107 32,975 51 493 0
2018-06-14 04:55:53 GMT 47.219238 -1.443123 33,000 51 493 0
2018-06-14 04:55:50 GMT 47.215141 -1.450688 32,975 51 493 0
2018-06-14 04:55:47 GMT 47.210999 -1.458298 33,000 51 493 0
2018-06-14 04:55:43 GMT 47.205322 -1.468735 33,000 51 493 0
2018-06-14 04:55:38 GMT 47.198383 -1.481535 33,000 51 493 0
2018-06-14 04:55:35 GMT 47.193970 -1.489677 33,000 51 493 0
2018-06-14 04:55:32 GMT 47.189713 -1.497505 32,975 51 493 0
2018-06-14 04:55:29 GMT 47.184860 -1.506363 33,000 51 492 0
2018-06-14 04:55:25 GMT 47.180462 -1.514494 33,000 51 492 0
2018-06-14 04:55:22 GMT 47.174927 -1.524628 33,000 51 492 0
2018-06-14 04:55:19 GMT 47.171814 -1.530396 33,000 51 492 0
2018-06-14 04:55:15 GMT 47.165424 -1.542100 33,000 51 492 0
2018-06-14 04:55:12 GMT 47.161469 -1.549424 33,000 51 492 0
2018-06-14 04:55:09 GMT 47.156799 -1.557999 33,000 51 492 0
2018-06-14 04:55:06 GMT 47.153091 -1.564796 33,000 51 493 0
2018-06-14 04:55:02 GMT 47.147270 -1.575482 32,975 51 493 0
2018-06-14 04:54:57 GMT 47.140320 -1.588211 33,000 51 493 0
2018-06-14 04:54:51 GMT 47.132187 -1.603088 33,000 51 493 0
2018-06-14 04:54:47 GMT 47.125668 -1.615061 33,000 51 493 0
2018-06-14 04:54:44 GMT 47.121384 -1.622878 33,000 51 493 0
2018-06-14 04:54:41 GMT 47.117844 -1.629410 33,000 51 493 0
2018-06-14 04:54:36 GMT 47.110306 -1.643231 33,000 51 493 0
2018-06-14 04:54:31 GMT 47.103012 -1.656464 33,000 51 493 0
2018-06-14 04:54:28 GMT 47.098755 -1.664291 33,000 51 493 0
2018-06-14 04:54:25 GMT 47.095177 -1.670767 32,975 51 493 0
2018-06-14 04:54:22 GMT 47.090893 -1.678584 32,975 51 493 0
2018-06-14 04:54:17 GMT 47.083447 -1.692106 32,975 51 493 0
2018-06-14 04:54:14 GMT 47.079025 -1.700203 32,975 51 493 0
2018-06-14 04:54:10 GMT 47.073624 -1.710091 33,000 51 493 0
2018-06-14 04:54:07 GMT 47.069199 -1.718163 33,000 51 493 0
2018-06-14 04:54:03 GMT 47.063049 -1.729317 33,000 51 493 0
2018-06-14 04:54:00 GMT 47.058910 -1.736896 33,000 51 493 0
2018-06-14 04:53:57 GMT 47.054352 -1.745206 32,975 51 493 0
2018-06-14 04:53:53 GMT 47.049183 -1.754573 32,975 51 493 0
2018-06-14 04:53:50 GMT 47.044189 -1.763649 33,000 51 494 0
2018-06-14 04:53:47 GMT 47.039780 -1.771686 32,975 51 494 0
2018-06-14 04:53:44 GMT 47.034889 -1.780560 33,000 51 494 0
2018-06-14 04:53:39 GMT 47.029312 -1.790703 33,000 51 494 0
2018-06-14 04:53:34 GMT 47.021576 -1.804779 32,975 51 494 0
2018-06-14 04:53:30 GMT 47.016315 -1.814364 33,000 51 493 0
2018-06-14 04:53:26 GMT 47.009857 -1.826065 32,975 51 493 0
2018-06-14 04:53:23 GMT 47.004585 -1.835703 32,975 51 493 0
2018-06-14 04:53:18 GMT 46.999744 -1.844506 32,975 51 493 0
2018-06-14 04:53:14 GMT 46.992737 -1.857239 32,975 51 492 0
2018-06-14 04:53:11 GMT 46.987453 -1.866831 33,000 51 492 0
2018-06-14 04:53:06 GMT 46.980423 -1.879555 33,000 51 492 0
2018-06-14 04:53:02 GMT 46.976166 -1.887314 33,000 51 492 0
2018-06-14 04:52:59 GMT 46.971313 -1.896172 33,000 51 493 0
2018-06-14 04:52:54 GMT 46.964600 -1.908311 32,975 51 493 0
2018-06-14 04:52:51 GMT 46.960144 -1.916359 33,000 51 493 0
2018-06-14 04:52:48 GMT 46.956543 -1.922819 33,000 51 493 0
2018-06-14 04:52:45 GMT 46.951538 -1.931877 32,975 51 493 0
2018-06-14 04:52:41 GMT 46.946533 -1.940988 33,000 50 494 0
2018-06-14 04:52:37 GMT 46.941090 -1.950777 32,975 51 493 0
2018-06-14 04:52:33 GMT 46.935242 -1.961403 33,000 51 493 0
2018-06-14 04:52:30 GMT 46.931080 -1.968947 32,975 51 493 0
2018-06-14 04:52:27 GMT 46.926361 -1.977470 33,000 50 494 0
2018-06-14 04:52:24 GMT 46.921909 -1.985497 33,000 50 494 0
2018-06-14 04:52:21 GMT 46.917023 -1.994300 32,975 50 494 0
2018-06-14 04:52:17 GMT 46.911854 -2.003596 33,000 51 493 0
2018-06-14 04:52:13 GMT 46.906540 -2.013176 32,975 50 494 0
2018-06-14 04:52:10 GMT 46.901962 -2.021484 32,975 50 494 0
2018-06-14 04:52:05 GMT 46.894775 -2.034393 32,975 50 494 0
2018-06-14 04:52:02 GMT 46.889877 -2.043182 32,975 50 494 0
2018-06-14 04:51:59 GMT 46.884705 -2.052521 32,975 50 494 0
2018-06-14 04:51:53 GMT 46.877403 -2.065711 33,000 50 494 0
2018-06-14 04:51:50 GMT 46.872795 -2.074022 32,975 50 494 0
2018-06-14 04:51:45 GMT 46.866302 -2.085594 33,000 50 494 0
2018-06-14 04:51:42 GMT 46.859985 -2.096982 33,000 50 493 0
2018-06-14 04:51:37 GMT 46.852966 -2.109650 32,975 50 493 0
2018-06-14 04:51:33 GMT 46.848221 -2.118151 33,000 50 493 0
2018-06-14 04:51:29 GMT 46.842728 -2.127931 33,000 50 493 0
2018-06-14 04:51:26 GMT 46.837139 -2.138008 32,975 50 493 0
2018-06-14 04:51:23 GMT 46.833527 -2.144478 33,000 50 493 0
2018-06-14 04:51:19 GMT 46.828079 -2.154258 33,000 50 493 0
2018-06-14 04:51:12 GMT 46.818604 -2.171274 33,000 50 493 0
2018-06-14 04:51:08 GMT 46.812286 -2.182595 33,000 50 493 0
2018-06-14 04:51:02 GMT 46.803955 -2.197534 33,000 50 493 0
2018-06-14 04:50:58 GMT 46.798035 -2.208115 32,975 50 492 0
2018-06-14 04:50:52 GMT 46.789421 -2.223564 33,000 50 492 0
2018-06-14 04:50:47 GMT 46.781799 -2.237192 32,975 50 492 0
2018-06-14 04:50:41 GMT 46.774292 -2.250523 33,000 50 492 0
2018-06-14 04:50:37 GMT 46.768147 -2.261604 33,000 50 492 0
2018-06-14 04:50:32 GMT 46.758652 -2.278496 32,975 50 492 0
2018-06-14 04:50:26 GMT 46.752598 -2.289276 32,975 50 492 0
2018-06-14 04:50:20 GMT 46.743256 -2.305990 33,000 50 492 -64
2018-06-14 04:50:16 GMT 46.737656 -2.315987 33,000 50 492 0
2018-06-14 04:50:11 GMT 46.730026 -2.329637 33,000 50 492 64
2018-06-14 04:50:05 GMT 46.721695 -2.344509 32,975 50 492 64
2018-06-14 04:50:00 GMT 46.714661 -2.357048 33,000 50 492 64
2018-06-14 04:49:55 GMT 46.707870 -2.369094 33,000 50 492 0
2018-06-14 04:49:51 GMT 46.700832 -2.381630 33,000 50 493 0
2018-06-14 04:49:44 GMT 46.692352 -2.396761 32,975 50 493 0
2018-06-14 04:49:40 GMT 46.685890 -2.408272 33,000 50 493 0
2018-06-14 04:49:34 GMT 46.677231 -2.423653 33,000 50 492 0
2018-06-14 04:49:29 GMT 46.670898 -2.434914 32,975 50 492 0
2018-06-14 04:49:24 GMT 46.663239 -2.448477 32,975 50 492 0
2018-06-14 04:49:19 GMT 46.655865 -2.461555 32,975 50 492 0
2018-06-14 04:49:14 GMT 46.648369 -2.474808 33,000 50 492 0
2018-06-14 04:49:08 GMT 46.639572 -2.490413 32,975 50 491 0
2018-06-14 04:49:04 GMT 46.633530 -2.501198 33,000 50 492 0
2018-06-14 04:49:00 GMT 46.628769 -2.509621 32,975 50 492 0
2018-06-14 04:48:57 GMT 46.624722 -2.516762 33,000 50 492 0
2018-06-14 04:48:53 GMT 46.617966 -2.528798 33,000 50 492 0
2018-06-14 04:48:48 GMT 46.610733 -2.541526 33,000 50 492 0
2018-06-14 04:48:43 GMT 46.603500 -2.554321 32,975 50 492 0
2018-06-14 04:48:40 GMT 46.597904 -2.564278 32,975 50 491 0
2018-06-14 04:48:37 GMT 46.595169 -2.569126 33,000 50 492 0
2018-06-14 04:48:31 GMT 46.587067 -2.583395 33,000 50 492 0
2018-06-14 04:48:27 GMT 46.580311 -2.595383 32,975 50 491 0
2018-06-14 04:48:22 GMT 46.572968 -2.608382 33,000 50 491 0
2018-06-14 04:48:16 GMT 46.564865 -2.622651 32,975 50 491 0
2018-06-14 04:48:12 GMT 46.558384 -2.634109 33,000 50 491 0
2018-06-14 04:48:09 GMT 46.552780 -2.644021 33,000 50 491 0
2018-06-14 04:48:06 GMT 46.548431 -2.651657 33,000 50 492 0
2018-06-14 04:48:01 GMT 46.543068 -2.661026 32,975 50 491 0
2018-06-14 04:47:58 GMT 46.538177 -2.669678 32,975 50 491 0
2018-06-14 04:47:55 GMT 46.534733 -2.675789 32,975 50 490 0
2018-06-14 04:47:52 GMT 46.529938 -2.684148 32,975 50 491 0
2018-06-14 04:47:49 GMT 46.525471 -2.692062 32,975 50 491 0
2018-06-14 04:47:45 GMT 46.518997 -2.703441 32,975 50 491 0
2018-06-14 04:47:40 GMT 46.513367 -2.713348 33,000 50 491 0
2018-06-14 04:47:36 GMT 46.505997 -2.726284 33,000 50 491 0
2018-06-14 04:47:33 GMT 46.503220 -2.731133 33,000 50 491 0
2018-06-14 04:47:30 GMT 46.499039 -2.738476 32,975 50 491 0
2018-06-14 04:47:27 GMT 46.494690 -2.746046 32,975 50 491 0
2018-06-14 04:47:24 GMT 46.487778 -2.758238 33,000 50 491 0
2018-06-14 04:47:20 GMT 46.483429 -2.765808 32,975 50 491 0
2018-06-14 04:47:17 GMT 46.479244 -2.773224 32,975 50 491 0
2018-06-14 04:47:11 GMT 46.471146 -2.787369 33,000 50 491 0
2018-06-14 04:47:08 GMT 46.466255 -2.796021 33,000 50 491 0
2018-06-14 04:47:05 GMT 46.462051 -2.803389 33,000 50 491 0
2018-06-14 04:47:02 GMT 46.456432 -2.813255 33,000 50 491 0
2018-06-14 04:46:59 GMT 46.453674 -2.818060 33,000 50 491 0
2018-06-14 04:46:55 GMT 46.447906 -2.828176 32,975 50 491 0
2018-06-14 04:46:50 GMT 46.440514 -2.841133 33,000 50 491 0
2018-06-14 04:46:47 GMT 46.435623 -2.849716 32,975 50 491 0
2018-06-14 04:46:41 GMT 46.427200 -2.864410 32,975 50 490 0
2018-06-14 04:46:38 GMT 46.423599 -2.870714 33,000 50 490 0
2018-06-14 04:46:31 GMT 46.412720 -2.889679 33,000 50 491 0
2018-06-14 04:46:24 GMT 46.403595 -2.905616 33,000 50 490 0
2018-06-14 04:46:20 GMT 46.397079 -2.916939 33,000 50 490 0
2018-06-14 04:46:17 GMT 46.393356 -2.923531 33,000 50 490 0
2018-06-14 04:46:14 GMT 46.389130 -2.930804 32,975 50 490 0
2018-06-14 04:46:10 GMT 46.383362 -2.940919 33,000 50 490 0
2018-06-14 04:46:06 GMT 46.376404 -2.953045 33,000 50 490 0
2018-06-14 04:46:03 GMT 46.372055 -2.960614 33,000 50 490 0
2018-06-14 04:46:00 GMT 46.367706 -2.968184 33,000 50 490 0
2018-06-14 04:45:57 GMT 46.363678 -2.975285 32,975 50 491 0
2018-06-14 04:45:54 GMT 46.360023 -2.981552 33,000 50 491 0
2018-06-14 04:45:50 GMT 46.353516 -2.992904 32,975 50 491 0
2018-06-14 04:45:44 GMT 46.344818 -3.008043 33,000 50 491 0
2018-06-14 04:45:38 GMT 46.335846 -3.023652 33,000 50 490 0
2018-06-14 04:45:33 GMT 46.328613 -3.036246 33,000 50 490 0
2018-06-14 04:45:29 GMT 46.324085 -3.044037 33,000 50 490 0
2018-06-14 04:45:24 GMT 46.314262 -3.061134 33,000 50 490 0
2018-06-14 04:45:19 GMT 46.309326 -3.069649 32,975 50 490 0
2018-06-14 04:45:13 GMT 46.299911 -3.086019 32,975 50 490 0
2018-06-14 04:45:09 GMT 46.294098 -3.096001 32,975 50 490 0
2018-06-14 04:45:02 GMT 46.284210 -3.113083 32,975 50 490 0
2018-06-14 04:44:58 GMT 46.279163 -3.121902 32,975 50 490 0
2018-06-14 04:44:55 GMT 46.273773 -3.131171 32,975 50 490 0
2018-06-14 04:44:52 GMT 46.269745 -3.138204 32,975 50 489 0
2018-06-14 04:44:49 GMT 46.265244 -3.145935 32,975 50 489 0
2018-06-14 04:44:46 GMT 46.261642 -3.152205 32,975 50 489 0
2018-06-14 04:44:42 GMT 46.254814 -3.163994 33,000 50 489 0
2018-06-14 04:44:37 GMT 46.248718 -3.174500 32,975 50 489 0
2018-06-14 04:44:31 GMT 46.239498 -3.190567 33,000 50 489 0
2018-06-14 04:44:27 GMT 46.233124 -3.201553 32,975 49 488 0
2018-06-14 04:44:23 GMT 46.227219 -3.211826 33,000 50 488 0
2018-06-14 04:44:17 GMT 46.218643 -3.226547 32,975 50 488 0
2018-06-14 04:44:12 GMT 46.212315 -3.237534 32,975 50 488 0
2018-06-14 04:44:09 GMT 46.207260 -3.246259 32,975 50 488 0
2018-06-14 04:44:06 GMT 46.203781 -3.252288 32,975 50 488 0
2018-06-14 04:44:00 GMT 46.193939 -3.269236 33,000 50 488 0
2018-06-14 04:43:56 GMT 46.188572 -3.278458 33,000 49 488 0
2018-06-14 04:43:49 GMT 46.178009 -3.296702 33,000 50 488 0
2018-06-14 04:43:46 GMT 46.173817 -3.303932 33,000 50 488 0
2018-06-14 04:43:41 GMT 46.166428 -3.316665 32,975 50 488 0
2018-06-14 04:43:38 GMT 46.163387 -3.321854 33,000 50 488 0
2018-06-14 04:43:35 GMT 46.158173 -3.330849 33,000 49 488 0
2018-06-14 04:43:30 GMT 46.149628 -3.345538 33,000 50 489 0
2018-06-14 04:43:25 GMT 46.143860 -3.355519 33,000 50 489 0
2018-06-14 04:43:18 GMT 46.134018 -3.372401 33,000 50 489 0
2018-06-14 04:43:15 GMT 46.128937 -3.381111 32,975 50 489 0
2018-06-14 04:43:08 GMT 46.119068 -3.398071 33,000 49 488 0
2018-06-14 04:43:01 GMT 46.108643 -3.415924 33,000 49 488 0
2018-06-14 04:42:57 GMT 46.103706 -3.424370 33,000 49 488 0
2018-06-14 04:42:52 GMT 46.096024 -3.437582 32,975 49 488 0
2018-06-14 04:42:46 GMT 46.087460 -3.452179 32,975 49 488 0
2018-06-14 04:42:41 GMT 46.080368 -3.464378 32,975 49 488 0
2018-06-14 04:42:37 GMT 46.074554 -3.474292 32,975 49 488 0
2018-06-14 04:42:30 GMT 46.064713 -3.491174 32,975 49 488 0
2018-06-14 04:42:27 GMT 46.059341 -3.500313 32,975 49 488 0
2018-06-14 04:42:21 GMT 46.050636 -3.515213 33,000 49 488 0
2018-06-14 04:42:16 GMT 46.044540 -3.525650 33,000 49 487 0
2018-06-14 04:42:10 GMT 46.035370 -3.541215 33,000 49 488 0
2018-06-14 04:42:07 GMT 46.031132 -3.548378 33,000 49 488 0
2018-06-14 04:42:00 GMT 46.020702 -3.566231 32,975 49 488 0
2018-06-14 04:41:57 GMT 46.015724 -3.574608 32,975 49 488 0
2018-06-14 04:41:49 GMT 46.004971 -3.592941 32,975 49 488 0
2018-06-14 04:41:46 GMT 46.000919 -3.599876 33,000 49 488 0
2018-06-14 04:41:37 GMT 45.986675 -3.624115 32,975 49 488 0
2018-06-14 04:41:32 GMT 45.979412 -3.636543 33,000 49 488 0
2018-06-14 04:41:27 GMT 45.971970 -3.649136 32,975 49 488 0
2018-06-14 04:41:20 GMT 45.962234 -3.665726 32,975 49 488 0
2018-06-14 04:41:16 GMT 45.956589 -3.675329 32,975 49 488 0
2018-06-14 04:41:07 GMT 45.942730 -3.698822 32,975 49 488 0
2018-06-14 04:40:56 GMT 45.927200 -3.725236 33,000 49 487 0
2018-06-14 04:40:50 GMT 45.917454 -3.741737 33,000 49 487 0
2018-06-14 04:40:45 GMT 45.911633 -3.751556 33,000 49 487 0
2018-06-14 04:40:35 GMT 45.897621 -3.775177 33,000 49 487 0
2018-06-14 04:40:24 GMT 45.878860 -3.806897 32,975 49 488 0
2018-06-14 04:40:15 GMT 45.867783 -3.825587 33,000 49 487 0
2018-06-14 04:40:05 GMT 45.853626 -3.849472 32,975 49 487 0
2018-06-14 04:39:55 GMT 45.838348 -3.875226 33,000 49 487 0
2018-06-14 04:39:52 GMT 45.834869 -3.881188 33,000 49 487 0
2018-06-14 04:39:43 GMT 45.820908 -3.904702 33,000 49 487 0
2018-06-14 04:39:34 GMT 45.808090 -3.926339 32,975 49 486 0
2018-06-14 04:39:24 GMT 45.793716 -3.950546 32,975 49 486 0
2018-06-14 04:39:14 GMT 45.778656 -3.975778 33,000 49 487 0
2018-06-14 04:39:03 GMT 45.763363 -4.001495 32,975 49 487 0
2018-06-14 04:39:00 GMT 45.758240 -4.010077 32,975 49 487 0
2018-06-14 04:38:53 GMT 45.748188 -4.026901 33,000 49 487 0
2018-06-14 04:38:43 GMT 45.733154 -4.052146 32,975 49 487 0
2018-06-14 04:38:34 GMT 45.719696 -4.074588 32,975 49 486 0
2018-06-14 04:38:30 GMT 45.715183 -4.082176 33,000 49 487 0
2018-06-14 04:38:22 GMT 45.702759 -4.102992 33,000 49 487 0
2018-06-14 04:38:12 GMT 45.687836 -4.127912 32,975 49 487 0
2018-06-14 04:38:01 GMT 45.672771 -4.153107 33,000 49 487 0
2018-06-14 04:37:51 GMT 45.657875 -4.177963 33,000 49 487 0
2018-06-14 04:37:40 GMT 45.642197 -4.204079 32,975 49 487 0
2018-06-14 04:37:30 GMT 45.627384 -4.228638 32,975 49 487 0
2018-06-14 04:37:20 GMT 45.612305 -4.253719 33,000 49 487 0
2018-06-14 04:37:09 GMT 45.596893 -4.279312 33,000 49 487 0
2018-06-14 04:36:59 GMT 45.581951 -4.304169 33,000 49 487 0
2018-06-14 04:36:52 GMT 45.570099 -4.323857 32,975 49 487 0
2018-06-14 04:36:49 GMT 45.567287 -4.328476 32,975 49 487 0
2018-06-14 04:36:42 GMT 45.555882 -4.347496 32,975 49 487 0
2018-06-14 04:36:38 GMT 45.551331 -4.355007 33,000 49 487 0
2018-06-14 04:36:29 GMT 45.536911 -4.378836 33,000 49 487 0
2018-06-14 04:36:18 GMT 45.521805 -4.403910 33,000 49 487 0
2018-06-14 04:36:08 GMT 45.506256 -4.429567 32,975 49 487 0
2018-06-14 04:35:56 GMT 45.489498 -4.457234 33,000 49 487 0
2018-06-14 04:35:50 GMT 45.480560 -4.472024 33,000 49 487 0
2018-06-14 04:35:47 GMT 45.475391 -4.480479 32,975 49 487 0
2018-06-14 04:35:40 GMT 45.464996 -4.497724 33,000 49 487 0
2018-06-14 04:35:37 GMT 45.460602 -4.504983 32,975 49 487 0
2018-06-14 04:35:26 GMT 45.445587 -4.529702 33,000 49 487 0
2018-06-14 04:35:16 GMT 45.430298 -4.554814 32,975 49 486 0
2018-06-14 04:35:10 GMT 45.420319 -4.571293 33,000 49 486 0
2018-06-14 04:35:06 GMT 45.415199 -4.579758 33,000 49 486 0
2018-06-14 04:34:56 GMT 45.400314 -4.604122 33,000 49 486 0
2018-06-14 04:34:49 GMT 45.389874 -4.621292 33,000 49 487 0
2018-06-14 04:34:45 GMT 45.384846 -4.629464 32,975 49 487 0
2018-06-14 04:34:39 GMT 45.375275 -4.645190 32,975 49 487 0
2018-06-14 04:34:35 GMT 45.369534 -4.654586 32,975 49 487 0
2018-06-14 04:34:28 GMT 45.360126 -4.670060 32,975 49 487 0
2018-06-14 04:34:24 GMT 45.353657 -4.680712 32,975 49 487 0
2018-06-14 04:34:19 GMT 45.344650 -4.695413 33,000 49 487 0
2018-06-14 04:34:14 GMT 45.339340 -4.704110 33,000 49 487 0
2018-06-14 04:34:03 GMT 45.323540 -4.729882 33,000 48 487 0
2018-06-14 04:33:58 GMT 45.314693 -4.744419 33,000 48 487 0
2018-06-14 04:33:54 GMT 45.308781 -4.754066 33,000 48 487 0
2018-06-14 04:33:47 GMT 45.299469 -4.769244 33,000 48 487 0
2018-06-14 04:33:43 GMT 45.293243 -4.779380 32,975 48 487 0
2018-06-14 04:33:33 GMT 45.278137 -4.803968 32,975 48 487 0
2018-06-14 04:33:26 GMT 45.266602 -4.822736 33,000 48 488 0
2018-06-14 04:33:22 GMT 45.262321 -4.829764 32,975 48 488 0
2018-06-14 04:33:16 GMT 45.253006 -4.844905 33,000 48 489 0
2018-06-14 04:33:12 GMT 45.247192 -4.854349 32,975 48 489 0
2018-06-14 04:33:06 GMT 45.238770 -4.868055 33,000 48 489 0
2018-06-14 04:33:00 GMT 45.229568 -4.883030 32,975 48 489 0
2018-06-14 04:32:56 GMT 45.223495 -4.892935 32,975 48 489 0
2018-06-14 04:32:50 GMT 45.215378 -4.906180 32,975 48 489 0
2018-06-14 04:32:47 GMT 45.209427 -4.915793 32,975 48 489 0
2018-06-14 04:32:41 GMT 45.201736 -4.928349 33,000 48 488 0
2018-06-14 04:32:35 GMT 45.192959 -4.942508 32,975 48 488 0
2018-06-14 04:32:30 GMT 45.185120 -4.955292 32,975 48 488 0
2018-06-14 04:32:25 GMT 45.178154 -4.966557 32,975 48 488 0
2018-06-14 04:32:20 GMT 45.170708 -4.978615 33,000 48 488 0
2018-06-14 04:32:16 GMT 45.163742 -4.989886 33,000 48 488 0
2018-06-14 04:32:05 GMT 45.148174 -5.015058 32,975 48 487 0
2018-06-14 04:31:56 GMT 45.133045 -5.039509 32,975 48 488 0
2018-06-14 04:31:49 GMT 45.124153 -5.053912 32,975 48 488 0
2018-06-14 04:31:44 GMT 45.116753 -5.065903 33,000 48 488 0
2018-06-14 04:31:39 GMT 45.108856 -5.078626 32,975 48 488 0
2018-06-14 04:31:33 GMT 45.100136 -5.092766 33,000 48 488 0
2018-06-14 04:31:25 GMT 45.087799 -5.112697 33,000 48 488 0
2018-06-14 04:30:58 GMT 45.048203 -5.176392 33,000 48 488 0
2018-06-14 04:30:47 GMT 45.031982 -5.202495 32,975 48 488 0
2018-06-14 04:30:42 GMT 45.024532 -5.214486 32,975 48 488 0
2018-06-14 04:30:37 GMT 45.017365 -5.225942 33,000 48 488 0
2018-06-14 04:30:32 GMT 45.009430 -5.238647 32,975 48 488 0
2018-06-14 04:30:27 GMT 45.001537 -5.251264 32,975 48 488 0
2018-06-14 04:30:21 GMT 44.991993 -5.266605 32,975 48 488 0
2018-06-14 04:30:16 GMT 44.986176 -5.275923 33,000 48 488 0
2018-06-14 04:30:05 GMT 44.970207 -5.301439 33,000 48 488 0
2018-06-14 04:29:55 GMT 44.954544 -5.326473 33,000 48 487 0
2018-06-14 04:29:50 GMT 44.947128 -5.338375 32,975 48 487 0
2018-06-14 04:29:43 GMT 44.935944 -5.356237 32,975 48 487 0
2018-06-14 04:29:32 GMT 44.918243 -5.384543 33,000 48 487 0
2018-06-14 04:29:21 GMT 44.903496 -5.408087 32,975 48 487 0
2018-06-14 04:29:12 GMT 44.889908 -5.429731 32,975 48 487 0
2018-06-14 04:29:02 GMT 44.875031 -5.453469 33,000 48 487 0
2018-06-14 04:28:48 GMT 44.854431 -5.486232 32,975 48 487 0
2018-06-14 04:28:28 GMT 44.824776 -5.533425 32,975 48 486 0
2018-06-14 04:28:22 GMT 44.815704 -5.547834 33,000 48 486 0
2018-06-14 04:28:12 GMT 44.801697 -5.570134 33,000 48 486 0
2018-06-14 04:27:59 GMT 44.781738 -5.601850 33,000 48 486 0
2018-06-14 04:27:51 GMT 44.770264 -5.620043 33,000 48 486 0
2018-06-14 04:27:41 GMT 44.755508 -5.643376 33,000 48 486 0
2018-06-14 04:27:31 GMT 44.740101 -5.667739 33,000 48 486 0
2018-06-14 04:27:24 GMT 44.728912 -5.685425 32,975 48 486 0
2018-06-14 04:26:50 GMT 44.678375 -5.765076 33,000 48 487 0
We lost coverage of the aircraft here for a total of 7 minutes
2018-06-14 04:19:58 GMT 44.021622 -6.780800 33,000 47 488 0
2018-06-14 04:19:26 GMT 43.995262 -6.820744 33,000 47 488 -128
2018-06-14 04:18:59 GMT 43.967239 -6.863120 32,975 47 487 -128
2018-06-14 04:18:30 GMT 43.923294 -6.929690 33,000 47 487 0
2018-06-14 04:17:57 GMT 43.873344 -7.005419 33,000 47 487 -128
2018-06-14 04:17:37 GMT 43.843597 -7.050476 32,975 47 487 -128
2018-06-14 04:17:13 GMT 43.806152 -7.107132 33,000 47 486 -128
2018-06-14 04:16:45 GMT 43.763527 -7.170541 33,000 46 486 -128
2018-06-14 04:16:10 GMT 43.710480 -7.247527 33,000 46 485 -128
2018-06-14 04:15:43 GMT 43.650406 -7.334682 33,000 46 485 -128
2018-06-14 04:15:16 GMT 43.625519 -7.370613 33,000 46 484 0
2018-06-14 04:15:13 GMT 43.621029 -7.377123 32,975 46 484 0
2018-06-14 04:14:43 GMT 43.553623 -7.474169 32,975 46 483 0
2018-06-14 04:14:12 GMT 43.527512 -7.511710 33,000 46 483 0
2018-06-14 04:13:47 GMT 43.488235 -7.568111 33,000 46 483 0
2018-06-14 04:13:38 GMT 43.474205 -7.588283 32,975 46 483 0
2018-06-14 04:13:29 GMT 43.458424 -7.610910 32,975 46 483 0
2018-06-14 04:13:15 GMT 43.438358 -7.639683 32,975 46 483 0
2018-06-14 04:12:55 GMT 43.408985 -7.681667 32,975 46 483 0
2018-06-14 04:12:32 GMT 43.373566 -7.732203 33,000 46 483 0
2018-06-14 04:12:27 GMT 43.364594 -7.744978 33,000 46 483 0
2018-06-14 04:12:18 GMT 43.349121 -7.767015 33,000 46 483 0
2018-06-14 04:12:07 GMT 43.333649 -7.789051 33,000 46 483 0
2018-06-14 04:11:56 GMT 43.318020 -7.811279 33,000 46 483 0
2018-06-14 04:11:31 GMT 43.277893 -7.868255 32,975 46 483 0
2018-06-14 04:11:22 GMT 43.264526 -7.887162 33,000 46 483 0
2018-06-14 04:11:15 GMT 43.254318 -7.901661 33,000 46 483 0
2018-06-14 04:11:00 GMT 43.229462 -7.936856 33,000 45 483 0
2018-06-14 04:10:48 GMT 43.212254 -7.961230 33,000 45 483 0
2018-06-14 04:10:45 GMT 43.205738 -7.970450 33,000 45 483 0
2018-06-14 04:10:33 GMT 43.186935 -7.997025 32,975 45 483 0
2018-06-14 04:10:23 GMT 43.172825 -8.017011 32,975 45 483 0
2018-06-14 04:10:14 GMT 43.158417 -8.037393 33,000 45 483 0
2018-06-14 04:09:55 GMT 43.129669 -8.077894 33,000 45 483 0
2018-06-14 04:09:52 GMT 43.123432 -8.086657 32,975 45 483 0
2018-06-14 04:09:41 GMT 43.106674 -8.110264 33,000 45 482 0
2018-06-14 04:09:17 GMT 43.070873 -8.160488 32,975 45 482 0
2018-06-14 04:09:11 GMT 43.061565 -8.173567 32,975 45 482 0
2018-06-14 04:08:59 GMT 43.041824 -8.201294 32,975 45 482 0
2018-06-14 04:08:48 GMT 43.025208 -8.224574 32,975 45 482 0
2018-06-14 04:08:42 GMT 43.014496 -8.239618 32,975 45 482 0
2018-06-14 04:08:29 GMT 42.995041 -8.266820 33,000 45 481 0
2018-06-14 04:08:01 GMT 42.949585 -8.330447 32,975 45 480 0
2018-06-14 04:07:50 GMT 42.934525 -8.351506 32,975 45 480 0
2018-06-14 04:07:33 GMT 42.908131 -8.388258 33,000 45 480 0
2018-06-14 04:07:30 GMT 42.903149 -8.395190 33,000 45 480 0
2018-06-14 04:07:13 GMT 42.876751 -8.431941 33,000 45 480 0
2018-06-14 04:06:49 GMT 42.838669 -8.484831 33,000 45 480 0
2018-06-14 04:06:32 GMT 42.813446 -8.519834 33,000 45 480 0
2018-06-14 04:06:28 GMT 42.807220 -8.528449 32,975 45 481 0
2018-06-14 04:06:17 GMT 42.789978 -8.552409 33,000 45 481 0
2018-06-14 04:06:07 GMT 42.773453 -8.575212 33,000 45 481 0
2018-06-14 04:05:56 GMT 42.757530 -8.597185 33,000 45 480 0
2018-06-14 04:05:45 GMT 42.736675 -8.626056 32,975 45 482 0
2018-06-14 04:05:20 GMT 42.701717 -8.674281 32,975 45 482 0
2018-06-14 04:05:15 GMT 42.694382 -8.684380 32,975 45 482 0
2018-06-14 04:05:05 GMT 42.677490 -8.707664 32,975 45 482 0
2018-06-14 04:04:54 GMT 42.661728 -8.729404 32,975 45 482 0
2018-06-14 04:04:42 GMT 42.641830 -8.756728 32,975 45 482 0
2018-06-14 04:04:35 GMT 42.630444 -8.772455 32,975 45 482 0
2018-06-14 04:04:24 GMT 42.614639 -8.794181 32,975 45 482 0
2018-06-14 04:04:13 GMT 42.595825 -8.819962 33,000 45 482 0
2018-06-14 04:04:03 GMT 42.581726 -8.839312 33,000 45 482 0
2018-06-14 04:03:53 GMT 42.565269 -8.861879 33,000 45 482 0
2018-06-14 04:03:43 GMT 42.548653 -8.884618 33,000 45 482 0
2018-06-14 04:03:32 GMT 42.533112 -8.905855 32,975 45 482 0
2018-06-14 04:03:22 GMT 42.516346 -8.928819 32,975 45 482 0
2018-06-14 04:03:11 GMT 42.499283 -8.952172 33,000 45 482 0
2018-06-14 04:03:01 GMT 42.484688 -8.972062 32,975 45 482 0
2018-06-14 04:02:52 GMT 42.469326 -8.993076 33,000 45 482 0
2018-06-14 04:02:40 GMT 42.451950 -9.016779 33,000 45 481 0
2018-06-14 04:02:30 GMT 42.436417 -9.037979 33,000 45 481 0
2018-06-14 04:02:21 GMT 42.419952 -9.060350 32,975 45 481 0
2018-06-14 04:02:10 GMT 42.404297 -9.081636 32,975 45 480 0
2018-06-14 04:02:00 GMT 42.388275 -9.103359 33,000 45 480 0
2018-06-14 04:01:56 GMT 42.379486 -9.115282 32,975 45 480 0
2018-06-14 04:01:52 GMT 42.373711 -9.123187 33,000 45 480 0
2018-06-14 04:01:47 GMT 42.367584 -9.131449 33,000 45 480 0
2018-06-14 04:01:40 GMT 42.355831 -9.147396 33,000 45 480 0
2018-06-14 04:01:37 GMT 42.352249 -9.152298 33,000 45 480 0
2018-06-14 04:01:29 GMT 42.339539 -9.169496 32,975 45 480 0
2018-06-14 04:01:24 GMT 42.332649 -9.178822 32,975 45 479 0
2018-06-14 04:01:19 GMT 42.323898 -9.190638 32,975 45 479 0
2018-06-14 04:01:15 GMT 42.316681 -9.200411 32,975 45 479 0
2018-06-14 04:01:09 GMT 42.306839 -9.213722 33,000 45 479 0
2018-06-14 04:01:06 GMT 42.302765 -9.219215 33,000 45 479 0
2018-06-14 04:01:01 GMT 42.296059 -9.228324 32,975 45 479 0
2018-06-14 04:00:58 GMT 42.290752 -9.235542 32,975 45 479 0
2018-06-14 04:00:53 GMT 42.283539 -9.245251 32,975 45 479 0
2018-06-14 04:00:48 GMT 42.275391 -9.256237 32,975 44 478 0
2018-06-14 04:00:42 GMT 42.267242 -9.267223 32,975 45 479 0
2018-06-14 04:00:37 GMT 42.258820 -9.278657 32,975 45 479 0
2018-06-14 04:00:32 GMT 42.250809 -9.289440 33,000 45 479 0
2018-06-14 04:00:27 GMT 42.243301 -9.299552 32,975 44 478 0
2018-06-14 04:00:22 GMT 42.235355 -9.310338 32,975 45 480 0
2018-06-14 04:00:17 GMT 42.226730 -9.321962 32,975 45 479 0
2018-06-14 04:00:12 GMT 42.219669 -9.331481 33,000 45 480 0
2018-06-14 04:00:07 GMT 42.211243 -9.342850 33,000 45 479 0
2018-06-14 04:00:02 GMT 42.203522 -9.353173 33,000 45 478 -128
2018-06-14 03:59:56 GMT 42.194622 -9.365206 33,000 45 479 0
2018-06-14 03:59:51 GMT 42.186630 -9.375957 33,000 45 479 0
2018-06-14 03:59:46 GMT 42.177841 -9.387755 33,000 45 479 0
2018-06-14 03:59:41 GMT 42.171116 -9.396824 33,000 45 479 0
2018-06-14 03:59:35 GMT 42.161709 -9.409471 33,000 45 479 0
2018-06-14 03:59:28 GMT 42.150398 -9.424609 32,975 45 479 0
2018-06-14 03:59:25 GMT 42.145695 -9.430932 32,975 44 478 0
2018-06-14 03:59:20 GMT 42.138157 -9.441024 32,975 44 478 0
2018-06-14 03:59:17 GMT 42.133301 -9.447556 32,975 44 478 0
2018-06-14 03:59:14 GMT 42.129227 -9.452986 32,975 44 478 0
2018-06-14 03:59:10 GMT 42.122635 -9.461788 32,975 44 478 0
2018-06-14 03:59:04 GMT 42.113388 -9.474239 33,000 45 479 0
2018-06-14 03:59:00 GMT 42.107254 -9.482387 32,975 45 479 0
2018-06-14 03:58:55 GMT 42.097229 -9.495870 32,975 45 479 0
2018-06-14 03:58:47 GMT 42.084686 -9.512662 32,975 45 479 0
2018-06-14 03:58:44 GMT 42.081406 -9.517098 32,975 45 479 0
2018-06-14 03:58:40 GMT 42.075256 -9.525271 33,000 45 479 0
2018-06-14 03:58:33 GMT 42.064316 -9.540003 33,000 44 478 0
2018-06-14 03:58:29 GMT 42.058319 -9.547993 33,000 44 478 0
2018-06-14 03:58:24 GMT 42.048615 -9.560977 33,000 44 478 0
2018-06-14 03:58:16 GMT 42.037136 -9.576310 33,000 44 478 0
2018-06-14 03:58:12 GMT 42.032433 -9.582569 33,000 44 478 0
2018-06-14 03:58:09 GMT 42.027283 -9.589504 33,000 44 478 0
2018-06-14 03:58:06 GMT 42.022099 -9.596430 32,975 44 478 0
2018-06-14 03:58:03 GMT 42.016747 -9.603520 32,975 44 478 0
2018-06-14 03:57:59 GMT 42.011112 -9.611121 33,000 44 478 0
2018-06-14 03:57:55 GMT 42.004829 -9.619488 33,000 44 478 0
2018-06-14 03:57:52 GMT 42.000778 -9.624918 32,975 44 479 0
2018-06-14 03:57:49 GMT 41.995880 -9.631452 33,000 44 479 0
2018-06-14 03:57:45 GMT 41.988693 -9.641065 33,000 44 479 0
2018-06-14 03:57:42 GMT 41.984764 -9.646315 32,975 44 479 0
2018-06-14 03:57:39 GMT 41.979736 -9.653022 33,000 44 479 0
2018-06-14 03:57:36 GMT 41.973732 -9.660943 33,000 44 479 0
2018-06-14 03:57:29 GMT 41.964005 -9.673973 33,000 44 479 0
2018-06-14 03:57:25 GMT 41.957245 -9.682950 32,975 44 479 0
2018-06-14 03:57:22 GMT 41.952530 -9.689255 32,975 44 479 0
2018-06-14 03:57:18 GMT 41.946533 -9.697182 33,000 44 479 0
2018-06-14 03:57:14 GMT 41.941051 -9.704505 32,975 44 480 0
2018-06-14 03:57:11 GMT 41.935371 -9.712042 32,975 44 480 0
2018-06-14 03:57:05 GMT 41.924992 -9.725839 33,000 44 480 0
2018-06-14 03:57:01 GMT 41.919640 -9.732929 33,000 44 480 0
2018-06-14 03:56:58 GMT 41.915543 -9.738358 33,000 44 480 0
2018-06-14 03:56:54 GMT 41.908447 -9.747807 33,000 44 480 0
2018-06-14 03:56:50 GMT 41.902927 -9.755093 33,000 44 480 0
2018-06-14 03:56:45 GMT 41.892654 -9.768718 32,975 44 480 0
2018-06-14 03:56:41 GMT 41.886494 -9.776874 32,975 44 480 0
2018-06-14 03:56:38 GMT 41.883224 -9.781265 32,975 44 480 0
2018-06-14 03:56:33 GMT 41.876114 -9.790671 32,975 44 480 0
2018-06-14 03:56:30 GMT 41.870270 -9.798369 32,975 44 480 0
2018-06-14 03:56:27 GMT 41.867268 -9.802360 33,000 44 480 0
2018-06-14 03:56:23 GMT 41.859680 -9.812388 32,975 44 480 0
2018-06-14 03:56:19 GMT 41.854000 -9.819925 32,975 44 480 0
2018-06-14 03:56:14 GMT 41.844955 -9.831827 32,975 44 480 0
2018-06-14 03:56:10 GMT 41.837402 -9.841877 33,000 44 480 0
2018-06-14 03:56:07 GMT 41.835007 -9.845027 32,975 44 481 0
2018-06-14 03:56:03 GMT 41.828201 -9.853987 32,975 44 481 0
2018-06-14 03:55:57 GMT 41.819046 -9.866160 32,975 44 481 0
2018-06-14 03:55:54 GMT 41.811916 -9.875559 32,975 44 481 0
2018-06-14 03:55:47 GMT 41.802887 -9.887508 32,975 44 481 0
2018-06-14 03:55:43 GMT 41.796741 -9.895680 33,000 44 481 0
2018-06-14 03:55:39 GMT 41.788971 -9.905923 33,000 44 482 0
2018-06-14 03:55:36 GMT 41.786453 -9.909293 32,975 44 481 0
2018-06-14 03:55:33 GMT 41.780411 -9.917221 33,000 44 482 0
2018-06-14 03:55:26 GMT 41.770763 -9.929980 33,000 44 482 0
2018-06-14 03:55:20 GMT 41.761223 -9.942563 33,000 44 482 0
2018-06-14 03:55:16 GMT 41.754089 -9.951990 33,000 44 482 0
2018-06-14 03:55:12 GMT 41.747452 -9.960729 32,975 44 482 0
2018-06-14 03:55:06 GMT 41.737930 -9.973276 33,000 44 482 0
2018-06-14 03:55:02 GMT 41.731888 -9.981266 33,000 44 482 0
2018-06-14 03:54:59 GMT 41.727768 -9.986697 33,000 44 482 0
2018-06-14 03:54:56 GMT 41.721725 -9.994625 33,000 44 482 0
2018-06-14 03:54:52 GMT 41.715832 -10.002349 32,975 44 482 0
2018-06-14 03:54:46 GMT 41.705841 -10.015536 33,000 44 482 0
2018-06-14 03:54:41 GMT 41.698704 -10.024961 33,000 44 482 0
2018-06-14 03:54:35 GMT 41.689316 -10.037259 32,975 44 482 0
2018-06-14 03:54:31 GMT 41.682953 -10.045624 32,975 44 482 0
2018-06-14 03:54:25 GMT 41.672913 -10.058750 33,000 44 482 0
2018-06-14 03:54:22 GMT 41.667343 -10.066098 33,000 44 482 0
2018-06-14 03:54:15 GMT 41.656540 -10.080268 33,000 44 482 0
2018-06-14 03:54:11 GMT 41.649857 -10.089007 33,000 44 482 0
2018-06-14 03:54:04 GMT 41.640465 -10.101290 33,000 44 482 0
2018-06-14 03:54:00 GMT 41.632370 -10.111916 32,975 44 482 0
2018-06-14 03:53:54 GMT 41.624592 -10.122113 33,000 44 482 0
2018-06-14 03:53:49 GMT 41.616165 -10.133202 32,975 44 482 0
2018-06-14 03:53:44 GMT 41.608246 -10.143564 32,975 44 481 0
2018-06-14 03:53:40 GMT 41.602058 -10.151687 32,975 44 481 0
2018-06-14 03:53:34 GMT 41.592041 -10.164788 32,975 44 481 0
2018-06-14 03:53:31 GMT 41.586639 -10.171904 32,975 44 481 0
2018-06-14 03:53:24 GMT 41.576317 -10.185412 33,000 44 482 0
2018-06-14 03:53:19 GMT 41.568558 -10.195562 32,975 44 481 0
2018-06-14 03:53:14 GMT 41.560116 -10.206618 33,000 44 481 0
2018-06-14 03:53:09 GMT 41.552353 -10.216786 32,975 44 481 0
2018-06-14 03:53:04 GMT 41.544067 -10.227585 32,975 44 481 0
2018-06-14 03:52:59 GMT 41.537064 -10.236698 33,000 44 481 0
2018-06-14 03:52:54 GMT 41.526413 -10.250564 33,000 44 481 0
2018-06-14 03:52:49 GMT 41.520081 -10.258867 32,975 44 480 0
2018-06-14 03:52:43 GMT 41.510056 -10.271905 33,000 44 480 0
2018-06-14 03:52:38 GMT 41.503880 -10.280009 32,975 44 480 0
2018-06-14 03:52:33 GMT 41.494011 -10.292784 33,000 44 480 0
2018-06-14 03:52:28 GMT 41.487854 -10.300869 32,975 44 480 0
2018-06-14 03:52:22 GMT 41.477531 -10.314310 33,000 44 480 0
2018-06-14 03:52:18 GMT 41.471649 -10.321967 32,975 44 480 0
2018-06-14 03:52:13 GMT 41.460846 -10.336012 32,975 44 480 0
2018-06-14 03:52:08 GMT 41.456085 -10.342192 33,000 44 480 0
2018-06-14 03:52:02 GMT 41.445084 -10.356403 32,975 44 480 0
2018-06-14 03:51:58 GMT 41.439358 -10.363876 32,975 44 480 0
2018-06-14 03:51:52 GMT 41.428558 -10.377864 32,975 44 480 0
2018-06-14 03:51:48 GMT 41.423161 -10.384891 32,975 44 480 0
2018-06-14 03:51:41 GMT 41.412506 -10.398747 32,975 44 480 0
2018-06-14 03:51:38 GMT 41.407104 -10.405738 33,000 44 480 0
2018-06-14 03:51:30 GMT 41.395180 -10.421235 33,000 44 480 0
2018-06-14 03:51:27 GMT 41.390533 -10.427211 33,000 44 480 0
2018-06-14 03:51:21 GMT 41.379730 -10.441284 32,975 44 480 0
2018-06-14 03:51:17 GMT 41.374466 -10.448060 33,000 44 480 0
2018-06-14 03:51:10 GMT 41.363159 -10.462708 33,000 44 480 0
2018-06-14 03:51:07 GMT 41.358265 -10.469097 33,000 44 480 0
2018-06-14 03:51:01 GMT 41.347275 -10.483337 33,000 44 480 0
2018-06-14 03:50:56 GMT 41.341694 -10.490508 32,975 44 480 0
2018-06-14 03:50:50 GMT 41.330109 -10.505554 32,975 44 480 0
2018-06-14 03:50:46 GMT 41.325165 -10.511919 33,000 44 480 0
2018-06-14 03:50:40 GMT 41.314320 -10.525901 33,000 44 480 0
2018-06-14 03:50:36 GMT 41.308922 -10.532892 32,975 44 480 0
2018-06-14 03:50:30 GMT 41.296818 -10.548560 33,000 44 480 0
2018-06-14 03:50:26 GMT 41.292721 -10.553866 33,000 44 480 0
2018-06-14 03:50:18 GMT 41.280617 -10.569472 33,000 44 480 0
2018-06-14 03:50:15 GMT 41.276474 -10.574778 33,000 44 480 0
2018-06-14 03:50:09 GMT 41.264557 -10.590149 33,000 44 479 0
2018-06-14 03:50:05 GMT 41.260437 -10.595520 32,975 44 479 0
2018-06-14 03:49:58 GMT 41.247711 -10.611877 33,000 44 479 0
2018-06-14 03:49:55 GMT 41.243271 -10.617615 33,000 44 478 0
2018-06-14 03:49:50 GMT 41.235458 -10.627587 33,000 44 478 0
2018-06-14 03:49:45 GMT 41.227386 -10.638000 33,000 44 478 0
2018-06-14 03:49:37 GMT 41.215347 -10.653503 32,975 44 478 0
2018-06-14 03:49:34 GMT 41.210587 -10.659668 33,000 44 478 0
2018-06-14 03:49:27 GMT 41.198502 -10.675171 32,975 44 478 0
2018-06-14 03:49:24 GMT 41.195518 -10.679023 32,975 44 478 0
2018-06-14 03:49:17 GMT 41.182812 -10.695315 32,975 44 478 0
2018-06-14 03:49:14 GMT 41.178864 -10.700439 32,975 44 478 0
2018-06-14 03:49:09 GMT 41.170944 -10.710632 32,975 44 478 0
2018-06-14 03:49:04 GMT 41.163166 -10.720596 33,000 44 478 0
2018-06-14 03:48:59 GMT 41.154739 -10.731445 33,000 44 478 0
2018-06-14 03:48:54 GMT 41.146500 -10.742004 32,975 44 478 0
2018-06-14 03:48:49 GMT 41.138580 -10.752197 32,975 44 478 0
2018-06-14 03:48:44 GMT 41.130810 -10.762170 33,000 44 478 0
2018-06-14 03:48:36 GMT 41.116653 -10.780273 33,000 44 477 0
2018-06-14 03:48:33 GMT 41.114456 -10.783081 32,975 44 477 0
2018-06-14 03:48:28 GMT 41.106045 -10.793880 32,975 43 478 0
2018-06-14 03:48:23 GMT 41.097610 -10.804626 32,975 43 478 0
2018-06-14 03:48:18 GMT 41.090450 -10.813793 32,975 43 478 0
2018-06-14 03:48:13 GMT 41.081558 -10.825154 33,000 43 478 0
2018-06-14 03:48:08 GMT 41.073597 -10.835329 32,975 43 478 0
2018-06-14 03:48:02 GMT 41.065311 -10.845878 32,975 43 478 0
2018-06-14 03:47:58 GMT 41.057678 -10.855616 33,000 43 478 0
2018-06-14 03:47:52 GMT 41.049225 -10.866333 33,000 43 478 0
2018-06-14 03:47:47 GMT 41.041149 -10.876715 33,000 43 478 0
2018-06-14 03:47:42 GMT 41.032864 -10.887264 32,975 43 478 0
2018-06-14 03:47:37 GMT 41.024902 -10.897376 33,000 43 478 0
2018-06-14 03:47:34 GMT 41.019333 -10.904480 33,000 43 478 0
2018-06-14 03:47:31 GMT 41.015362 -10.909549 32,975 43 478 0
2018-06-14 03:47:27 GMT 41.009171 -10.917419 32,975 43 478 0
2018-06-14 03:47:22 GMT 41.000610 -10.928345 33,000 43 478 0
2018-06-14 03:47:17 GMT 40.993111 -10.937888 33,000 43 478 0
2018-06-14 03:47:14 GMT 40.986282 -10.946594 33,000 43 478 0
2018-06-14 03:47:11 GMT 40.983765 -10.949829 33,000 43 478 0
2018-06-14 03:47:07 GMT 40.976440 -10.959106 33,000 43 477 0
2018-06-14 03:47:01 GMT 40.968201 -10.969666 32,975 43 476 0
2018-06-14 03:46:56 GMT 40.960106 -10.979961 32,975 43 476 0
2018-06-14 03:46:51 GMT 40.951538 -10.990885 33,000 43 476 0
2018-06-14 03:46:46 GMT 40.944077 -11.000366 33,000 43 476 0
2018-06-14 03:46:41 GMT 40.935516 -11.011230 33,000 43 476 0
2018-06-14 03:46:35 GMT 40.926590 -11.022522 33,000 43 476 0
2018-06-14 03:46:31 GMT 40.919312 -11.031799 33,000 43 476 0
2018-06-14 03:46:26 GMT 40.911549 -11.041697 32,975 43 476 0
2018-06-14 03:46:23 GMT 40.905170 -11.049749 32,975 43 475 0
2018-06-14 03:46:20 GMT 40.902657 -11.052995 32,975 43 476 0
2018-06-14 03:46:16 GMT 40.895508 -11.062012 33,000 43 476 0
2018-06-14 03:46:10 GMT 40.886784 -11.073095 32,975 43 476 0
2018-06-14 03:46:05 GMT 40.879150 -11.082771 32,975 43 476 0
2018-06-14 03:46:00 GMT 40.870583 -11.093632 32,975 43 476 0
2018-06-14 03:45:54 GMT 40.860535 -11.106323 33,000 43 476 0
2018-06-14 03:45:49 GMT 40.854057 -11.114544 33,000 43 476 0
2018-06-14 03:45:45 GMT 40.846252 -11.124390 32,975 43 476 0
2018-06-14 03:45:42 GMT 40.841492 -11.130432 33,000 43 476 0
2018-06-14 03:45:39 GMT 40.838139 -11.134644 33,000 43 476 0
2018-06-14 03:45:32 GMT 40.825928 -11.150146 32,975 43 476 0
2018-06-14 03:45:29 GMT 40.822083 -11.154968 32,975 43 476 0
2018-06-14 03:45:24 GMT 40.813976 -11.165230 33,000 43 476 0
2018-06-14 03:45:19 GMT 40.804916 -11.176636 32,975 43 476 0
2018-06-14 03:45:12 GMT 40.794891 -11.189263 32,975 43 476 0
2018-06-14 03:45:09 GMT 40.789673 -11.195923 32,975 43 476 0
2018-06-14 03:45:01 GMT 40.775940 -11.213196 33,000 43 477 0
2018-06-14 03:44:58 GMT 40.773102 -11.216797 33,000 43 477 0
2018-06-14 03:44:54 GMT 40.765282 -11.226654 33,000 43 477 0
2018-06-14 03:44:48 GMT 40.756851 -11.237305 33,000 43 477 0
2018-06-14 03:44:41 GMT 40.742611 -11.255119 33,000 43 477 0
2018-06-14 03:44:38 GMT 40.740097 -11.258365 33,000 43 477 0
2018-06-14 03:44:27 GMT 40.723022 -11.279846 33,000 43 477 0
2018-06-14 03:44:17 GMT 40.707558 -11.299314 32,975 43 477 0
2018-06-14 03:44:07 GMT 40.691483 -11.319519 32,975 43 476 0
2018-06-14 03:43:57 GMT 40.674740 -11.340512 33,000 43 476 0
2018-06-14 03:43:47 GMT 40.658981 -11.360291 33,000 43 476 0
2018-06-14 03:43:37 GMT 40.642776 -11.380676 33,000 43 476 0
2018-06-14 03:43:27 GMT 40.626698 -11.400875 32,975 43 476 0
2018-06-14 03:43:16 GMT 40.609360 -11.422607 33,000 43 475 0
2018-06-14 03:43:06 GMT 40.593319 -11.442698 32,975 43 475 0
2018-06-14 03:42:55 GMT 40.575943 -11.464355 32,975 43 475 0
2018-06-14 03:42:45 GMT 40.560379 -11.483826 33,000 43 473 0
2018-06-14 03:42:35 GMT 40.543739 -11.504621 33,000 43 473 0
2018-06-14 03:42:23 GMT 40.525818 -11.527039 33,000 43 473 0
2018-06-14 03:42:14 GMT 40.511108 -11.545382 33,000 43 473 0
2018-06-14 03:42:03 GMT 40.494141 -11.566528 33,000 43 473 0
2018-06-14 03:41:54 GMT 40.478474 -11.586082 33,000 43 472 0
2018-06-14 03:41:44 GMT 40.462463 -11.605957 33,000 43 472 0
2018-06-14 03:41:32 GMT 40.445190 -11.627405 32,975 43 472 0
2018-06-14 03:41:22 GMT 40.428223 -11.648499 32,975 43 472 0
2018-06-14 03:41:12 GMT 40.411423 -11.669373 32,975 43 471 0
2018-06-14 03:41:02 GMT 40.396683 -11.687643 32,975 43 471 0
2018-06-14 03:40:51 GMT 40.379791 -11.708679 33,000 43 471 0
2018-06-14 03:40:42 GMT 40.364094 -11.728093 33,000 43 471 0
2018-06-14 03:40:31 GMT 40.347664 -11.748505 33,000 43 471 0
2018-06-14 03:40:21 GMT 40.331787 -11.768043 32,975 43 471 0
2018-06-14 03:40:10 GMT 40.314560 -11.789429 33,000 43 471 0
2018-06-14 03:40:00 GMT 40.298401 -11.809326 33,000 43 471 0
2018-06-14 03:39:52 GMT 40.285889 -11.824785 33,000 43 470 0
2018-06-14 03:39:49 GMT 40.281921 -11.829651 33,000 43 470 0
2018-06-14 03:39:39 GMT 40.265965 -11.849379 32,975 43 470 0
2018-06-14 03:39:29 GMT 40.249374 -11.869873 32,975 43 470 0
2018-06-14 03:39:19 GMT 40.233421 -11.889517 32,975 43 470 0
2018-06-14 03:39:08 GMT 40.216663 -11.910178 33,000 43 470 0
2018-06-14 03:38:59 GMT 40.201164 -11.929217 33,000 43 469 0
2018-06-14 03:38:48 GMT 40.184731 -11.949442 33,000 43 469 0
2018-06-14 03:38:38 GMT 40.167801 -11.970215 33,000 43 469 0
2018-06-14 03:38:28 GMT 40.151489 -11.990204 32,975 43 469 0
2018-06-14 03:38:17 GMT 40.135529 -12.009827 32,975 43 469 0
2018-06-14 03:38:07 GMT 40.119095 -12.030029 32,975 43 469 0
2018-06-14 03:37:57 GMT 40.102936 -12.049805 33,000 43 469 0
2018-06-14 03:37:46 GMT 40.086319 -12.070104 32,975 43 469 0
2018-06-14 03:37:35 GMT 40.069382 -12.090881 32,975 43 469 0
2018-06-14 03:37:26 GMT 40.053223 -12.110596 33,000 43 470 0
2018-06-14 03:37:15 GMT 40.037205 -12.130155 33,000 43 470 0
2018-06-14 03:37:05 GMT 40.021053 -12.149943 33,000 43 470 0
2018-06-14 03:36:55 GMT 40.004105 -12.170654 33,000 43 470 0
2018-06-14 03:36:43 GMT 39.987442 -12.190954 33,000 43 470 0
2018-06-14 03:36:30 GMT 39.967190 -12.215736 33,000 43 470 0
2018-06-14 03:36:23 GMT 39.955902 -12.229431 33,000 43 469 0
2018-06-14 03:36:10 GMT 39.933533 -12.256685 33,000 43 469 0
2018-06-14 03:36:03 GMT 39.923218 -12.269226 33,000 43 469 0
2018-06-14 03:35:40 GMT 39.886936 -12.313293 32,975 43 469 0
2018-06-14 03:35:32 GMT 39.874420 -12.328511 32,975 43 469 0
2018-06-14 03:35:22 GMT 39.857620 -12.348931 32,975 43 469 0
2018-06-14 03:35:12 GMT 39.841415 -12.368516 33,000 43 469 0
2018-06-14 03:35:01 GMT 39.825066 -12.388306 33,000 43 469 0
2018-06-14 03:34:50 GMT 39.807724 -12.409237 33,000 42 469 0
2018-06-14 03:34:40 GMT 39.792667 -12.427490 33,000 42 469 0
2018-06-14 03:34:30 GMT 39.775768 -12.447876 32,975 42 469 0
2018-06-14 03:34:20 GMT 39.759895 -12.467041 33,000 42 469 0
2018-06-14 03:34:14 GMT 39.750183 -12.478737 33,000 42 469 0
2018-06-14 03:34:09 GMT 39.743500 -12.486798 32,975 42 469 0
2018-06-14 03:34:00 GMT 39.727119 -12.506531 32,975 42 469 0
2018-06-14 03:33:49 GMT 39.710770 -12.526325 33,000 42 469 0
2018-06-14 03:33:38 GMT 39.693924 -12.546626 33,000 43 469 0
2018-06-14 03:33:29 GMT 39.677399 -12.566568 32,975 42 469 0
2018-06-14 03:33:18 GMT 39.661514 -12.585734 33,000 42 469 0
2018-06-14 03:33:08 GMT 39.645096 -12.605408 33,000 42 469 0
2018-06-14 03:32:58 GMT 39.628052 -12.625858 32,975 42 469 0
2018-06-14 03:32:47 GMT 39.611526 -12.645741 32,975 42 469 0
2018-06-14 03:32:05 GMT 39.545700 -12.724676 33,000 42 468 0
2018-06-14 03:31:55 GMT 39.529598 -12.743896 32,975 42 468 0
2018-06-14 03:31:44 GMT 39.512096 -12.764832 32,975 42 469 0
2018-06-14 03:31:34 GMT 39.496826 -12.783081 33,000 42 469 0
2018-06-14 03:31:25 GMT 39.479782 -12.803431 33,000 42 469 0
2018-06-14 03:31:14 GMT 39.463356 -12.823059 32,975 42 469 0
2018-06-14 03:31:03 GMT 39.446640 -12.843018 33,000 42 469 0
2018-06-14 03:28:38 GMT 39.215607 -13.117126 32,975 42 468 0
2018-06-14 03:28:33 GMT 39.205410 -13.129211 32,975 42 468 0
We lost coverage of the aircraft here for a total of 227 minutes
2018-06-13 23:41:57 GMT 37.505081 -14.276967 32,975 230 522 0
2018-06-13 23:41:52 GMT 37.514603 -14.263176 33,000 230 522 0
2018-06-13 23:41:11 GMT 37.579468 -14.169208 33,000 230 522 0
2018-06-13 23:41:01 GMT 37.593063 -14.149456 33,000 230 522 0
2018-06-13 23:40:50 GMT 37.611740 -14.122340 33,000 230 521 0
2018-06-13 23:40:10 GMT 37.674026 -14.031511 33,000 230 521 0
2018-06-13 23:40:07 GMT 37.678574 -14.024866 33,000 230 521 0
2018-06-13 23:39:59 GMT 37.692276 -14.004881 32,975 230 521 0
2018-06-13 23:39:47 GMT 37.709312 -13.980043 32,975 230 521 0
2018-06-13 23:39:37 GMT 37.726776 -13.954507 32,975 230 521 0
2018-06-13 23:39:27 GMT 37.742203 -13.931950 33,000 230 521 0
2018-06-13 23:39:16 GMT 37.757629 -13.909393 32,975 230 521 0
2018-06-13 23:39:06 GMT 37.773331 -13.886368 33,000 230 521 0
2018-06-13 23:38:23 GMT 37.840622 -13.787666 32,975 230 521 0
2018-06-13 23:38:13 GMT 37.856323 -13.764584 32,975 230 521 0
2018-06-13 23:37:52 GMT 37.890930 -13.713626 33,000 230 522 0
2018-06-13 23:37:43 GMT 37.906631 -13.690484 32,975 230 522 0
2018-06-13 23:37:30 GMT 37.925690 -13.662395 33,000 230 522 0
2018-06-13 23:37:00 GMT 37.974884 -13.589796 32,975 230 523 0
2018-06-13 23:36:50 GMT 37.988388 -13.569810 33,000 230 522 0
2018-06-13 23:36:41 GMT 38.002213 -13.549298 33,000 230 522 0
2018-06-13 23:36:30 GMT 38.019630 -13.523513 32,975 230 522 0
2018-06-13 23:36:21 GMT 38.034389 -13.501660 32,975 230 522 0
2018-06-13 23:36:11 GMT 38.051006 -13.477000 33,000 230 522 0
2018-06-13 23:35:43 GMT 38.094952 -13.411739 32,975 230 522 0
2018-06-13 23:35:38 GMT 38.100910 -13.402902 32,975 230 523 0
2018-06-13 23:35:28 GMT 38.117981 -13.377432 32,975 230 523 0
2018-06-13 23:35:17 GMT 38.134918 -13.352187 33,000 230 523 0
2018-06-13 23:35:07 GMT 38.149235 -13.330954 33,000 230 523 0
2018-06-13 23:34:45 GMT 38.183449 -13.279903 33,000 230 524 0
2018-06-13 23:34:36 GMT 38.201653 -13.252736 32,975 230 524 0
2018-06-13 23:34:26 GMT 38.215347 -13.232331 32,975 230 524 0
2018-06-13 23:34:16 GMT 38.231213 -13.208612 32,975 230 525 0
2018-06-13 23:34:05 GMT 38.246899 -13.185086 33,000 230 525 0
2018-06-13 23:33:54 GMT 38.264648 -13.158524 33,000 230 526 0
2018-06-13 23:33:45 GMT 38.279903 -13.135648 32,975 230 526 0
2018-06-13 23:33:33 GMT 38.296898 -13.110153 33,000 230 526 0
2018-06-13 23:33:23 GMT 38.313080 -13.085827 32,975 230 526 0
2018-06-13 23:33:14 GMT 38.327713 -13.063819 33,000 230 527 0
2018-06-13 23:32:47 GMT 38.370621 -12.999222 33,000 230 527 0
2018-06-13 23:32:42 GMT 38.377712 -12.988586 32,975 230 527 0
2018-06-13 23:32:38 GMT 38.385300 -12.977182 33,000 230 527 0
2018-06-13 23:32:13 GMT 38.423126 -12.920041 32,975 230 527 0
2018-06-13 23:32:10 GMT 38.429569 -12.910278 32,975 230 527 0
2018-06-13 23:32:02 GMT 38.440556 -12.893677 32,975 230 527 0
2018-06-13 23:31:49 GMT 38.460800 -12.863020 32,975 230 527 0
2018-06-13 23:31:40 GMT 38.475098 -12.841431 33,000 230 527 0
2018-06-13 23:31:30 GMT 38.490646 -12.817880 33,000 230 527 0
2018-06-13 23:31:20 GMT 38.507263 -12.792683 32,975 230 527 0
2018-06-13 23:31:10 GMT 38.522964 -12.768920 32,975 230 527 0
2018-06-13 23:30:58 GMT 38.540543 -12.742290 32,975 230 527 0
2018-06-13 23:30:49 GMT 38.554962 -12.720377 33,000 230 527 0
2018-06-13 23:30:38 GMT 38.572815 -12.693269 32,975 230 527 0
2018-06-13 23:30:28 GMT 38.587990 -12.670166 33,000 231 526 0
2018-06-13 23:30:17 GMT 38.605042 -12.644249 33,000 231 525 0
2018-06-13 23:30:08 GMT 38.620201 -12.621216 33,000 231 525 0
2018-06-13 23:29:50 GMT 38.647667 -12.579346 33,000 231 525 0
2018-06-13 23:29:46 GMT 38.653427 -12.570569 33,000 231 524 0
2018-06-13 23:29:37 GMT 38.668350 -12.547760 32,975 231 524 0
2018-06-13 23:29:27 GMT 38.685001 -12.522278 32,975 231 524 0
2018-06-13 23:29:21 GMT 38.691971 -12.511577 32,975 231 524 0
2018-06-13 23:29:16 GMT 38.700989 -12.497784 33,000 231 524 0
2018-06-13 23:29:11 GMT 38.707069 -12.488525 33,000 231 524 0
2018-06-13 23:29:06 GMT 38.716507 -12.474020 33,000 231 524 0
2018-06-13 23:28:56 GMT 38.732487 -12.449585 32,975 231 523 0
2018-06-13 23:28:50 GMT 38.740261 -12.437683 33,000 231 523 0
2018-06-13 23:28:45 GMT 38.748779 -12.424582 33,000 231 523 0
2018-06-13 23:28:40 GMT 38.755600 -12.414133 32,975 231 523 0
2018-06-13 23:28:35 GMT 38.764297 -12.400818 33,000 231 523 0
2018-06-13 23:28:30 GMT 38.771263 -12.390137 32,975 231 523 0
2018-06-13 23:28:25 GMT 38.780251 -12.376343 32,975 231 523 0
2018-06-13 23:28:14 GMT 38.796478 -12.351379 32,975 231 522 0
2018-06-13 23:28:04 GMT 38.812138 -12.327393 32,975 231 523 0
2018-06-13 23:27:54 GMT 38.828659 -12.301881 33,000 231 523 0
2018-06-13 23:27:48 GMT 38.836857 -12.289246 32,975 231 523 0
2018-06-13 23:27:43 GMT 38.845093 -12.276625 33,000 231 523 0
2018-06-13 23:27:36 GMT 38.854980 -12.261399 33,000 231 523 0
2018-06-13 23:27:32 GMT 38.861015 -12.252075 33,000 231 523 0
2018-06-13 23:27:28 GMT 38.866745 -12.243248 32,975 231 523 0
2018-06-13 23:27:22 GMT 38.876953 -12.227485 33,000 231 523 0
2018-06-13 23:27:17 GMT 38.883873 -12.216797 33,000 231 523 0
2018-06-13 23:27:11 GMT 38.892857 -12.202942 33,000 231 523 0
2018-06-13 23:27:01 GMT 38.909088 -12.177927 32,975 231 523 0
2018-06-13 23:26:52 GMT 38.925156 -12.153088 32,975 231 524 0
2018-06-13 23:26:46 GMT 38.932426 -12.141846 32,975 231 524 0
2018-06-13 23:26:41 GMT 38.940903 -12.128667 32,975 231 524 0
2018-06-13 23:26:35 GMT 38.949699 -12.115051 32,975 231 524 0
2018-06-13 23:26:30 GMT 38.956970 -12.103829 32,975 231 524 0
2018-06-13 23:26:20 GMT 38.973312 -12.078453 33,000 231 524 0
2018-06-13 23:26:14 GMT 38.981049 -12.066451 33,000 231 524 0
2018-06-13 23:26:10 GMT 38.988144 -12.055465 33,000 231 524 0
2018-06-13 23:26:05 GMT 38.996017 -12.043213 32,975 231 524 0
2018-06-13 23:26:00 GMT 39.004211 -12.030567 33,000 231 523 0
2018-06-13 23:25:54 GMT 39.011753 -12.018799 32,975 231 523 0
2018-06-13 23:25:50 GMT 39.021015 -12.004456 33,000 231 523 0
2018-06-13 23:25:44 GMT 39.027924 -11.993667 32,975 231 523 0
2018-06-13 23:25:40 GMT 39.035339 -11.982143 32,975 231 523 0
2018-06-13 23:25:34 GMT 39.043945 -11.968709 32,975 231 523 0
2018-06-13 23:25:26 GMT 39.056442 -11.949280 32,975 231 523 0
2018-06-13 23:25:23 GMT 39.059692 -11.944228 32,975 231 523 0
2018-06-13 23:25:13 GMT 39.075668 -11.919270 33,000 231 523 0
2018-06-13 23:25:01 GMT 39.093521 -11.891446 32,975 231 523 0
2018-06-13 23:24:52 GMT 39.108162 -11.868652 33,000 231 523 0
2018-06-13 23:24:41 GMT 39.124783 -11.842712 33,000 231 523 0
2018-06-13 23:24:33 GMT 39.137074 -11.823486 32,975 231 523 0
2018-06-13 23:24:30 GMT 39.141861 -11.816035 33,000 231 522 0
2018-06-13 23:24:21 GMT 39.156006 -11.793943 32,975 231 522 0
2018-06-13 23:24:13 GMT 39.168774 -11.773987 33,000 231 522 0
2018-06-13 23:24:10 GMT 39.172577 -11.768029 32,975 231 522 0
2018-06-13 23:24:03 GMT 39.184570 -11.749281 33,000 231 522 0
2018-06-13 23:24:00 GMT 39.190838 -11.739380 33,000 231 522 0
2018-06-13 23:23:50 GMT 39.203293 -11.719904 33,000 231 522 0
2018-06-13 23:23:39 GMT 39.219543 -11.694469 33,000 231 522 0
2018-06-13 23:23:30 GMT 39.234367 -11.671143 32,975 231 522 0
2018-06-13 23:23:19 GMT 39.251038 -11.644911 33,000 231 522 0
2018-06-13 23:23:09 GMT 39.266052 -11.621386 32,975 231 522 0
2018-06-13 23:22:58 GMT 39.281937 -11.596368 32,975 231 521 0
2018-06-13 23:22:48 GMT 39.298737 -11.569857 32,975 231 521 0
2018-06-13 23:22:38 GMT 39.313110 -11.547228 32,975 231 522 0
2018-06-13 23:22:32 GMT 39.322266 -11.532779 33,000 231 522 0
2018-06-13 23:22:27 GMT 39.330505 -11.519762 32,975 231 522 0
2018-06-13 23:22:18 GMT 39.345627 -11.495911 33,000 231 522 0
2018-06-13 23:22:07 GMT 39.360764 -11.471995 33,000 231 522 0
2018-06-13 23:21:56 GMT 39.377243 -11.445963 33,000 231 522 0
2018-06-13 23:21:46 GMT 39.392166 -11.422258 32,975 231 522 0
2018-06-13 23:21:36 GMT 39.408325 -11.396644 32,975 231 522 0
2018-06-13 23:21:26 GMT 39.423412 -11.372742 32,975 231 522 0
2018-06-13 23:21:16 GMT 39.438965 -11.348083 32,975 231 523 0
2018-06-13 23:21:05 GMT 39.455116 -11.322449 33,000 231 522 0
2018-06-13 23:20:54 GMT 39.471272 -11.296753 32,975 231 522 0
2018-06-13 23:20:44 GMT 39.486816 -11.272034 33,000 231 523 0
2018-06-13 23:20:33 GMT 39.502972 -11.246277 32,975 231 523 0
2018-06-13 23:20:23 GMT 39.519451 -11.220093 32,975 231 523 0
2018-06-13 23:20:12 GMT 39.536259 -11.193298 33,000 232 524 0
2018-06-13 23:20:02 GMT 39.551525 -11.168945 32,975 232 524 0
2018-06-13 23:19:51 GMT 39.568222 -11.142346 33,000 232 526 0
2018-06-13 23:19:40 GMT 39.584427 -11.116433 33,000 232 526 0
2018-06-13 23:19:30 GMT 39.599895 -11.091736 32,975 232 526 0
2018-06-13 23:19:21 GMT 39.614559 -11.068237 33,000 232 526 0
2018-06-13 23:19:17 GMT 39.620377 -11.058960 33,000 232 525 0
2018-06-13 23:19:09 GMT 39.632572 -11.039368 32,975 232 525 0
2018-06-13 23:18:59 GMT 39.648449 -11.013977 32,975 232 525 0
2018-06-13 23:18:56 GMT 39.653664 -11.005676 32,975 232 525 0
2018-06-13 23:18:48 GMT 39.664928 -10.987549 32,975 232 524 0
2018-06-13 23:18:45 GMT 39.669067 -10.980954 32,975 232 524 0
2018-06-13 23:18:39 GMT 39.680328 -10.962863 32,975 232 524 0
2018-06-13 23:18:35 GMT 39.685085 -10.955261 33,000 232 524 0
2018-06-13 23:18:25 GMT 39.701385 -10.929128 33,000 232 524 0
2018-06-13 23:18:18 GMT 39.710495 -10.914439 33,000 232 524 0
2018-06-13 23:18:14 GMT 39.716740 -10.904358 33,000 232 524 0
2018-06-13 23:18:07 GMT 39.727570 -10.886974 32,975 232 524 0
2018-06-13 23:18:02 GMT 39.734711 -10.875488 32,975 232 524 0
2018-06-13 23:17:56 GMT 39.742622 -10.862732 32,975 232 524 0
2018-06-13 23:17:51 GMT 39.751141 -10.848999 32,975 232 524 0
2018-06-13 23:17:47 GMT 39.757965 -10.837953 32,975 232 524 0
2018-06-13 23:17:41 GMT 39.766479 -10.824220 32,975 232 524 0
2018-06-13 23:17:35 GMT 39.774837 -10.810730 32,975 232 525 0
2018-06-13 23:17:30 GMT 39.782749 -10.797974 32,975 232 525 0
2018-06-13 23:17:25 GMT 39.789597 -10.786902 32,975 232 525 0
2018-06-13 23:17:20 GMT 39.798431 -10.772632 33,000 232 525 0
2018-06-13 23:17:16 GMT 39.805004 -10.762085 33,000 232 525 0
2018-06-13 23:17:09 GMT 39.814270 -10.747077 32,975 232 525 0
2018-06-13 23:17:06 GMT 39.821274 -10.735732 33,000 232 526 0
2018-06-13 23:17:02 GMT 39.827209 -10.726135 33,000 232 526 0
2018-06-13 23:16:59 GMT 39.830109 -10.721462 33,000 232 526 0
2018-06-13 23:16:55 GMT 39.836658 -10.710876 33,000 232 526 0
2018-06-13 23:16:52 GMT 39.840897 -10.703918 33,000 232 526 0
2018-06-13 23:16:49 GMT 39.845455 -10.696533 33,000 232 526 0
2018-06-13 23:16:44 GMT 39.853226 -10.683965 33,000 232 526 0
2018-06-13 23:16:37 GMT 39.863750 -10.666931 32,975 232 526 0
2018-06-13 23:16:34 GMT 39.870407 -10.656067 32,975 232 526 0
2018-06-13 23:16:29 GMT 39.878044 -10.643738 32,975 232 526 0
2018-06-13 23:16:26 GMT 39.881069 -10.638794 32,975 232 526 0
2018-06-13 23:16:21 GMT 39.888702 -10.626465 32,975 232 526 0
2018-06-13 23:16:14 GMT 39.899040 -10.609680 32,975 232 526 0
2018-06-13 23:16:09 GMT 39.906464 -10.597567 33,000 232 526 0
2018-06-13 23:16:04 GMT 39.916077 -10.581970 33,000 232 527 0
2018-06-13 23:16:00 GMT 39.920792 -10.574341 33,000 232 527 0
2018-06-13 23:15:56 GMT 39.926132 -10.565664 33,000 232 527 0
2018-06-13 23:15:53 GMT 39.931137 -10.557495 32,975 232 527 0
2018-06-13 23:15:46 GMT 39.941803 -10.540161 32,975 232 527 0
2018-06-13 23:15:43 GMT 39.946198 -10.533017 32,975 232 528 0
2018-06-13 23:15:40 GMT 39.950912 -10.525330 32,975 232 528 0
2018-06-13 23:15:32 GMT 39.962173 -10.506958 32,975 232 528 0
2018-06-13 23:15:29 GMT 39.966751 -10.499512 32,975 232 528 0
2018-06-13 23:15:23 GMT 39.978012 -10.481140 33,000 232 528 0
2018-06-13 23:15:20 GMT 39.982269 -10.474182 33,000 232 528 0
2018-06-13 23:15:12 GMT 39.995956 -10.451782 32,975 232 528 0
2018-06-13 23:15:08 GMT 39.998798 -10.447062 33,000 232 528 0
2018-06-13 23:15:04 GMT 40.005829 -10.435638 33,000 232 528 0
2018-06-13 23:14:59 GMT 40.016006 -10.419006 33,000 232 528 0
2018-06-13 23:14:53 GMT 40.021935 -10.409359 33,000 232 528 0
2018-06-13 23:14:49 GMT 40.028313 -10.398934 33,000 232 528 0
2018-06-13 23:14:46 GMT 40.032875 -10.391443 33,000 232 528 0
2018-06-13 23:14:41 GMT 40.040512 -10.379021 33,000 232 528 0
2018-06-13 23:14:37 GMT 40.047318 -10.367859 33,000 232 527 0
2018-06-13 23:14:31 GMT 40.054642 -10.355896 33,000 232 527 0
2018-06-13 23:14:28 GMT 40.059643 -10.347748 33,000 232 527 0
2018-06-13 23:14:23 GMT 40.068115 -10.333765 33,000 232 527 0
2018-06-13 23:14:19 GMT 40.074821 -10.322841 33,000 232 527 0
2018-06-13 23:14:14 GMT 40.081329 -10.312134 32,975 232 527 0
2018-06-13 23:14:10 GMT 40.087692 -10.301697 32,975 232 527 0
2018-06-13 23:14:06 GMT 40.094185 -10.291006 33,000 232 527 0
2018-06-13 23:14:03 GMT 40.097397 -10.285767 32,975 232 527 0
2018-06-13 23:14:00 GMT 40.102844 -10.276855 33,000 232 527 0
2018-06-13 23:13:57 GMT 40.106941 -10.270094 32,975 232 527 0
2018-06-13 23:13:53 GMT 40.113319 -10.259670 32,975 232 527 0
2018-06-13 23:13:47 GMT 40.122574 -10.244446 33,000 232 527 0
2018-06-13 23:13:43 GMT 40.130589 -10.231268 33,000 232 527 0
2018-06-13 23:13:37 GMT 40.139668 -10.216349 32,975 232 527 0
2018-06-13 23:13:32 GMT 40.144958 -10.207642 33,000 232 527 0
2018-06-13 23:13:28 GMT 40.151047 -10.197693 33,000 232 526 0
2018-06-13 23:13:25 GMT 40.155899 -10.189697 32,975 232 526 0
2018-06-13 23:13:21 GMT 40.161942 -10.179749 32,975 232 526 0
2018-06-13 23:13:16 GMT 40.169815 -10.166748 33,000 232 526 0
2018-06-13 23:13:10 GMT 40.179050 -10.151554 33,000 232 526 0
2018-06-13 23:13:05 GMT 40.185242 -10.141357 33,000 232 526 0
2018-06-13 23:13:00 GMT 40.192795 -10.128906 33,000 232 527 0
2018-06-13 23:12:57 GMT 40.197968 -10.120422 33,000 232 527 0
2018-06-13 23:12:54 GMT 40.201859 -10.113892 33,000 232 527 0
2018-06-13 23:12:50 GMT 40.209137 -10.101929 33,000 232 527 0
2018-06-13 23:12:46 GMT 40.213669 -10.094482 32,975 232 527 0
2018-06-13 23:12:43 GMT 40.218201 -10.086975 33,000 232 527 0
2018-06-13 23:12:40 GMT 40.223328 -10.078491 33,000 232 526 0
2018-06-13 23:12:36 GMT 40.229050 -10.068970 32,975 232 526 0
2018-06-13 23:12:33 GMT 40.233749 -10.061229 33,000 232 526 0
2018-06-13 23:12:28 GMT 40.242779 -10.046248 32,975 232 526 0
2018-06-13 23:12:24 GMT 40.248093 -10.037537 32,975 232 526 0
2018-06-13 23:12:20 GMT 40.254280 -10.027272 32,975 232 526 0
2018-06-13 23:12:17 GMT 40.258190 -10.020780 33,000 232 526 0
2018-06-13 23:12:14 GMT 40.263153 -10.012512 33,000 232 526 0
2018-06-13 23:12:07 GMT 40.275513 -9.992065 33,000 232 526 0
2018-06-13 23:12:03 GMT 40.279129 -9.986023 33,000 232 526 0
2018-06-13 23:11:56 GMT 40.291214 -9.966003 33,000 232 526 0
2018-06-13 23:11:53 GMT 40.294361 -9.960792 33,000 232 526 0
2018-06-13 23:11:43 GMT 40.310165 -9.934509 33,000 232 526 0
2018-06-13 23:11:32 GMT 40.325546 -9.908997 32,975 232 526 0
2018-06-13 23:11:22 GMT 40.340927 -9.883423 32,975 232 526 0
2018-06-13 23:11:12 GMT 40.356739 -9.857108 32,975 232 527 0
2018-06-13 23:11:04 GMT 40.369682 -9.835573 32,975 232 527 0
2018-06-13 23:11:01 GMT 40.372559 -9.830811 33,000 232 527 0
2018-06-13 23:10:55 GMT 40.381897 -9.815247 32,975 232 527 0
2018-06-13 23:10:51 GMT 40.387024 -9.806702 33,000 232 527 0
2018-06-13 23:10:46 GMT 40.394531 -9.794189 33,000 232 527 0
2018-06-13 23:10:41 GMT 40.402500 -9.780828 33,000 232 527 0
2018-06-13 23:10:37 GMT 40.410782 -9.767029 33,000 232 527 0
2018-06-13 23:10:32 GMT 40.416824 -9.756958 33,000 232 527 0
2018-06-13 23:10:29 GMT 40.420715 -9.750427 32,975 232 527 0
2018-06-13 23:10:25 GMT 40.428864 -9.736877 33,000 232 527 0
2018-06-13 23:10:18 GMT 40.437695 -9.722026 33,000 232 527 0
2018-06-13 23:10:15 GMT 40.442093 -9.714783 33,000 232 527 0
2018-06-13 23:10:09 GMT 40.451241 -9.699430 33,000 232 527 0
2018-06-13 23:09:59 GMT 40.466557 -9.673774 32,975 232 527 0
2018-06-13 23:09:48 GMT 40.482330 -9.647400 33,000 232 527 0
2018-06-13 23:09:37 GMT 40.499283 -9.618967 32,975 233 526 0
2018-06-13 23:09:27 GMT 40.514465 -9.593567 32,975 233 526 0
2018-06-13 23:09:17 GMT 40.529434 -9.568420 32,975 233 527 0
2018-06-13 23:09:06 GMT 40.545509 -9.541439 32,975 233 527 0
2018-06-13 23:08:56 GMT 40.560654 -9.515930 32,975 233 527 0
2018-06-13 23:08:45 GMT 40.576538 -9.489136 33,000 233 528 0
2018-06-13 23:08:34 GMT 40.593063 -9.461365 32,975 233 528 0
2018-06-13 23:08:24 GMT 40.608353 -9.435486 33,000 233 528 0
2018-06-13 23:08:16 GMT 40.620506 -9.415034 33,000 233 528 0
2018-06-13 23:08:13 GMT 40.624237 -9.408691 32,975 233 528 0
2018-06-13 23:08:03 GMT 40.640011 -9.382075 32,975 233 528 0
2018-06-13 23:07:56 GMT 40.652756 -9.360535 32,975 233 528 0
2018-06-13 23:07:52 GMT 40.656536 -9.354172 32,975 233 528 0
2018-06-13 23:07:44 GMT 40.668549 -9.333884 33,000 233 529 0
2018-06-13 23:07:41 GMT 40.672897 -9.326538 33,000 233 528 0
2018-06-13 23:07:34 GMT 40.683701 -9.308228 32,975 233 529 0
2018-06-13 23:07:30 GMT 40.692078 -9.294006 32,975 233 528 0
2018-06-13 23:07:23 GMT 40.700062 -9.280576 32,975 233 528 0
2018-06-13 23:07:18 GMT 40.708164 -9.266843 32,975 233 528 0
2018-06-13 23:07:12 GMT 40.715790 -9.253845 32,975 233 528 0
2018-06-13 23:07:08 GMT 40.724487 -9.239075 33,000 233 528 0
2018-06-13 23:07:02 GMT 40.731720 -9.226929 33,000 233 528 0
2018-06-13 23:06:56 GMT 40.741123 -9.210850 33,000 233 528 0
2018-06-13 23:06:53 GMT 40.745773 -9.203003 33,000 233 528 0
2018-06-13 23:06:50 GMT 40.752808 -9.191062 33,000 233 528 0
2018-06-13 23:06:45 GMT 40.756577 -9.184692 33,000 233 528 0
2018-06-13 23:06:41 GMT 40.762253 -9.174988 32,975 233 528 0
2018-06-13 23:06:31 GMT 40.778225 -9.147804 33,000 233 528 0
2018-06-13 23:06:20 GMT 40.793610 -9.121582 33,000 233 527 0
2018-06-13 23:06:10 GMT 40.809128 -9.095093 33,000 233 527 0
2018-06-13 23:06:00 GMT 40.824280 -9.069153 32,975 233 527 0
2018-06-13 23:05:49 GMT 40.839951 -9.042497 32,975 233 527 0
2018-06-13 23:05:39 GMT 40.855083 -9.016529 33,000 233 527 0
2018-06-13 23:05:29 GMT 40.870422 -8.990356 32,975 233 527 0
2018-06-13 23:05:18 GMT 40.886169 -8.963379 33,000 233 527 0
2018-06-13 23:05:08 GMT 40.901917 -8.936401 32,975 233 527 0
2018-06-13 23:05:02 GMT 40.910107 -8.922334 32,975 233 527 0
2018-06-13 23:04:57 GMT 40.917507 -8.909600 33,000 233 527 0
2018-06-13 23:04:50 GMT 40.928215 -8.891248 32,975 233 527 0
2018-06-13 23:04:47 GMT 40.933136 -8.882812 32,975 233 527 0
2018-06-13 23:04:39 GMT 40.945160 -8.862159 33,000 233 527 0
2018-06-13 23:04:36 GMT 40.948418 -8.856541 33,000 233 527 0
2018-06-13 23:04:26 GMT 40.964035 -8.829712 32,975 233 527 0
2018-06-13 23:04:15 GMT 40.979462 -8.803162 32,975 233 527 0
2018-06-13 23:04:05 GMT 40.994614 -8.777100 33,000 233 527 0
2018-06-13 23:03:54 GMT 41.011230 -8.748413 33,000 233 527 0
2018-06-13 23:03:45 GMT 41.024323 -8.725891 33,000 233 528 0
2018-06-13 23:03:41 GMT 41.030399 -8.715404 32,975 233 528 0
2018-06-13 23:03:31 GMT 41.045528 -8.689249 32,975 233 528 0
2018-06-13 23:03:19 GMT 41.062592 -8.659729 32,975 233 528 0
2018-06-13 23:03:08 GMT 41.079323 -8.630697 32,975 233 529 0
2018-06-13 23:02:57 GMT 41.095665 -8.602420 32,975 233 529 0
2018-06-13 23:02:48 GMT 41.108597 -8.580017 33,000 233 530 0
2018-06-13 23:02:44 GMT 41.115692 -8.567627 33,000 233 530 0
2018-06-13 23:02:31 GMT 41.135185 -8.533818 32,975 233 530 0
2018-06-13 23:02:17 GMT 41.155392 -8.498611 32,975 233 531 0
2018-06-13 23:00:36 GMT 41.305298 -8.237000 33,000 233 531 0
2018-06-13 23:00:21 GMT 41.327026 -8.198797 33,000 233 531 0
2018-06-13 23:00:11 GMT 41.342880 -8.170959 32,975 233 531 0
2018-06-13 23:00:04 GMT 41.352119 -8.154664 33,000 233 531 0
2018-06-13 23:00:00 GMT 41.357941 -8.144470 33,000 233 531 0
2018-06-13 22:59:50 GMT 41.373917 -8.116394 33,000 233 531 0
2018-06-13 22:59:40 GMT 41.388523 -8.090600 32,975 234 530 0
2018-06-13 22:59:29 GMT 41.404037 -8.063278 33,000 234 530 0
2018-06-13 22:59:20 GMT 41.418777 -8.037248 33,000 234 530 0
2018-06-13 22:59:08 GMT 41.434891 -8.008842 33,000 234 530 0
2018-06-13 22:58:59 GMT 41.450531 -7.981184 33,000 234 530 0
2018-06-13 22:58:52 GMT 41.458328 -7.967398 32,975 234 530 0
2018-06-13 22:58:48 GMT 41.465240 -7.955124 32,975 234 530 0
2018-06-13 22:58:38 GMT 41.481583 -7.926199 32,975 234 530 0
2018-06-13 22:58:27 GMT 41.497147 -7.898608 33,000 234 529 0
2018-06-13 22:58:18 GMT 41.508636 -7.878258 33,000 234 530 0
2018-06-13 22:58:15 GMT 41.513031 -7.870456 33,000 234 530 0
2018-06-13 22:58:06 GMT 41.527855 -7.844174 33,000 234 529 0
2018-06-13 22:57:58 GMT 41.538849 -7.824575 33,000 234 528 0
2018-06-13 22:57:55 GMT 41.543358 -7.816517 33,000 234 528 0
2018-06-13 22:57:47 GMT 41.553772 -7.797983 32,975 234 528 0
2018-06-13 22:57:44 GMT 41.558578 -7.789371 32,975 234 529 0
2018-06-13 22:57:37 GMT 41.568542 -7.771614 32,975 234 529 0
2018-06-13 22:57:34 GMT 41.573685 -7.762527 32,975 234 529 0
2018-06-13 22:57:27 GMT 41.583485 -7.744978 32,975 234 529 0
2018-06-13 22:57:23 GMT 41.589203 -7.734812 32,975 234 530 0
2018-06-13 22:57:17 GMT 41.599457 -7.716460 32,975 234 530 0
2018-06-13 22:57:14 GMT 41.604900 -7.706781 32,975 234 530 0
2018-06-13 22:57:07 GMT 41.613373 -7.691579 32,975 234 531 0
2018-06-13 22:57:03 GMT 41.619370 -7.680817 32,975 234 531 0
2018-06-13 22:56:56 GMT 41.628754 -7.664025 32,975 234 531 0
2018-06-13 22:56:53 GMT 41.634338 -7.654037 32,975 234 531 0
2018-06-13 22:56:46 GMT 41.643536 -7.637478 32,975 234 531 0
2018-06-13 22:56:42 GMT 41.650009 -7.625917 32,975 234 531 0
2018-06-13 22:56:35 GMT 41.659515 -7.608844 33,000 234 531 0
2018-06-13 22:56:31 GMT 41.665230 -7.598579 33,000 234 531 0
2018-06-13 22:56:26 GMT 41.675034 -7.580941 33,000 234 531 0
2018-06-13 22:56:21 GMT 41.680176 -7.571752 33,000 234 531 0
2018-06-13 22:56:14 GMT 41.689957 -7.554099 33,000 234 531 0
2018-06-13 22:56:11 GMT 41.695221 -7.544611 33,000 234 531 0
2018-06-13 22:56:05 GMT 41.705154 -7.526758 32,975 234 530 0
2018-06-13 22:56:00 GMT 41.710693 -7.516708 32,975 234 530 0
2018-06-13 22:55:51 GMT 41.725746 -7.489610 32,975 234 530 0
2018-06-13 22:55:44 GMT 41.735336 -7.472236 33,000 234 530 0
2018-06-13 22:55:40 GMT 41.740601 -7.462719 33,000 234 530 0
2018-06-13 22:55:30 GMT 41.756744 -7.433437 33,000 234 530 0
2018-06-13 22:55:24 GMT 41.764385 -7.419412 32,975 234 530 0
2018-06-13 22:55:18 GMT 41.772034 -7.405409 32,975 235 530 0
2018-06-13 22:55:08 GMT 41.786362 -7.378817 32,975 234 530 0
2018-06-13 22:54:58 GMT 41.801674 -7.351131 32,975 233 531 0
2018-06-13 22:54:48 GMT 41.817673 -7.323324 33,000 232 530 0
2018-06-13 22:54:37 GMT 41.832726 -7.297796 33,000 232 531 0
2018-06-13 22:54:26 GMT 41.849766 -7.269819 33,000 231 530 0
2018-06-13 22:54:14 GMT 41.868210 -7.240302 33,000 230 531 0
2018-06-13 22:54:05 GMT 41.883469 -7.215846 33,000 231 531 0
2018-06-13 22:53:54 GMT 41.899841 -7.189116 32,975 231 531 0
2018-06-13 22:53:44 GMT 41.917870 -7.159126 32,975 232 531 0
2018-06-13 22:53:32 GMT 41.933304 -7.133123 32,975 232 530 0
2018-06-13 22:53:22 GMT 41.951431 -7.102786 33,000 232 531 -64
2018-06-13 22:53:09 GMT 41.970566 -7.072761 33,000 229 531 64
2018-06-13 22:52:59 GMT 41.986813 -7.052137 32,975 218 534 0
2018-06-13 22:52:51 GMT 42.006088 -7.034246 33,000 212 535 0
2018-06-13 22:52:39 GMT 42.029526 -7.015582 32,975 211 535 0
2018-06-13 22:52:30 GMT 42.051224 -6.998291 33,000 211 535 0
2018-06-13 22:52:19 GMT 42.072052 -6.981624 33,000 211 535 0
2018-06-13 22:52:08 GMT 42.095032 -6.963335 33,000 211 534 0
2018-06-13 22:51:58 GMT 42.117554 -6.945294 32,975 211 534 0
2018-06-13 22:51:47 GMT 42.140297 -6.927199 32,975 211 534 0
2018-06-13 22:51:35 GMT 42.164921 -6.907462 32,975 211 534 0
2018-06-13 22:51:27 GMT 42.184055 -6.892196 33,000 211 534 0
2018-06-13 22:51:06 GMT 42.229294 -6.855906 32,975 211 535 0
2018-06-13 22:50:54 GMT 42.251648 -6.838031 33,000 211 535 0
2018-06-13 22:50:45 GMT 42.274597 -6.819572 32,975 211 535 0
2018-06-13 22:50:33 GMT 42.296951 -6.801598 32,975 211 536 0
2018-06-13 22:50:23 GMT 42.318695 -6.784120 32,975 211 536 0
2018-06-13 22:50:13 GMT 42.340027 -6.766954 33,000 211 537 0
2018-06-13 22:50:02 GMT 42.363464 -6.748040 33,000 211 537 0
2018-06-13 22:49:51 GMT 42.387115 -6.728998 33,000 211 537 0
2018-06-13 22:49:21 GMT 42.450611 -6.677707 32,975 211 536 0
2018-06-13 22:49:10 GMT 42.475067 -6.657902 33,000 211 536 0
2018-06-13 22:49:01 GMT 42.495483 -6.641360 32,975 211 536 0
2018-06-13 22:48:22 GMT 42.577469 -6.574818 33,000 212 535 0
2018-06-13 22:48:17 GMT 42.586174 -6.567716 32,975 212 535 0
2018-06-13 22:48:08 GMT 42.605305 -6.552195 33,000 212 535 0
2018-06-13 22:47:42 GMT 42.661011 -6.506778 33,000 212 534 0
2018-06-13 22:47:37 GMT 42.671631 -6.498163 32,975 212 534 0
2018-06-13 22:47:27 GMT 42.693012 -6.480656 32,975 212 534 0
2018-06-13 22:47:16 GMT 42.715622 -6.462146 32,975 212 534 0
2018-06-13 22:47:02 GMT 42.746109 -6.437239 33,000 212 534 0
2018-06-13 22:46:46 GMT 42.779526 -6.409961 33,000 212 534 0
2018-06-13 22:46:43 GMT 42.788406 -6.402657 33,000 212 533 0
2018-06-13 22:46:22 GMT 42.830853 -6.367885 33,000 212 533 0
2018-06-13 22:46:14 GMT 42.847916 -6.353802 33,000 212 533 0
2018-06-13 22:46:03 GMT 42.869843 -6.335790 32,975 212 533 0
2018-06-13 22:45:54 GMT 42.891357 -6.318161 32,975 212 533 0
2018-06-13 22:45:29 GMT 42.943588 -6.275110 32,975 212 533 0
2018-06-13 22:45:04 GMT 42.995228 -6.232518 33,000 212 533 0
2018-06-13 22:45:01 GMT 43.001095 -6.227679 33,000 212 532 0
2018-06-13 22:44:56 GMT 43.015430 -6.215842 32,975 212 532 0
2018-06-13 22:44:44 GMT 43.036652 -6.198269 33,000 212 532 0
2018-06-13 22:44:34 GMT 43.059357 -6.179426 32,975 212 532 0
2018-06-13 22:44:22 GMT 43.087555 -6.156112 33,000 212 532 0
2018-06-13 22:44:11 GMT 43.109188 -6.138218 32,975 212 532 0
2018-06-13 22:44:00 GMT 43.142006 -6.111014 33,000 212 532 0
2018-06-13 22:43:43 GMT 43.165329 -6.091600 32,975 212 532 0
2018-06-13 22:43:34 GMT 43.186615 -6.073906 32,975 212 531 0
2018-06-13 22:43:22 GMT 43.217697 -6.047974 32,975 212 532 0
2018-06-13 22:43:09 GMT 43.237015 -6.031877 32,975 212 532 0
2018-06-13 22:43:00 GMT 43.257408 -6.014818 32,975 212 533 0
2018-06-13 22:42:48 GMT 43.280968 -5.995200 32,975 212 534 0
2018-06-13 22:42:19 GMT 43.346466 -5.940538 33,000 212 533 0
2018-06-13 22:41:47 GMT 43.412521 -5.885159 33,000 211 532 0
2018-06-13 22:41:32 GMT 43.443851 -5.858852 33,000 211 532 0
2018-06-13 22:41:08 GMT 43.501389 -5.810460 32,975 212 534 0
2018-06-13 22:40:46 GMT 43.559299 -5.761610 33,000 211 532 0
2018-06-13 22:40:17 GMT 43.601337 -5.726100 32,975 212 534 128
2018-06-13 22:39:47 GMT 43.664417 -5.672673 32,925 212 534 448
2018-06-13 22:39:36 GMT 43.685410 -5.654820 32,825 212 534 640
2018-06-13 22:39:26 GMT 43.708740 -5.635028 32,700 212 534 768
2018-06-13 22:39:15 GMT 43.729172 -5.617676 32,575 212 534 768
2018-06-13 22:39:04 GMT 43.753143 -5.597273 32,425 212 534 704
2018-06-13 22:38:53 GMT 43.775208 -5.578500 32,300 212 534 640
2018-06-13 22:38:38 GMT 43.808681 -5.549992 31,900 212 533 448
2018-06-13 22:38:09 GMT 43.867172 -5.500062 31,925 212 531 576
2018-06-13 22:38:06 GMT 43.872829 -5.495257 31,900 212 531 576
2018-06-13 22:38:01 GMT 43.883259 -5.486298 31,700 212 531 704
2018-06-13 22:37:49 GMT 43.908768 -5.464521 31,700 212 530 704
2018-06-13 22:37:39 GMT 43.934006 -5.442959 31,575 212 530 704
2018-06-13 22:37:32 GMT 43.944397 -5.434017 31,525 212 530 768
2018-06-13 22:37:09 GMT 43.992516 -5.392718 31,200 212 528 0
2018-06-13 22:36:46 GMT 44.039116 -5.352565 30,975 212 528 0
2018-06-13 22:36:40 GMT 44.051964 -5.341513 31,000 212 529 0
2018-06-13 22:36:29 GMT 44.074821 -5.321764 31,000 212 528 0
2018-06-13 22:36:20 GMT 44.094326 -5.304958 31,000 212 529 0
2018-06-13 22:36:10 GMT 44.114670 -5.287367 30,975 212 529 0
2018-06-13 22:35:59 GMT 44.136520 -5.268519 31,000 212 530 0
2018-06-13 22:35:49 GMT 44.157497 -5.250353 31,000 212 530 0
2018-06-13 22:35:39 GMT 44.178497 -5.232175 30,975 212 530 0
2018-06-13 22:35:29 GMT 44.200325 -5.213281 31,000 212 530 0
2018-06-13 22:35:18 GMT 44.222580 -5.193983 30,975 212 530 0
2018-06-13 22:35:08 GMT 44.242950 -5.176326 30,975 212 530 0
2018-06-13 22:34:58 GMT 44.264381 -5.157746 31,000 212 530 0
2018-06-13 22:34:46 GMT 44.289333 -5.136041 31,000 212 530 0
2018-06-13 22:34:37 GMT 44.308094 -5.119763 30,975 212 530 0
2018-06-13 22:34:27 GMT 44.328232 -5.102234 30,975 212 530 0
2018-06-13 22:34:16 GMT 44.350502 -5.082852 30,975 212 530 0
2018-06-13 22:34:06 GMT 44.372150 -5.064027 31,000 213 531 0
2018-06-13 22:33:54 GMT 44.397568 -5.041854 30,975 213 531 0
2018-06-13 22:33:45 GMT 44.415863 -5.025843 31,000 213 531 0
2018-06-13 22:33:36 GMT 44.435211 -5.008915 31,000 212 531 0
2018-06-13 22:33:23 GMT 44.460739 -4.986453 31,000 213 530 0
2018-06-13 22:33:15 GMT 44.478245 -4.970108 30,975 215 529 0
2018-06-13 22:33:04 GMT 44.499985 -4.948556 31,000 217 528 0
2018-06-13 22:32:54 GMT 44.519257 -4.928172 30,975 218 528 0
2018-06-13 22:32:43 GMT 44.541046 -4.903564 30,975 220 526 0
2018-06-13 22:32:34 GMT 44.557148 -4.884294 30,975 222 526 0
2018-06-13 22:32:24 GMT 44.575443 -4.861852 31,000 222 526 0
2018-06-13 22:32:12 GMT 44.597260 -4.835161 31,000 222 526 0
2018-06-13 22:32:01 GMT 44.616623 -4.811292 31,000 222 526 0
2018-06-13 22:31:53 GMT 44.632565 -4.791781 31,000 222 527 0
2018-06-13 22:31:42 GMT 44.651184 -4.768803 30,975 222 527 0
2018-06-13 22:31:32 GMT 44.670223 -4.745357 30,975 222 527 0
2018-06-13 22:31:21 GMT 44.690506 -4.720394 31,000 222 527 0
2018-06-13 22:31:12 GMT 44.707512 -4.699402 30,975 222 527 0
2018-06-13 22:31:01 GMT 44.726715 -4.675664 30,975 222 527 0
2018-06-13 22:30:51 GMT 44.745026 -4.653102 31,000 222 527 0
2018-06-13 22:30:41 GMT 44.763840 -4.629799 30,975 222 527 0
2018-06-13 22:30:29 GMT 44.785629 -4.602879 30,975 222 527 0
2018-06-13 22:30:20 GMT 44.801922 -4.582773 31,000 222 527 0
2018-06-13 22:30:10 GMT 44.820915 -4.559192 30,975 222 527 0
2018-06-13 22:29:59 GMT 44.840469 -4.534934 30,975 222 527 0
2018-06-13 22:29:49 GMT 44.858204 -4.512902 30,975 222 528 0
2018-06-13 22:29:39 GMT 44.877045 -4.489485 30,975 222 528 0
2018-06-13 22:29:29 GMT 44.895676 -4.466269 30,975 222 527 0
2018-06-13 22:29:19 GMT 44.914307 -4.443054 31,000 222 527 0
2018-06-13 22:29:08 GMT 44.933521 -4.419117 30,975 222 528 0
2018-06-13 22:28:58 GMT 44.952301 -4.395643 31,000 222 527 0
2018-06-13 22:28:48 GMT 44.970566 -4.372820 31,000 222 527 0
2018-06-13 22:28:37 GMT 44.989388 -4.349313 30,975 222 527 0
2018-06-13 22:28:27 GMT 45.008751 -4.325130 31,000 222 528 0
2018-06-13 22:28:16 GMT 45.027699 -4.301348 31,000 222 528 0
2018-06-13 22:28:04 GMT 45.049805 -4.273682 31,000 222 528 0
2018-06-13 22:27:54 GMT 45.068245 -4.250570 30,975 222 528 0
2018-06-13 22:27:45 GMT 45.084824 -4.229736 31,000 222 528 0
2018-06-13 22:27:35 GMT 45.102879 -4.207027 31,000 222 527 0
2018-06-13 22:27:24 GMT 45.123459 -4.181148 30,975 222 527 0
2018-06-13 22:27:14 GMT 45.141148 -4.158861 31,000 222 527 0
2018-06-13 22:27:04 GMT 45.159302 -4.135951 31,000 222 527 0
2018-06-13 22:26:54 GMT 45.178391 -4.111829 31,000 222 526 0
2018-06-13 22:26:44 GMT 45.196777 -4.088656 31,000 222 526 0
2018-06-13 22:26:33 GMT 45.216202 -4.064091 30,975 222 526 0
2018-06-13 22:26:22 GMT 45.235973 -4.039016 31,000 222 526 0
2018-06-13 22:26:12 GMT 45.253235 -4.017203 31,000 222 527 0
2018-06-13 22:26:02 GMT 45.271774 -3.993726 31,000 222 527 0
2018-06-13 22:25:52 GMT 45.290440 -3.970017 31,000 222 527 0
2018-06-13 22:25:40 GMT 45.311481 -3.943355 30,975 222 526 0
2018-06-13 22:25:31 GMT 45.328674 -3.921465 31,000 222 526 0
2018-06-13 22:25:21 GMT 45.346802 -3.898446 30,975 222 525 0
2018-06-13 22:25:11 GMT 45.365391 -3.874757 31,000 222 525 0
2018-06-13 22:25:00 GMT 45.383823 -3.851311 31,000 222 525 0
2018-06-13 22:24:50 GMT 45.402260 -3.827797 30,975 222 525 0
2018-06-13 22:24:40 GMT 45.421188 -3.803624 31,000 222 524 0
2018-06-13 22:24:29 GMT 45.439777 -3.779900 31,000 222 524 0
2018-06-13 22:24:19 GMT 45.457947 -3.756605 31,000 222 524 0
2018-06-13 22:24:09 GMT 45.477081 -3.732147 31,000 222 524 0
2018-06-13 22:23:58 GMT 45.497223 -3.706316 31,000 222 524 0
2018-06-13 22:23:44 GMT 45.521339 -3.675396 31,000 226 487 0
2018-06-13 22:23:38 GMT 45.532333 -3.661325 30,975 223 523 0
2018-06-13 22:23:28 GMT 45.550480 -3.637985 31,000 223 523 0
2018-06-13 22:23:17 GMT 45.569569 -3.613472 31,000 223 523 0
2018-06-13 22:23:07 GMT 45.587910 -3.589851 31,000 223 524 0
2018-06-13 22:22:56 GMT 45.607273 -3.564857 30,975 223 522 0
2018-06-13 22:22:52 GMT 45.617844 -3.551197 30,975 223 523 0
2018-06-13 22:22:44 GMT 45.628780 -3.537117 31,000 223 523 0
2018-06-13 22:22:36 GMT 45.644348 -3.516965 31,000 223 522 0
2018-06-13 22:22:25 GMT 45.662811 -3.493172 31,000 223 522 0
2018-06-13 22:22:15 GMT 45.681293 -3.469208 30,975 223 522 0
2018-06-13 22:22:03 GMT 45.701981 -3.442472 30,975 223 522 0
2018-06-13 22:21:53 GMT 45.720348 -3.418602 30,975 223 521 0
2018-06-13 22:21:44 GMT 45.738419 -3.395244 31,000 223 521 0
2018-06-13 22:21:33 GMT 45.756958 -3.371128 30,975 223 521 0
2018-06-13 22:21:23 GMT 45.774956 -3.347740 31,000 223 521 0
2018-06-13 22:21:13 GMT 45.793716 -3.323364 30,975 223 521 0
2018-06-13 22:21:03 GMT 45.810287 -3.301804 30,975 223 522 0
2018-06-13 22:21:00 GMT 45.814941 -3.295761 31,000 223 522 0
2018-06-13 22:20:51 GMT 45.831329 -3.274338 31,000 223 522 0
2018-06-13 22:20:44 GMT 45.843979 -3.257848 30,975 223 522 0
2018-06-13 22:20:41 GMT 45.848461 -3.252022 30,975 223 522 0
2018-06-13 22:20:34 GMT 45.861832 -3.234536 30,975 223 522 0
2018-06-13 22:20:31 GMT 45.866089 -3.228909 31,000 223 522 0
2018-06-13 22:20:21 GMT 45.884121 -3.205399 31,000 223 523 0
2018-06-13 22:20:10 GMT 45.903580 -3.179939 31,000 223 523 0
2018-06-13 22:20:03 GMT 45.916763 -3.162656 31,000 223 523 0
2018-06-13 22:20:00 GMT 45.921597 -3.156372 31,000 223 523 0
2018-06-13 22:19:53 GMT 45.934814 -3.139069 31,000 223 523 0
2018-06-13 22:19:50 GMT 45.940170 -3.131996 31,000 223 523 0
2018-06-13 22:19:43 GMT 45.952835 -3.115428 30,975 223 523 0
2018-06-13 22:19:39 GMT 45.959068 -3.107208 30,975 223 522 0
2018-06-13 22:19:33 GMT 45.970848 -3.091759 31,000 223 523 0
2018-06-13 22:19:28 GMT 45.978882 -3.081263 30,975 223 523 0
2018-06-13 22:19:22 GMT 45.990601 -3.065788 30,975 223 522 0
2018-06-13 22:19:18 GMT 45.997009 -3.057348 31,000 223 522 0
2018-06-13 22:19:13 GMT 46.006832 -3.044518 31,000 223 522 0
2018-06-13 22:19:08 GMT 46.014084 -3.034906 30,975 223 522 0
2018-06-13 22:19:02 GMT 46.025116 -3.020369 30,975 223 522 0
2018-06-13 22:18:57 GMT 46.034904 -3.007507 30,975 223 522 0
2018-06-13 22:18:52 GMT 46.043793 -2.995766 30,975 223 523 0
2018-06-13 22:18:48 GMT 46.050751 -2.986607 31,000 223 522 0
2018-06-13 22:18:42 GMT 46.061737 -2.972070 30,975 223 522 0
2018-06-13 22:18:38 GMT 46.068832 -2.962691 30,975 223 522 0
2018-06-13 22:18:35 GMT 46.073307 -2.956833 31,000 223 523 0
2018-06-13 22:18:32 GMT 46.078812 -2.949561 30,975 223 523 0
2018-06-13 22:18:27 GMT 46.086960 -2.938709 31,000 223 522 0
2018-06-13 22:18:21 GMT 46.098724 -2.923234 31,000 223 522 0
2018-06-13 22:18:18 GMT 46.105820 -2.913856 31,000 223 523 0
2018-06-13 22:18:15 GMT 46.109573 -2.908905 30,975 223 523 0
2018-06-13 22:18:10 GMT 46.117905 -2.897845 30,975 223 523 0
2018-06-13 22:18:07 GMT 46.124142 -2.889610 30,975 223 523 0
2018-06-13 22:18:00 GMT 46.135666 -2.874332 30,975 223 522 0
2018-06-13 22:17:54 GMT 46.146332 -2.860264 30,975 223 523 0
2018-06-13 22:17:51 GMT 46.152374 -2.852225 30,975 223 523 0
2018-06-13 22:17:46 GMT 46.161255 -2.840435 31,000 223 523 0
2018-06-13 22:17:42 GMT 46.168030 -2.831525 31,000 223 523 0
2018-06-13 22:17:39 GMT 46.172466 -2.825615 31,000 223 523 0
2018-06-13 22:17:35 GMT 46.179913 -2.815727 30,975 223 522 0
2018-06-13 22:17:31 GMT 46.187576 -2.805600 30,975 223 522 0
2018-06-13 22:17:22 GMT 46.204605 -2.782957 30,975 223 522 0
2018-06-13 22:17:15 GMT 46.216324 -2.767349 31,000 223 522 0
2018-06-13 22:17:10 GMT 46.223949 -2.757225 30,975 223 522 0
2018-06-13 22:17:07 GMT 46.229630 -2.749672 30,975 223 522 0
2018-06-13 22:17:04 GMT 46.234566 -2.743011 31,000 223 522 0
2018-06-13 22:16:58 GMT 46.246445 -2.727222 31,000 223 522 0
2018-06-13 22:16:54 GMT 46.253540 -2.717776 31,000 223 522 0
2018-06-13 22:16:48 GMT 46.263107 -2.704981 31,000 223 522 0
2018-06-13 22:16:44 GMT 46.271301 -2.694129 31,000 223 522 0
2018-06-13 22:16:40 GMT 46.277489 -2.685814 31,000 223 522 0
2018-06-13 22:16:37 GMT 46.283707 -2.677583 31,000 223 522 0
2018-06-13 22:16:33 GMT 46.289543 -2.669746 31,000 223 522 0
2018-06-13 22:16:26 GMT 46.302841 -2.651992 30,975 223 522 0
2018-06-13 22:16:21 GMT 46.312775 -2.638795 30,975 223 522 0
2018-06-13 22:16:17 GMT 46.319336 -2.629990 30,975 223 522 0
2018-06-13 22:16:13 GMT 46.326412 -2.620514 30,975 223 522 0
2018-06-13 22:16:10 GMT 46.331543 -2.613674 30,975 223 522 0
2018-06-13 22:16:06 GMT 46.338470 -2.604446 31,000 223 522 0
2018-06-13 22:16:02 GMT 46.344849 -2.595932 31,000 223 522 0
2018-06-13 22:15:59 GMT 46.350155 -2.588791 31,000 223 522 0
2018-06-13 22:15:55 GMT 46.358459 -2.577634 31,000 223 522 0
2018-06-13 22:15:51 GMT 46.363770 -2.570533 30,975 223 522 0
2018-06-13 22:15:47 GMT 46.373337 -2.557738 31,000 223 522 0
2018-06-13 22:15:42 GMT 46.381119 -2.547287 31,000 223 522 0
2018-06-13 22:15:39 GMT 46.385742 -2.541124 30,975 223 522 0
2018-06-13 22:15:36 GMT 46.391911 -2.532761 31,000 223 522 0
2018-06-13 22:15:31 GMT 46.399685 -2.522324 31,000 223 522 0
2018-06-13 22:15:25 GMT 46.409927 -2.508591 31,000 223 522 0
2018-06-13 22:15:21 GMT 46.417557 -2.498385 30,975 223 522 0
2018-06-13 22:15:16 GMT 46.427444 -2.485054 30,975 223 522 0
2018-06-13 22:15:13 GMT 46.432224 -2.478653 30,975 223 522 0
2018-06-13 22:15:10 GMT 46.436279 -2.473130 31,000 223 522 0
2018-06-13 22:15:06 GMT 46.446854 -2.458861 30,975 224 522 0
2018-06-13 22:15:00 GMT 46.454479 -2.448647 30,975 223 522 0
2018-06-13 22:14:55 GMT 46.463470 -2.436486 31,000 223 522 0
2018-06-13 22:14:50 GMT 46.472672 -2.424093 31,000 223 522 0
2018-06-13 22:14:44 GMT 46.482880 -2.410293 30,975 223 522 0
2018-06-13 22:14:39 GMT 46.492081 -2.397900 30,975 224 522 0
2018-06-13 22:14:35 GMT 46.499863 -2.387383 31,000 224 522 0
2018-06-13 22:14:29 GMT 46.509548 -2.374283 30,975 224 522 0
2018-06-13 22:14:25 GMT 46.518585 -2.362128 31,000 224 522 0
2018-06-13 22:14:19 GMT 46.528107 -2.349199 30,975 224 522 0
2018-06-13 22:14:14 GMT 46.535889 -2.338681 30,975 224 522 0
2018-06-13 22:14:07 GMT 46.547882 -2.322470 31,000 224 522 0
2018-06-13 22:14:04 GMT 46.554100 -2.314064 30,975 223 523 0
2018-06-13 22:13:58 GMT 46.563969 -2.300743 30,975 224 522 0
2018-06-13 22:13:54 GMT 46.572281 -2.289444 31,000 224 522 0
2018-06-13 22:13:47 GMT 46.582855 -2.275108 31,000 224 522 0
2018-06-13 22:13:43 GMT 46.590637 -2.264590 30,975 224 522 0
2018-06-13 22:13:37 GMT 46.602097 -2.249039 31,000 224 522 0
2018-06-13 22:13:33 GMT 46.608475 -2.240387 31,000 224 522 0
2018-06-13 22:13:27 GMT 46.619740 -2.225075 31,000 224 522 0
2018-06-13 22:13:23 GMT 46.626766 -2.215530 30,975 224 522 0
2018-06-13 22:13:16 GMT 46.638931 -2.199007 30,975 224 522 0
2018-06-13 22:13:12 GMT 46.644928 -2.190835 30,975 224 522 0
2018-06-13 22:13:05 GMT 46.657772 -2.173370 30,975 224 522 0
2018-06-13 22:13:02 GMT 46.662552 -2.166919 30,975 224 522 0
2018-06-13 22:12:55 GMT 46.675369 -2.149406 30,975 224 522 0
2018-06-13 22:12:52 GMT 46.680817 -2.141932 30,975 224 522 0
2018-06-13 22:12:45 GMT 46.692638 -2.125854 31,000 224 522 0
2018-06-13 22:12:42 GMT 46.698761 -2.117481 31,000 224 522 0
2018-06-13 22:12:35 GMT 46.711262 -2.100449 31,000 224 521 0
2018-06-13 22:12:32 GMT 46.716339 -2.093498 31,000 224 521 0
2018-06-13 22:12:24 GMT 46.729706 -2.075277 30,975 224 521 0
2018-06-13 22:12:21 GMT 46.734768 -2.068314 30,975 224 521 0
2018-06-13 22:12:14 GMT 46.747059 -2.051491 30,975 224 521 0
2018-06-13 22:12:11 GMT 46.752869 -2.043591 30,975 224 521 0
2018-06-13 22:12:04 GMT 46.765308 -2.026566 30,975 224 520 0
2018-06-13 22:12:01 GMT 46.770355 -2.019609 30,975 224 520 0
2018-06-13 22:11:53 GMT 46.783836 -2.001160 31,000 224 519 0
2018-06-13 22:11:49 GMT 46.791733 -1.990401 31,000 224 519 0
2018-06-13 22:11:43 GMT 46.802216 -1.975998 31,000 224 519 0
2018-06-13 22:11:39 GMT 46.808369 -1.967583 30,975 224 519 0
2018-06-13 22:11:33 GMT 46.819702 -1.952016 30,975 224 519 0
2018-06-13 22:11:30 GMT 46.824055 -1.946022 31,000 224 519 0
2018-06-13 22:11:27 GMT 46.828945 -1.939362 31,000 224 519 0
2018-06-13 22:11:22 GMT 46.838882 -1.925689 31,000 224 518 0
2018-06-13 22:11:18 GMT 46.845329 -1.916840 31,000 224 518 0
2018-06-13 22:11:11 GMT 46.857201 -1.900497 31,000 224 518 0
2018-06-13 22:11:08 GMT 46.863113 -1.892395 30,975 224 518 0
2018-06-13 22:11:04 GMT 46.869553 -1.883469 31,000 224 517 0
2018-06-13 22:11:00 GMT 46.877357 -1.872746 31,000 224 517 0
2018-06-13 22:10:54 GMT 46.887833 -1.858309 31,000 224 517 0
2018-06-13 22:10:50 GMT 46.895279 -1.848038 30,975 224 517 0
2018-06-13 22:10:46 GMT 46.900497 -1.840828 30,975 224 517 0
2018-06-13 22:10:43 GMT 46.905895 -1.833379 31,000 224 517 0
2018-06-13 22:10:39 GMT 46.913204 -1.823308 30,975 224 517 0
2018-06-13 22:10:36 GMT 46.919067 -1.815139 30,975 224 517 0
2018-06-13 22:10:33 GMT 46.924484 -1.807732 30,975 224 517 0
2018-06-13 22:10:29 GMT 46.931076 -1.798599 30,975 224 517 0
2018-06-13 22:10:23 GMT 46.941322 -1.784433 30,975 224 517 0
2018-06-13 22:10:18 GMT 46.949478 -1.773193 30,975 224 517 0
2018-06-13 22:10:15 GMT 46.955750 -1.764542 31,000 224 517 0
2018-06-13 22:10:12 GMT 46.960602 -1.757812 31,000 224 517 0
2018-06-13 22:10:09 GMT 46.967010 -1.748886 31,000 224 517 0
2018-06-13 22:10:03 GMT 46.977585 -1.734261 31,000 224 517 0
2018-06-13 22:09:58 GMT 46.984543 -1.724648 31,000 224 517 0
2018-06-13 22:09:53 GMT 46.993740 -1.711895 30,975 224 517 0
2018-06-13 22:09:50 GMT 46.998955 -1.704641 30,975 224 517 0
2018-06-13 22:09:47 GMT 47.002724 -1.699430 30,975 224 518 0
2018-06-13 22:09:41 GMT 47.013336 -1.684685 30,975 224 517 0
2018-06-13 22:09:37 GMT 47.020294 -1.675072 30,975 224 518 0
2018-06-13 22:09:30 GMT 47.032425 -1.658180 30,975 224 518 0
2018-06-13 22:09:26 GMT 47.039547 -1.648301 30,975 224 518 0
2018-06-13 22:09:22 GMT 47.047348 -1.637444 31,000 224 518 0
2018-06-13 22:09:19 GMT 47.052719 -1.629991 31,000 224 518 0
2018-06-13 22:09:16 GMT 47.056911 -1.624216 31,000 224 518 0
2018-06-13 22:09:10 GMT 47.067810 -1.609016 30,975 224 518 0
2018-06-13 22:09:06 GMT 47.074768 -1.599335 30,975 224 518 0
2018-06-13 22:09:00 GMT 47.084473 -1.585876 30,975 224 517 0
2018-06-13 22:08:56 GMT 47.092289 -1.574989 30,975 224 517 0
2018-06-13 22:08:51 GMT 47.102673 -1.560481 30,975 224 517 0
2018-06-13 22:08:45 GMT 47.110474 -1.549622 31,000 224 518 0
2018-06-13 22:08:42 GMT 47.115475 -1.542593 31,000 224 518 0
2018-06-13 22:08:39 GMT 47.120865 -1.535065 30,975 224 518 0
2018-06-13 22:08:36 GMT 47.127777 -1.525383 31,000 224 518 0
2018-06-13 22:08:33 GMT 47.131943 -1.519547 31,000 224 518 0
2018-06-13 22:08:29 GMT 47.138004 -1.511113 31,000 224 518 0
2018-06-13 22:08:24 GMT 47.146664 -1.499000 31,000 224 517 0
2018-06-13 22:08:19 GMT 47.157898 -1.483292 31,000 224 517 0
2018-06-13 22:08:13 GMT 47.168976 -1.467773 31,000 224 517 0
2018-06-13 22:08:09 GMT 47.174194 -1.460564 30,975 224 517 0
2018-06-13 22:08:04 GMT 47.182480 -1.448959 30,975 224 517 0
2018-06-13 22:08:01 GMT 47.188187 -1.440970 30,975 224 517 0
2018-06-13 22:07:58 GMT 47.191631 -1.436110 30,975 224 517 0
2018-06-13 22:07:54 GMT 47.201157 -1.422798 30,975 224 517 0
2018-06-13 22:07:50 GMT 47.208069 -1.413116 31,000 224 517 0
2018-06-13 22:07:47 GMT 47.210674 -1.409490 31,000 224 517 0
2018-06-13 22:07:44 GMT 47.216167 -1.401743 30,975 224 517 0
2018-06-13 22:07:41 GMT 47.221706 -1.393996 30,975 224 517 0
2018-06-13 22:07:38 GMT 47.227386 -1.385994 31,000 224 516 0
2018-06-13 22:07:34 GMT 47.234463 -1.376038 31,000 224 516 0
2018-06-13 22:07:31 GMT 47.238785 -1.369995 31,000 224 516 0
2018-06-13 22:07:26 GMT 47.248077 -1.356949 30,975 224 516 0
2018-06-13 22:07:23 GMT 47.254303 -1.348160 31,000 224 516 0
2018-06-13 22:07:16 GMT 47.265141 -1.332937 31,000 224 516 0
2018-06-13 22:07:13 GMT 47.269981 -1.326106 30,975 224 516 0
2018-06-13 22:07:10 GMT 47.276001 -1.317673 30,975 224 516 0
2018-06-13 22:07:05 GMT 47.284458 -1.305753 31,000 224 516 0
2018-06-13 22:07:02 GMT 47.289951 -1.298006 30,975 224 516 0
2018-06-13 22:06:55 GMT 47.301132 -1.282242 30,975 224 516 0
2018-06-13 22:06:51 GMT 47.308044 -1.272560 30,975 224 516 0
2018-06-13 22:06:44 GMT 47.319233 -1.256808 30,975 224 516 0
2018-06-13 22:06:41 GMT 47.326122 -1.247089 30,975 224 516 0
2018-06-13 22:06:37 GMT 47.332489 -1.238091 30,975 224 517 0
2018-06-13 22:06:34 GMT 47.337482 -1.231032 30,975 224 517 0
2018-06-13 22:06:31 GMT 47.342148 -1.224495 30,975 224 517 0
2018-06-13 22:06:25 GMT 47.352283 -1.210116 30,975 224 517 0
2018-06-13 22:06:21 GMT 47.359360 -1.200188 31,000 224 517 0
2018-06-13 22:06:16 GMT 47.369881 -1.185326 31,000 224 517 0
2018-06-13 22:06:11 GMT 47.377468 -1.174551 31,000 224 517 0
2018-06-13 22:06:08 GMT 47.382591 -1.167227 30,975 224 517 0
2018-06-13 22:06:05 GMT 47.387756 -1.159973 31,000 224 517 0
2018-06-13 22:06:02 GMT 47.394150 -1.150887 30,975 224 516 0
2018-06-13 22:05:58 GMT 47.399490 -1.143353 30,975 224 516 0
2018-06-13 22:05:55 GMT 47.404816 -1.135780 30,975 224 516 0
2018-06-13 22:05:51 GMT 47.411175 -1.126732 31,000 224 516 0
2018-06-13 22:05:47 GMT 47.418064 -1.117014 31,000 224 516 0
2018-06-13 22:05:44 GMT 47.422668 -1.110374 30,975 224 516 0
2018-06-13 22:05:40 GMT 47.430771 -1.098915 30,975 224 516 0
2018-06-13 22:05:37 GMT 47.437454 -1.089432 31,000 224 516 0
2018-06-13 22:05:34 GMT 47.440735 -1.084759 31,000 224 516 0
2018-06-13 22:05:29 GMT 47.449345 -1.072575 31,000 224 516 0
2018-06-13 22:05:24 GMT 47.458099 -1.060112 31,000 224 516 0
2018-06-13 22:05:18 GMT 47.467548 -1.046659 31,000 224 516 0
2018-06-13 22:05:13 GMT 47.476318 -1.034225 31,000 224 516 0
2018-06-13 22:05:08 GMT 47.485245 -1.021454 30,975 224 516 0
2018-06-13 22:05:03 GMT 47.495712 -1.006517 30,975 224 516 0
2018-06-13 22:04:58 GMT 47.502777 -0.996529 30,975 224 516 0
2018-06-13 22:04:55 GMT 47.506897 -0.990623 30,975 224 516 0
2018-06-13 22:04:52 GMT 47.512238 -0.982995 31,000 225 517 0
2018-06-13 22:04:49 GMT 47.517197 -0.975929 30,975 225 517 0
2018-06-13 22:04:46 GMT 47.524250 -0.965881 31,000 225 517 0
2018-06-13 22:04:42 GMT 47.530766 -0.956515 31,000 225 517 0
2018-06-13 22:04:39 GMT 47.537476 -0.946953 31,000 225 517 0
2018-06-13 22:04:36 GMT 47.540222 -0.943039 31,000 225 517 0
2018-06-13 22:04:32 GMT 47.546921 -0.933486 31,000 225 517 0
2018-06-13 22:04:29 GMT 47.552628 -0.925323 30,975 225 517 0
2018-06-13 22:04:26 GMT 47.557953 -0.917711 30,975 225 519 0
2018-06-13 22:04:21 GMT 47.566517 -0.905457 31,000 225 517 0
2018-06-13 22:04:18 GMT 47.571854 -0.897789 30,975 225 517 0
2018-06-13 22:04:15 GMT 47.575333 -0.892914 30,975 225 517 0
2018-06-13 22:04:12 GMT 47.582348 -0.882780 30,975 225 519 0
2018-06-13 22:04:08 GMT 47.589233 -0.872991 30,975 225 519 0
2018-06-13 22:04:05 GMT 47.592499 -0.868263 30,975 225 519 0
2018-06-13 22:04:02 GMT 47.599411 -0.858444 30,975 225 519 0
2018-06-13 22:03:59 GMT 47.603016 -0.853201 30,975 225 519 0
2018-06-13 22:03:55 GMT 47.610443 -0.842651 30,975 225 519 0
2018-06-13 22:03:52 GMT 47.618362 -0.831253 30,975 225 519 0
2018-06-13 22:03:48 GMT 47.623535 -0.823837 31,000 225 519 0
2018-06-13 22:03:44 GMT 47.629028 -0.815941 31,000 225 519 0
2018-06-13 22:03:40 GMT 47.637634 -0.803581 30,975 225 519 0
2018-06-13 22:03:37 GMT 47.640907 -0.798833 31,000 225 519 0
2018-06-13 22:03:34 GMT 47.646076 -0.791438 31,000 225 519 0
2018-06-13 22:03:31 GMT 47.652832 -0.781746 31,000 225 519 0
2018-06-13 22:03:27 GMT 47.659698 -0.771858 31,000 225 520 0
2018-06-13 22:03:24 GMT 47.666245 -0.762451 30,975 225 520 0
2018-06-13 22:03:20 GMT 47.671261 -0.755240 30,800 225 521 704
2018-06-13 22:03:17 GMT 47.676430 -0.747775 30,975 225 520 0
2018-06-13 22:03:14 GMT 47.681076 -0.741096 30,975 225 520 0
2018-06-13 22:03:10 GMT 47.688484 -0.730450 31,000 225 520 0
2018-06-13 22:03:06 GMT 47.695049 -0.721013 31,000 225 520 0
2018-06-13 22:03:03 GMT 47.700214 -0.713548 30,975 225 521 0
2018-06-13 22:03:00 GMT 47.706253 -0.704842 30,975 225 521 0
2018-06-13 22:02:52 GMT 47.718464 -0.687138 31,000 225 521 0
2018-06-13 22:02:49 GMT 47.724152 -0.678886 29,900 225 526 1344
2018-06-13 22:02:44 GMT 47.733124 -0.665977 30,975 225 521 0
2018-06-13 22:02:41 GMT 47.739834 -0.656222 30,975 225 521 0
2018-06-13 22:02:38 GMT 47.743649 -0.650729 30,975 225 521 0
2018-06-13 22:02:34 GMT 47.750015 -0.641464 30,975 225 521 0
2018-06-13 22:02:31 GMT 47.754501 -0.635010 30,975 225 521 0
2018-06-13 22:02:28 GMT 47.761200 -0.625235 30,975 225 521 0
2018-06-13 22:02:22 GMT 47.772556 -0.608755 30,975 225 521 0
2018-06-13 22:02:17 GMT 47.781868 -0.595234 30,975 225 521 0
2018-06-13 22:02:14 GMT 47.785126 -0.590446 30,975 225 522 0
2018-06-13 22:02:11 GMT 47.790298 -0.582962 30,975 225 522 0
2018-06-13 22:02:08 GMT 47.794579 -0.576712 30,975 225 521 0
2018-06-13 22:02:04 GMT 47.802017 -0.565933 30,975 225 521 0
2018-06-13 22:02:00 GMT 47.811264 -0.552338 31,000 225 521 0
2018-06-13 22:01:56 GMT 47.816273 -0.545091 31,000 225 521 0
2018-06-13 22:01:53 GMT 47.821438 -0.537555 30,975 225 521 0
2018-06-13 22:01:50 GMT 47.825729 -0.531258 30,975 225 522 0
2018-06-13 22:01:47 GMT 47.831223 -0.523224 30,975 225 522 0
2018-06-13 22:01:43 GMT 47.838089 -0.513130 30,975 225 522 0
2018-06-13 22:01:40 GMT 47.843086 -0.505864 30,975 225 522 0
2018-06-13 22:01:37 GMT 47.849648 -0.496286 30,975 225 522 0
2018-06-13 22:01:33 GMT 47.854443 -0.489244 30,975 225 522 0
2018-06-13 22:01:30 GMT 47.860794 -0.479897 30,975 225 522 0
2018-06-13 22:01:27 GMT 47.865803 -0.472553 30,975 225 523 0
2018-06-13 22:01:21 GMT 47.875580 -0.458199 31,000 225 523 0
2018-06-13 22:01:17 GMT 47.883499 -0.446594 31,000 225 523 0
2018-06-13 22:01:14 GMT 47.888992 -0.438492 30,675 225 521 640
2018-06-13 22:01:10 GMT 47.893799 -0.431419 31,000 225 523 0
2018-06-13 22:01:07 GMT 47.901352 -0.420227 30,975 225 523 128
2018-06-13 22:01:02 GMT 47.908585 -0.409584 30,925 225 523 256
2018-06-13 22:00:58 GMT 47.915451 -0.399490 30,950 225 522 512
2018-06-13 22:00:55 GMT 47.922318 -0.389328 30,925 225 522 640
2018-06-13 22:00:51 GMT 47.927624 -0.381493 30,850 225 522 640
2018-06-13 22:00:46 GMT 47.936840 -0.367831 30,825 225 521 640
2018-06-13 22:00:43 GMT 47.941311 -0.361281 30,675 225 521 640
2018-06-13 22:00:39 GMT 47.946945 -0.352936 30,725 225 525 1408
2018-06-13 22:00:36 GMT 47.954296 -0.342055 30,700 225 521 640
2018-06-13 22:00:30 GMT 47.963516 -0.328393 30,650 225 521 768
2018-06-13 22:00:26 GMT 47.970360 -0.318322 30,575 225 521 832
2018-06-13 22:00:23 GMT 47.975647 -0.310501 30,550 225 521 896
2018-06-13 22:00:20 GMT 47.979946 -0.304166 30,525 225 521 896
2018-06-13 22:00:15 GMT 47.989166 -0.290504 30,425 225 521 1408
2018-06-13 22:00:11 GMT 47.997528 -0.278160 30,325 225 522 1536
2018-06-13 22:00:08 GMT 48.001923 -0.271700 30,100 225 525 1408
2018-06-13 22:00:04 GMT 48.008579 -0.261770 30,150 225 523 1600
2018-06-13 22:00:00 GMT 48.015236 -0.251981 30,050 225 525 1536
2018-06-13 21:59:57 GMT 48.019592 -0.245613 29,925 225 526 1472
2018-06-13 21:59:54 GMT 48.025291 -0.237192 29,925 225 526 1408
2018-06-13 21:59:50 GMT 48.032551 -0.226487 29,825 225 528 1344
2018-06-13 21:59:47 GMT 48.037262 -0.219589 29,700 225 528 1280
2018-06-13 21:59:44 GMT 48.042435 -0.211899 29,700 225 528 1280
2018-06-13 21:59:40 GMT 48.050812 -0.199608 29,600 225 529 1088
2018-06-13 21:59:37 GMT 48.055504 -0.192754 29,550 225 530 896
2018-06-13 21:59:34 GMT 48.060562 -0.185326 29,525 225 530 768
2018-06-13 21:59:29 GMT 48.068939 -0.173035 29,450 225 530 704
2018-06-13 21:59:26 GMT 48.073105 -0.166855 29,400 225 529 768
2018-06-13 21:59:23 GMT 48.078873 -0.158386 29,375 225 529 768
2018-06-13 21:59:19 GMT 48.087067 -0.146393 29,325 225 529 960
2018-06-13 21:59:16 GMT 48.091442 -0.140005 29,275 225 529 1024
2018-06-13 21:59:13 GMT 48.096329 -0.132822 29,200 225 530 1088
2018-06-13 21:59:10 GMT 48.104233 -0.121330 29,175 225 529 960
2018-06-13 21:59:06 GMT 48.109131 -0.114189 29,100 225 530 832
2018-06-13 21:59:02 GMT 48.115768 -0.104507 29,050 225 529 768
2018-06-13 21:58:58 GMT 48.123329 -0.093525 29,000 225 529 704
2018-06-13 21:58:54 GMT 48.129135 -0.085144 28,975 224 529 576
2018-06-13 21:58:51 GMT 48.136505 -0.074501 28,900 224 529 576
2018-06-13 21:58:48 GMT 48.141083 -0.067909 28,900 225 528 640
2018-06-13 21:58:44 GMT 48.148773 -0.056717 28,850 225 528 768
2018-06-13 21:58:41 GMT 48.153820 -0.049298 28,800 225 527 640
2018-06-13 21:58:37 GMT 48.159733 -0.040565 28,775 225 526 704
2018-06-13 21:58:34 GMT 48.163876 -0.034405 28,750 226 526 576
2018-06-13 21:58:31 GMT 48.171463 -0.023129 28,700 226 526 576
2018-06-13 21:58:27 GMT 48.177795 -0.013522 28,675 226 526 576
2018-06-13 21:58:23 GMT 48.183884 -0.004226 28,625 226 524 512
2018-06-13 21:58:20 GMT 48.188644 0.003028 28,600 226 524 320
2018-06-13 21:58:17 GMT 48.192879 0.009541 28,600 227 523 320
2018-06-13 21:58:14 GMT 48.198929 0.018865 28,575 227 522 320
2018-06-13 21:58:10 GMT 48.205261 0.028767 28,550 227 521 320
2018-06-13 21:58:07 GMT 48.209427 0.035283 28,550 227 521 384
2018-06-13 21:58:04 GMT 48.215057 0.044157 28,525 227 520 448
2018-06-13 21:58:01 GMT 48.220810 0.053342 28,500 227 519 448
2018-06-13 21:57:58 GMT 48.225742 0.061148 28,475 227 518 512
2018-06-13 21:57:54 GMT 48.232132 0.071341 28,450 227 517 576
2018-06-13 21:57:50 GMT 48.239197 0.082614 28,375 227 517 640
2018-06-13 21:57:47 GMT 48.242615 0.088102 28,350 227 516 640
2018-06-13 21:57:44 GMT 48.248322 0.097215 28,325 227 517 640
2018-06-13 21:57:41 GMT 48.253418 0.105286 28,275 227 516 512
2018-06-13 21:57:38 GMT 48.257629 0.112046 28,250 227 515 512
2018-06-13 21:57:35 GMT 48.262527 0.119864 28,250 228 514 448
2018-06-13 21:57:32 GMT 48.268200 0.129017 28,200 228 514 448
2018-06-13 21:57:29 GMT 48.273041 0.136823 28,200 228 513 448
2018-06-13 21:57:26 GMT 48.277039 0.143386 28,150 228 512 512
2018-06-13 21:57:23 GMT 48.282486 0.152259 28,125 228 512 576
2018-06-13 21:57:19 GMT 48.289333 0.163711 28,100 229 511 640
2018-06-13 21:57:16 GMT 48.293060 0.170071 28,025 230 509 640
2018-06-13 21:57:13 GMT 48.298965 0.180500 28,025 231 509 640
2018-06-13 21:57:08 GMT 48.305145 0.191979 27,950 234 507 640
2018-06-13 21:57:05 GMT 48.308853 0.199303 27,950 235 506 640
2018-06-13 21:57:02 GMT 48.313263 0.208740 27,900 237 504 704
2018-06-13 21:56:58 GMT 48.319408 0.222762 27,850 238 503 768
2018-06-13 21:56:55 GMT 48.322037 0.228952 27,800 238 503 704
2018-06-13 21:56:52 GMT 48.326614 0.239516 27,775 238 503 704
2018-06-13 21:56:48 GMT 48.331512 0.250879 27,725 238 502 704
2018-06-13 21:56:45 GMT 48.335049 0.259118 27,700 238 502 704
2018-06-13 21:56:41 GMT 48.340164 0.271067 27,650 238 502 768
2018-06-13 21:56:37 GMT 48.345337 0.283115 27,600 238 501 768
2018-06-13 21:56:34 GMT 48.347946 0.289236 27,575 238 501 704
2018-06-13 21:56:30 GMT 48.354553 0.304726 27,500 238 500 832
2018-06-13 21:56:27 GMT 48.357578 0.311737 27,450 238 500 896
2018-06-13 21:56:24 GMT 48.360443 0.318463 27,400 238 500 896
2018-06-13 21:56:21 GMT 48.366055 0.331541 27,375 238 500 896
2018-06-13 21:56:17 GMT 48.369415 0.339449 27,325 238 499 832
2018-06-13 21:56:14 GMT 48.373627 0.349379 27,275 238 499 832
2018-06-13 21:56:11 GMT 48.377224 0.357778 27,225 238 498 832
2018-06-13 21:56:07 GMT 48.381821 0.368605 27,175 238 498 896
2018-06-13 21:56:04 GMT 48.386032 0.378465 27,150 238 498 896
2018-06-13 21:56:00 GMT 48.392761 0.394240 26,925 238 498 1088
2018-06-13 21:55:57 GMT 48.395847 0.401507 27,025 238 497 1152
2018-06-13 21:55:53 GMT 48.399059 0.409024 26,975 238 497 1216
2018-06-13 21:55:49 GMT 48.405018 0.423046 26,850 238 498 1280
2018-06-13 21:55:45 GMT 48.410843 0.436707 26,750 238 498 1152
2018-06-13 21:55:41 GMT 48.416142 0.449211 26,675 238 498 1024
2018-06-13 21:55:36 GMT 48.421124 0.460920 26,600 238 498 960
2018-06-13 21:55:33 GMT 48.424335 0.468437 26,575 238 498 960
2018-06-13 21:55:29 GMT 48.430527 0.483037 26,475 238 497 960
2018-06-13 21:55:26 GMT 48.433640 0.490300 26,450 238 497 896
2018-06-13 21:55:23 GMT 48.436718 0.497565 26,425 238 497 896
2018-06-13 21:55:19 GMT 48.442291 0.510653 26,350 238 497 832
2018-06-13 21:55:15 GMT 48.446777 0.521146 26,300 238 496 832
2018-06-13 21:55:12 GMT 48.451103 0.531319 26,250 238 496 896
2018-06-13 21:55:08 GMT 48.456272 0.543462 26,200 238 495 768
2018-06-13 21:55:05 GMT 48.459366 0.550725 26,175 238 495 768
2018-06-13 21:55:02 GMT 48.464417 0.562616 26,100 238 494 704
2018-06-13 21:54:59 GMT 48.467396 0.569554 26,100 238 494 704
2018-06-13 21:54:55 GMT 48.471821 0.579962 26,050 238 493 640
2018-06-13 21:54:50 GMT 48.478012 0.594346 26,000 238 492 576
2018-06-13 21:54:47 GMT 48.482254 0.604318 25,975 238 492 576
2018-06-13 21:54:44 GMT 48.484863 0.610375 25,950 238 491 576
2018-06-13 21:54:40 GMT 48.490021 0.622535 25,900 238 489 704
2018-06-13 21:54:36 GMT 48.495300 0.634813 25,850 238 489 704
2018-06-13 21:54:33 GMT 48.497890 0.640821 25,825 238 489 576
2018-06-13 21:54:30 GMT 48.502499 0.651663 25,800 238 488 512
2018-06-13 21:54:26 GMT 48.508530 0.665588 25,725 237 483 768
2018-06-13 21:54:23 GMT 48.510597 0.670455 25,750 237 485 448
2018-06-13 21:54:20 GMT 48.514740 0.680068 25,725 239 477 320
2018-06-13 21:54:17 GMT 48.519516 0.691082 25,675 237 483 832
2018-06-13 21:54:13 GMT 48.522949 0.698970 25,625 237 484 1088
2018-06-13 21:54:09 GMT 48.527802 0.710238 25,300 239 483 256
2018-06-13 21:54:05 GMT 48.533733 0.724158 25,425 238 483 1344
2018-06-13 21:54:01 GMT 48.536804 0.731530 25,350 238 483 1024
2018-06-13 21:53:58 GMT 48.540298 0.739817 25,325 238 483 896
2018-06-13 21:53:54 GMT 48.546303 0.754370 25,300 239 481 192
2018-06-13 21:53:51 GMT 48.549095 0.761165 25,275 239 479 256
2018-06-13 21:53:48 GMT 48.554306 0.773902 25,275 239 479 320
2018-06-13 21:53:43 GMT 48.557941 0.782848 25,250 239 477 320
2018-06-13 21:53:39 GMT 48.562737 0.794774 25,200 239 476 640
2018-06-13 21:53:35 GMT 48.567299 0.806122 25,175 239 476 640
2018-06-13 21:53:32 GMT 48.571815 0.817470 25,100 240 474 768
2018-06-13 21:53:29 GMT 48.574745 0.824842 25,075 240 474 832
2018-06-13 21:53:25 GMT 48.578659 0.834750 25,050 239 473 1024
2018-06-13 21:53:22 GMT 48.581917 0.842984 25,000 239 473 960
2018-06-13 21:53:19 GMT 48.585846 0.852849 24,925 239 473 1024
2018-06-13 21:53:16 GMT 48.589130 0.860981 24,900 239 472 960
2018-06-13 21:53:13 GMT 48.593765 0.872568 24,825 239 472 960
2018-06-13 21:53:10 GMT 48.595596 0.877075 24,775 239 471 768
2018-06-13 21:53:07 GMT 48.598755 0.884963 24,775 239 472 832
2018-06-13 21:53:03 GMT 48.604305 0.898711 24,700 239 471 768
2018-06-13 21:53:00 GMT 48.606773 0.904854 24,650 239 470 768
2018-06-13 21:52:57 GMT 48.610245 0.913626 24,550 243 466 768
2018-06-13 21:52:50 GMT 48.618504 0.934778 24,525 241 467 832
2018-06-13 21:52:47 GMT 48.620834 0.940921 24,500 241 467 832
2018-06-13 21:52:43 GMT 48.626839 0.957545 24,425 243 465 768
2018-06-13 21:52:40 GMT 48.628738 0.962994 24,375 245 464 704
2018-06-13 21:52:37 GMT 48.631447 0.971423 24,250 251 459 832
2018-06-13 21:52:29 GMT 48.637253 0.993277 24,275 252 459 896
2018-06-13 21:52:26 GMT 48.639313 1.002362 24,225 252 459 896
2018-06-13 21:52:19 GMT 48.644623 1.025954 24,100 252 457 896
2018-06-13 21:52:16 GMT 48.646297 1.033365 24,075 252 457 896
2018-06-13 21:52:11 GMT 48.649696 1.048544 23,950 252 456 960
2018-06-13 21:52:07 GMT 48.652634 1.061519 23,900 252 455 1024
2018-06-13 21:52:04 GMT 48.654510 1.069970 23,900 252 455 1024
2018-06-13 21:52:01 GMT 48.656982 1.080745 23,800 252 455 1152
2018-06-13 21:51:58 GMT 48.658722 1.088562 23,750 252 455 1152
2018-06-13 21:51:55 GMT 48.660599 1.097013 23,725 252 455 1152
2018-06-13 21:51:50 GMT 48.664871 1.115980 23,600 252 454 1088
2018-06-13 21:51:47 GMT 48.666176 1.121834 23,575 252 454 1088
2018-06-13 21:51:43 GMT 48.669014 1.134483 23,500 252 451 1024
2018-06-13 21:51:37 GMT 48.672924 1.151902 22,675 252 446 1152
2018-06-13 21:51:34 GMT 48.674694 1.159636 23,250 252 451 1024
2018-06-13 21:51:28 GMT 48.679398 1.180524 23,225 252 451 960
2018-06-13 21:51:25 GMT 48.681473 1.189833 23,175 252 450 960
2018-06-13 21:51:20 GMT 48.684402 1.202933 23,100 252 450 1024
2018-06-13 21:51:17 GMT 48.686703 1.213194 23,025 252 449 1024
2018-06-13 21:51:13 GMT 48.689125 1.224036 22,975 252 448 1024
2018-06-13 21:51:09 GMT 48.691406 1.234083 22,925 252 448 1024
2018-06-13 21:51:06 GMT 48.694107 1.246244 22,850 252 447 1024
2018-06-13 21:51:03 GMT 48.695435 1.252160 22,825 252 447 1024
2018-06-13 21:50:59 GMT 48.697926 1.263139 22,775 252 446 1088
2018-06-13 21:50:56 GMT 48.700951 1.276727 22,675 252 446 1152
2018-06-13 21:50:53 GMT 48.702621 1.284062 22,650 252 445 1152
2018-06-13 21:50:49 GMT 48.704727 1.293570 22,575 252 445 1216
2018-06-13 21:50:46 GMT 48.707188 1.304482 22,500 252 445 1280
2018-06-13 21:50:43 GMT 48.708771 1.311493 22,425 252 445 1344
2018-06-13 21:50:40 GMT 48.710632 1.319733 22,400 252 444 1344
2018-06-13 21:50:35 GMT 48.714169 1.335634 22,250 252 444 1216
2018-06-13 21:50:31 GMT 48.716766 1.347093 22,200 252 444 1152
2018-06-13 21:50:27 GMT 48.719559 1.359417 22,125 252 443 1088
2018-06-13 21:50:23 GMT 48.721992 1.370255 22,050 252 443 896
2018-06-13 21:50:20 GMT 48.724960 1.383432 21,800 252 441 1600
2018-06-13 21:50:17 GMT 48.725876 1.387587 21,975 252 442 1024
2018-06-13 21:50:13 GMT 48.729172 1.402165 21,875 252 441 1408
2018-06-13 21:50:10 GMT 48.731415 1.412095 21,800 252 441 1600
2018-06-13 21:50:05 GMT 48.733658 1.422025 21,700 252 441 1792
2018-06-13 21:50:02 GMT 48.736038 1.432519 21,600 252 441 1728
2018-06-13 21:49:59 GMT 48.738750 1.444485 21,475 252 441 1536
2018-06-13 21:49:56 GMT 48.740021 1.450054 21,450 252 442 1472
2018-06-13 21:49:53 GMT 48.742332 1.460314 21,350 252 442 1344
2018-06-13 21:49:49 GMT 48.744568 1.470216 21,275 252 441 1280
2018-06-13 21:49:45 GMT 48.746979 1.481042 21,175 252 441 1152
2018-06-13 21:49:41 GMT 48.750412 1.496183 21,100 252 440 1088
2018-06-13 21:49:38 GMT 48.751740 1.502028 21,075 252 440 1152
2018-06-13 21:49:34 GMT 48.754299 1.513439 21,000 252 439 1216
2018-06-13 21:49:30 GMT 48.756996 1.525654 20,900 252 439 1280
2018-06-13 21:49:26 GMT 48.759293 1.535832 20,850 252 438 1216
2018-06-13 21:49:23 GMT 48.762074 1.548277 20,750 252 437 1088
2018-06-13 21:49:19 GMT 48.764191 1.557946 20,700 252 437 1024
2018-06-13 21:49:16 GMT 48.765751 1.565046 20,650 252 436 896
2018-06-13 21:49:12 GMT 48.768631 1.578158 20,600 252 436 896
2018-06-13 21:49:09 GMT 48.770782 1.587947 20,550 252 433 896
2018-06-13 21:49:06 GMT 48.772202 1.594285 20,475 252 433 960
2018-06-13 21:49:03 GMT 48.773941 1.602384 20,475 252 432 1152
2018-06-13 21:48:59 GMT 48.776459 1.614123 20,400 253 431 1280
2018-06-13 21:48:56 GMT 48.778976 1.625906 20,300 253 431 1280
2018-06-13 21:48:52 GMT 48.781540 1.637949 20,225 253 430 1216
2018-06-13 21:48:48 GMT 48.783531 1.647443 20,025 253 429 1152
2018-06-13 21:48:43 GMT 48.786530 1.662034 20,050 253 428 1344
2018-06-13 21:48:40 GMT 48.788795 1.673247 19,975 254 428 1408
2018-06-13 21:48:37 GMT 48.789631 1.677222 19,950 254 428 1472
2018-06-13 21:48:34 GMT 48.791588 1.686980 19,800 254 428 1536
2018-06-13 21:48:31 GMT 48.793533 1.697036 19,775 254 427 1472
2018-06-13 21:48:27 GMT 48.795547 1.707318 19,625 255 426 1472
2018-06-13 21:48:23 GMT 48.798157 1.721121 19,575 255 426 1536
2018-06-13 21:48:20 GMT 48.799255 1.726896 19,450 255 425 1472
2018-06-13 21:48:16 GMT 48.801270 1.738008 19,300 255 425 1472
2018-06-13 21:48:13 GMT 48.802853 1.746682 19,350 255 425 1472
2018-06-13 21:48:10 GMT 48.804340 1.755283 19,275 256 425 1472
2018-06-13 21:48:07 GMT 48.806343 1.766847 19,150 256 423 1344
2018-06-13 21:48:04 GMT 48.807880 1.776027 19,125 257 423 1344
2018-06-13 21:48:00 GMT 48.809738 1.787814 19,025 257 423 1280
2018-06-13 21:47:55 GMT 48.811523 1.799363 18,875 258 421 1280
2018-06-13 21:47:52 GMT 48.812576 1.806265 18,900 258 420 1280
2018-06-13 21:47:49 GMT 48.814117 1.816936 18,550 259 420 1280
2018-06-13 21:47:45 GMT 48.815964 1.830632 18,725 259 419 1280
2018-06-13 21:47:41 GMT 48.817142 1.839343 18,650 259 418 1344
2018-06-13 21:47:38 GMT 48.818390 1.848238 18,550 259 418 1344
2018-06-13 21:47:34 GMT 48.819984 1.860014 18,475 259 417 1408
2018-06-13 21:47:31 GMT 48.820862 1.866549 18,375 259 416 1536
2018-06-13 21:47:28 GMT 48.822220 1.876566 18,350 259 416 1536
2018-06-13 21:47:23 GMT 48.824203 1.891127 18,200 259 415 1472
2018-06-13 21:47:20 GMT 48.825394 1.899719 18,150 259 415 1536
2018-06-13 21:47:17 GMT 48.826538 1.908170 18,025 259 415 1472
2018-06-13 21:47:14 GMT 48.827454 1.914720 18,025 259 415 1472
2018-06-13 21:47:11 GMT 48.828964 1.925847 17,925 259 414 1344
2018-06-13 21:47:08 GMT 48.830383 1.936129 17,850 259 413 1344
2018-06-13 21:47:05 GMT 48.831203 1.942050 17,800 259 413 1280
2018-06-13 21:47:02 GMT 48.832134 1.948845 17,725 259 412 1280
2018-06-13 21:46:59 GMT 48.833996 1.962433 17,650 259 411 1216
2018-06-13 21:46:56 GMT 48.834549 1.966694 17,550 259 410 1152
2018-06-13 21:46:52 GMT 48.836555 1.981008 17,525 259 409 1216
2018-06-13 21:46:49 GMT 48.837433 1.987469 17,450 259 408 1344
2018-06-13 21:46:46 GMT 48.838577 1.995920 17,425 259 408 1408
2018-06-13 21:46:42 GMT 48.840466 2.009631 17,300 259 407 1536
2018-06-13 21:46:39 GMT 48.841209 2.015196 16,975 259 405 1408
2018-06-13 21:46:36 GMT 48.842651 2.025569 17,150 259 407 1536
2018-06-13 21:46:31 GMT 48.844608 2.039771 17,025 259 406 1472
2018-06-13 21:46:27 GMT 48.846191 2.051480 16,925 259 401 1664
2018-06-13 21:46:24 GMT 48.846935 2.057045 16,875 259 405 1408
2018-06-13 21:46:21 GMT 48.848473 2.068104 16,800 259 404 1472
2018-06-13 21:46:18 GMT 48.849216 2.073669 16,725 259 403 1536
2018-06-13 21:46:15 GMT 48.850616 2.083861 16,675 259 403 1600
2018-06-13 21:46:11 GMT 48.851898 2.093318 16,525 259 403 1664
2018-06-13 21:46:08 GMT 48.853176 2.102942 16,450 259 401 1664
2018-06-13 21:46:05 GMT 48.854095 2.109868 16,400 259 401 1664
2018-06-13 21:46:02 GMT 48.854965 2.116488 16,350 259 401 1728
2018-06-13 21:45:59 GMT 48.856339 2.126981 16,225 259 401 1728
2018-06-13 21:45:56 GMT 48.857254 2.134165 16,075 260 401 1728
2018-06-13 21:45:53 GMT 48.858536 2.144095 16,050 260 401 1728
2018-06-13 21:45:49 GMT 48.859955 2.155715 14,825 264 394 1664
2018-06-13 21:45:46 GMT 48.861042 2.164379 15,850 260 400 1600
2018-06-13 21:45:43 GMT 48.861832 2.171138 15,750 260 399 1664
2018-06-13 21:45:39 GMT 48.862858 2.179702 15,700 260 399 1664
2018-06-13 21:45:35 GMT 48.864349 2.192351 15,600 261 398 1664
2018-06-13 21:45:31 GMT 48.865585 2.203604 15,375 261 398 1600
2018-06-13 21:45:27 GMT 48.867092 2.217648 15,350 261 397 1728
2018-06-13 21:45:24 GMT 48.867794 2.224298 15,150 262 396 1792
2018-06-13 21:45:21 GMT 48.868332 2.229450 15,175 262 396 1856
2018-06-13 21:45:15 GMT 48.870075 2.247499 14,925 263 395 1920
2018-06-13 21:45:12 GMT 48.871052 2.258341 14,875 263 395 1856
2018-06-13 21:45:09 GMT 48.871719 2.266282 14,800 263 396 1792
2018-06-13 21:45:04 GMT 48.872589 2.277339 14,700 264 394 1664
2018-06-13 21:45:01 GMT 48.873322 2.286635 14,600 264 394 1600
2018-06-13 21:44:56 GMT 48.874237 2.300931 14,475 265 392 1664
2018-06-13 21:44:53 GMT 48.874775 2.309370 14,350 266 392 1728
2018-06-13 21:44:50 GMT 48.875015 2.314664 14,225 266 391 1792
2018-06-13 21:44:45 GMT 48.875793 2.331214 14,175 267 390 1728
2018-06-13 21:44:40 GMT 48.876266 2.343846 13,725 267 389 1792
2018-06-13 21:44:36 GMT 48.876682 2.353676 13,600 267 385 1792
2018-06-13 21:44:33 GMT 48.876965 2.360760 13,850 267 388 1792
2018-06-13 21:44:29 GMT 48.877380 2.371601 13,725 267 388 1792
2018-06-13 21:44:26 GMT 48.877850 2.383600 13,575 267 387 1664
2018-06-13 21:44:23 GMT 48.878082 2.390105 13,550 267 387 1664
2018-06-13 21:44:19 GMT 48.878593 2.403042 13,400 267 386 1792
2018-06-13 21:44:14 GMT 48.879105 2.415474 13,250 267 385 1792
2018-06-13 21:44:11 GMT 48.879410 2.423330 13,200 267 384 1792
2018-06-13 21:44:07 GMT 48.879757 2.432749 13,100 267 383 1728
2018-06-13 21:44:03 GMT 48.880177 2.442940 12,975 267 383 1792
2018-06-13 21:43:59 GMT 48.880596 2.454722 12,850 267 382 1792
2018-06-13 21:43:54 GMT 48.881245 2.471346 12,675 267 381 1664
2018-06-13 21:43:51 GMT 48.881378 2.474248 12,650 267 381 1728
2018-06-13 21:43:48 GMT 48.881664 2.482115 12,575 267 380 1664
2018-06-13 21:43:43 GMT 48.882271 2.498016 12,375 267 378 1408
2018-06-13 21:43:40 GMT 48.882568 2.505165 12,300 267 376 1088
2018-06-13 21:43:37 GMT 48.882782 2.511749 12,300 267 377 1216
2018-06-13 21:43:33 GMT 48.883247 2.523892 12,200 267 375 960
2018-06-13 21:43:30 GMT 48.883575 2.532782 12,150 267 372 832
2018-06-13 21:43:26 GMT 48.884033 2.545025 12,100 267 371 832
2018-06-13 21:43:22 GMT 48.884365 2.553526 12,050 267 367 896
2018-06-13 21:43:16 GMT 48.884876 2.567837 11,975 267 363 896
2018-06-13 21:43:12 GMT 48.885342 2.580558 11,900 267 360 896
2018-06-13 21:43:09 GMT 48.885574 2.586557 11,850 267 357 896
2018-06-13 21:43:06 GMT 48.885818 2.593830 11,800 267 356 960
2018-06-13 21:42:58 GMT 48.886459 2.612211 11,675 267 351 1024
2018-06-13 21:42:55 GMT 48.886738 2.620817 11,625 268 349 1088
2018-06-13 21:42:51 GMT 48.887112 2.631009 11,525 268 346 1088
2018-06-13 21:42:47 GMT 48.887390 2.639176 11,500 268 344 1088
2018-06-13 21:42:44 GMT 48.887650 2.646860 11,450 267 343 1088
2018-06-13 21:42:40 GMT 48.887997 2.656523 11,325 268 339 960
2018-06-13 21:42:36 GMT 48.888275 2.665124 11,300 268 337 960
2018-06-13 21:42:33 GMT 48.888508 2.672207 11,250 268 335 1024
2018-06-13 21:42:30 GMT 48.888794 2.680382 11,200 268 333 1024
2018-06-13 21:42:26 GMT 48.889069 2.688763 11,125 268 331 960
2018-06-13 21:42:23 GMT 48.889297 2.695735 11,100 268 329 960
2018-06-13 21:42:19 GMT 48.889618 2.704961 11,025 268 326 896
2018-06-13 21:42:16 GMT 48.889858 2.711961 10,975 268 323 832
2018-06-13 21:42:13 GMT 48.890121 2.719891 10,950 268 320 896
2018-06-13 21:42:09 GMT 48.890415 2.729091 10,875 267 317 768
2018-06-13 21:42:05 GMT 48.890671 2.735525 10,850 267 315 640
2018-06-13 21:42:02 GMT 48.890945 2.743835 10,800 267 312 512
2018-06-13 21:41:59 GMT 48.891163 2.749329 10,750 267 308 1024
2018-06-13 21:41:55 GMT 48.891495 2.757287 10,675 267 305 1216
2018-06-13 21:41:51 GMT 48.891861 2.767326 10,625 267 304 1088
2018-06-13 21:41:48 GMT 48.892139 2.774482 10,550 267 301 960
2018-06-13 21:41:43 GMT 48.892418 2.782938 10,500 267 298 704
2018-06-13 21:41:38 GMT 48.892822 2.793978 10,400 267 291 1216
2018-06-13 21:41:34 GMT 48.893143 2.802147 10,350 267 290 1600
2018-06-13 21:41:30 GMT 48.893444 2.810838 10,225 267 289 2304
2018-06-13 21:41:27 GMT 48.893692 2.817923 10,075 268 289 2752
2018-06-13 21:41:23 GMT 48.893875 2.823205 9,950 268 290 2688
2018-06-13 21:41:20 GMT 48.894188 2.832810 9,775 268 291 2240
2018-06-13 21:41:15 GMT 48.894379 2.839966 9,650 268 291 1920
2018-06-13 21:41:12 GMT 48.894562 2.845670 9,550 268 291 1728
2018-06-13 21:41:08 GMT 48.894791 2.854614 9,450 268 289 1344
2018-06-13 21:41:04 GMT 48.895073 2.865336 9,325 268 288 1024
2018-06-13 21:40:58 GMT 48.895294 2.875601 9,250 269 288 832
2018-06-13 21:40:54 GMT 48.895447 2.882249 9,200 269 287 832
2018-06-13 21:40:51 GMT 48.895615 2.888489 9,150 269 287 768
2018-06-13 21:40:46 GMT 48.895863 2.899957 9,050 268 286 704
2018-06-13 21:40:43 GMT 48.896027 2.905743 9,050 268 285 640
2018-06-13 21:40:36 GMT 48.896793 2.919906 8,925 260 287 768
2018-06-13 21:40:33 GMT 48.897774 2.927784 8,900 257 288 768
2018-06-13 21:40:25 GMT 48.900696 2.940674 8,800 247 291 768
2018-06-13 21:40:22 GMT 48.902481 2.946167 8,775 239 293 832
2018-06-13 21:40:15 GMT 48.907608 2.957365 8,650 229 296 960
2018-06-13 21:40:12 GMT 48.911087 2.962839 8,625 219 298 576
2018-06-13 21:40:05 GMT 48.918732 2.971450 8,525 210 298 1408
2018-06-13 21:40:02 GMT 48.923080 2.975041 8,475 205 296 1472
2018-06-13 21:39:54 GMT 48.932556 2.980182 8,225 192 295 1792
2018-06-13 21:39:51 GMT 48.936584 2.981380 8,175 189 295 1664
2018-06-13 21:39:43 GMT 48.948486 2.981732 7,975 172 292 1152
2018-06-13 21:39:40 GMT 48.950516 2.981343 7,950 167 290 1216
2018-06-13 21:39:31 GMT 48.963409 2.975605 7,650 155 286 2624
2018-06-13 21:39:23 GMT 48.972397 2.968260 7,325 146 288 2304
2018-06-13 21:39:19 GMT 48.976677 2.963417 7,175 140 287 1920
2018-06-13 21:39:13 GMT 48.982918 2.954238 7,000 129 284 1344
2018-06-13 21:39:10 GMT 48.985336 2.949540 6,950 124 281 1600
2018-06-13 21:39:02 GMT 48.990040 2.936891 6,675 112 278 2624
2018-06-13 21:38:58 GMT 48.991516 2.930814 6,525 108 279 2880
2018-06-13 21:38:53 GMT 48.993439 2.920251 6,275 102 279 2624
2018-06-13 21:38:49 GMT 48.994740 2.910799 6,075 101 279 1984
2018-06-13 21:38:39 GMT 48.997009 2.893700 5,800 101 275 1408
2018-06-13 21:38:35 GMT 48.998108 2.885742 5,700 101 273 1792
2018-06-13 21:38:31 GMT 48.998932 2.879574 5,575 101 271 2240
2018-06-13 21:38:28 GMT 49.000187 2.870612 5,375 102 271 2432
2018-06-13 21:38:20 GMT 49.002182 2.856657 5,050 102 270 2368
2018-06-13 21:38:16 GMT 49.003052 2.850811 4,950 102 269 2432
2018-06-13 21:38:11 GMT 49.004284 2.842423 4,750 103 269 2112
2018-06-13 21:38:08 GMT 49.005074 2.836930 4,625 102 269 1920
2018-06-13 21:38:05 GMT 49.005913 2.831365 4,525 100 268 1472
2018-06-13 21:37:58 GMT 49.007450 2.816981 4,375 96 262 960
2018-06-13 21:37:55 GMT 49.007767 2.812359 4,325 95 260 1024
2018-06-13 21:37:48 GMT 49.008270 2.798345 4,200 89 251 1024
2018-06-13 21:37:44 GMT 49.008224 2.792851 4,150 86 246 1408
2018-06-13 21:37:40 GMT 49.007950 2.784752 4,025 85 245 1408
2018-06-13 21:37:37 GMT 49.007675 2.779611 3,950 85 243 1280
2018-06-13 21:37:34 GMT 49.007404 2.774626 3,900 85 241 1024
2018-06-13 21:37:30 GMT 49.007030 2.767904 3,825 85 235 576
2018-06-13 21:37:26 GMT 49.006760 2.761794 3,800 85 233 448
2018-06-13 21:37:22 GMT 49.006474 2.756123 3,775 85 227 128
2018-06-13 21:37:19 GMT 49.006191 2.750702 3,775 85 222 384
2018-06-13 21:37:16 GMT 49.005913 2.744486 3,725 85 216 704
2018-06-13 21:37:13 GMT 49.005707 2.740807 3,700 84 211 896
2018-06-13 21:37:09 GMT 49.005447 2.735885 3,650 84 210 896
2018-06-13 21:37:04 GMT 49.004883 2.726652 3,550 84 205 1152
2018-06-13 21:37:01 GMT 49.004749 2.724537 3,500 84 202 1536
2018-06-13 21:36:58 GMT 49.004421 2.719116 3,425 84 202 1536
2018-06-13 21:36:55 GMT 49.004105 2.714116 3,325 84 201 1856
2018-06-13 21:36:51 GMT 49.003773 2.709214 3,200 84 201 1856
2018-06-13 21:36:47 GMT 49.003399 2.703360 3,075 84 201 2048
2018-06-13 21:36:44 GMT 49.003143 2.699186 2,975 84 201 1920
2018-06-13 21:36:40 GMT 49.002842 2.694831 2,875 84 201 1920
2018-06-13 21:36:37 GMT 49.002594 2.690453 2,775 84 201 1856
2018-06-13 21:36:33 GMT 49.002190 2.684061 2,625 84 201 1792
2018-06-13 21:36:30 GMT 49.001957 2.680447 2,550 84 201 1728
2018-06-13 21:36:27 GMT 49.001678 2.676086 2,450 84 200 1600
2018-06-13 21:36:23 GMT 49.001312 2.669326 2,300 85 198 1792
2018-06-13 21:36:20 GMT 49.001083 2.665734 2,250 85 198 2176
2018-06-13 21:36:17 GMT 49.000854 2.661297 2,150 85 198 2560
2018-06-13 21:36:10 GMT 49.000420 2.652765 1,875 85 200 2816
2018-06-13 21:36:06 GMT 49.000141 2.647127 1,700 85 200 2752
2018-06-13 21:36:01 GMT 48.999767 2.637803 1,400 86 200 2624
2018-06-13 21:35:56 GMT 48.999535 2.632237 1,225 87 199 2560
2018-06-13 21:35:50 GMT 48.999252 2.623690 875 87 197 2112
2018-06-13 21:35:46 GMT 48.999119 2.618866 800 87 197 2112
2018-06-13 21:35:40 GMT 48.998745 2.609759 600 85 192 1920
2018-06-13 21:35:36 GMT 48.998466 2.604410 425 84 190 2432
2018-06-13 21:35:13 GMT 48.996986 2.576928 0 84 150
2018-06-13 21:34:48 GMT 48.996113 2.560501 0 84 34
2018-06-13 21:34:38 GMT 48.996059 2.559339 0 174 5
2018-06-13 21:34:32 GMT 48.996048 2.559216 0 174 4
2018-06-13 21:34:21 GMT 48.996014 2.558881 0 174 7
2018-06-13 21:34:13 GMT 48.996010 2.558640 0 174 5
2018-06-13 21:34:02 GMT 48.996105 2.558318 0 174 6
2018-06-13 21:33:51 GMT 48.996532 2.558224 0 174 13
2018-06-13 21:33:43 GMT 48.996964 2.558170 0 174 10
2018-06-13 21:33:29 GMT 48.997467 2.558107 0 177 9
2018-06-13 21:33:20 GMT 48.997799 2.558071 0 115 8
2018-06-13 21:33:09 GMT 48.998093 2.557971 0 115 7
2018-06-13 21:33:01 GMT 48.998268 2.557736 0 115 8
2018-06-13 21:32:51 GMT 48.998394 2.557176 0 106 10
2018-06-13 21:32:40 GMT 48.998634 2.556399 0 126 13
2018-06-13 21:32:12 GMT 48.999607 2.555413 0 163 9
2018-06-13 21:32:06 GMT 48.999851 2.555315 0 163 10
2018-06-13 21:31:59 GMT 49.000168 2.555166 0 163 12
2018-06-13 21:31:42 GMT 49.001106 2.554773 0 163 13
2018-06-13 21:31:37 GMT 49.001423 2.554628 0 163 14
2018-06-13 21:31:19 GMT 49.002491 2.554159 0 163 17
2018-06-13 21:31:15 GMT 49.002823 2.554022 0 163 18
2018-06-13 21:30:45 GMT 49.004715 2.553201 0 163 13
2018-06-13 21:29:10 GMT 49.007343 2.555695 0 264 17
2018-06-13 21:28:49 GMT 49.007553 2.558170 0 261 18
2018-06-13 21:28:39 GMT 49.007652 2.559181 0 261 17
2018-06-13 21:28:22 GMT 49.007824 2.560941 0 261 17
2018-06-13 21:28:14 GMT 49.007915 2.562001 0 261 20
2018-06-13 21:28:00 GMT 49.008087 2.563723 0 261 21
2018-06-13 21:27:51 GMT 49.008202 2.564955 0 261 19
2018-06-13 21:27:41 GMT 49.008270 2.566082 0 264 17
2018-06-13 21:27:31 GMT 49.008335 2.567223 0 264 17

Making use of Plane Finder data

You are free to use the raw flight data, aircraft information and images provided in this report for your own purposes provided the data is correctly attributed to Plane Finder. We ask that you please credit Plane Finder and link to planefinder.net in close proximity to the content.

Optionally one of the following logos (no smaller then 150x24px) can be used and must link to planefinder.net

Embedding the Plane Finder map

You are welcome to embed the Plane Finder playback map on your website to offer visitors a more interactive experience. We suggest using the following HTML code:

<iframe src="//planefinder.net/data/report/AF228-F-GSPS-7700-squawk-2018-06-14/map" width="800" height="600" seamless="seamless"></iframe>

Where our data comes from

Plane Finder has a global network of data feeds and antenna radars that receive data broadcast directly from aircraft. The primary technologies used are ADS-B and MLAT. We also show feeds from the FAA and a FLARM glider feed.

Click here to find out more about the Plane Finder network.

How we collect our data